Darstellungsparameter: Aktuell verwendete Einstellungen:
Skalierung der Graphiken ... ?
xyx+y,   Skalierungsfaktor:      Skalierung: Modus: x, Faktor: 1
Darstellungszeitraum ... ?
Vom - - bis: - -   Zeitraum: 05.05.2015 - 04.08.2015
Min/Max/Avg-Anzeige ... ?
Zeige MMA aktuell
Zeige MMA Monat
Zeige MMA alles
Zeige --A aktuell
Zeige --A Monat
Zeige --A alles
Keine MMA-Anzeige
MMA:
Average (ber die Originaldaten)
MMA-Basis: 23.02.2003 - 03.08.2020
Quicknavigation für Darstellung... ?
Tage:      1T, 2T, 3T, 5T -1T -2T -3T -5T +1T +2T +3T +5T
Wochen: 1W, 2W, 3W -1W -2W -3W +1W +2W +3W
Monate: 1M, 3M, 6M -1M -3M -6M +1M +3M +6M
Jahre:    1J, 3J, 5J, 10J -1J -3J -5J -10J +1J +3J +5J +10J
Nutze für die Darstellung ... ?
Originaldaten oder ...
Mittelwerte Minima Maxima auf...
Stundenbasis Tagesbasis Wochenbasis
Monatsbasis Jahresbasis      Datenbasis: Mittelwerte auf Stundenbasis
Darstellen als:
Statistik (Auto) Statistik J:M      Darstellung:
Zur Graphik,    zurück zur Übersicht aller Sensoren.
 
Tabellarische Datenbersicht: ?
 
Sensor: Nr:Datum:Temp:Abs-Feuchte:Windchill:Wind:
Aussen-T/F 1 05-05-2015 00:00:00 15.06667 C 12.17 g/m*3 15.07 C 2 km/h
2 05-05-2015 01:00:00 16.1 C 12.5 g/m*3 16.1 C 5.08333 km/h
3 05-05-2015 02:00:00 15.88333 C 12.31 g/m*3 15.88 C 3.06667 km/h
4 05-05-2015 03:00:00 15.66667 C 12.25 g/m*3 15.67 C 2.4 km/h
5 05-05-2015 04:00:00 15.28333 C 12.12 g/m*3 15.28 C 2 km/h
6 05-05-2015 05:00:00 15.275 C 12.12 g/m*3 15.28 C 1.2 km/h
7 05-05-2015 06:00:00 16.025 C 12.52 g/m*3 16.02 C 3.06667 km/h
8 05-05-2015 07:00:00 16.025 C 12.69 g/m*3 16.02 C 1.46667 km/h
9 05-05-2015 08:00:00 16.51667 C 13.24 g/m*3 16.52 C 0.26667 km/h
10 05-05-2015 09:00:00 17.19167 C 13.86 g/m*3 17.19 C 0.26667 km/h
11 05-05-2015 10:00:00 19.08333 C 14.27 g/m*3 19.08 C 4.40833 km/h
12 05-05-2015 11:00:00 22.29167 C 13.24 g/m*3 22.29 C 14.475 km/h
13 05-05-2015 12:00:00 24.2 C 12.29 g/m*3 24.2 C 16.23333 km/h
14 05-05-2015 13:00:00 24.51667 C 11.28 g/m*3 24.52 C 20.24167 km/h
15 05-05-2015 14:00:00 24.35833 C 10.71 g/m*3 24.36 C 28.14167 km/h
16 05-05-2015 15:00:00 24.11667 C 10.17 g/m*3 24.12 C 26.68333 km/h
17 05-05-2015 16:00:00 22.53333 C 10.26 g/m*3 22.53 C 21.71667 km/h
18 05-05-2015 17:00:00 20.54167 C 10.15 g/m*3 20.54 C 15.83333 km/h
19 05-05-2015 18:00:00 20.55833 C 9.89 g/m*3 20.56 C 13.03333 km/h
20 05-05-2015 19:00:00 19.19167 C 9.63 g/m*3 19.19 C 7.775 km/h
21 05-05-2015 20:00:00 17.76667 C 9.83 g/m*3 17.77 C 4.825 km/h
22 05-05-2015 21:00:00 16.6 C 9.63 g/m*3 16.6 C 2.93333 km/h
23 05-05-2015 22:00:00 14.65833 C 9.07 g/m*3 14.66 C 1.73333 km/h
24 05-05-2015 23:00:00 13.35833 C 8.88 g/m*3 13.36 C 0.66667 km/h
25 06-05-2015 00:00:00 11.925 C 8.64 g/m*3 11.93 C 0.26667 km/h
Sensor: Nr:Datum:Temp:Abs-Feuchte:Windchill:Wind:
Aussen-T/F 26 06-05-2015 01:00:00 10.90833 C 8.43 g/m*3 10.91 C 0 km/h
27 06-05-2015 02:00:00 10.25 C 8.28 g/m*3 10.25 C 0 km/h
28 06-05-2015 03:00:00 9.625 C 8.14 g/m*3 9.63 C 0 km/h
29 06-05-2015 04:00:00 9.2 C 8.08 g/m*3 9.2 C 0 km/h
30 06-05-2015 05:00:00 8.95 C 8.04 g/m*3 8.95 C 0 km/h
31 06-05-2015 06:00:00 8.50833 C 7.9 g/m*3 8.51 C 0 km/h
32 06-05-2015 07:00:00 8.84167 C 8.12 g/m*3 8.84 C 0 km/h
33 06-05-2015 08:00:00 10.11667 C 8.48 g/m*3 10.12 C 2.275 km/h
34 06-05-2015 09:00:00 12.875 C 7.97 g/m*3 12.88 C 11.825 km/h
35 06-05-2015 10:00:00 14.14167 C 7.02 g/m*3 14.14 C 16.1 km/h
36 06-05-2015 11:00:00 15.85833 C 6.79 g/m*3 15.86 C 15.3 km/h
37 06-05-2015 12:00:00 16.60833 C 7.13 g/m*3 16.61 C 17.43333 km/h
38 06-05-2015 13:00:00 17.39167 C 7.33 g/m*3 17.39 C 17.30833 km/h
39 06-05-2015 14:00:00 18.19167 C 7.39 g/m*3 18.19 C 14.225 km/h
40 06-05-2015 15:00:00 18.75 C 7.24 g/m*3 18.75 C 18.5 km/h
41 06-05-2015 16:00:00 19.05 C 7.04 g/m*3 19.05 C 20.50833 km/h
42 06-05-2015 17:00:00 17.36667 C 7.3 g/m*3 17.37 C 21.31667 km/h
43 06-05-2015 18:00:00 15.69167 C 7.82 g/m*3 15.69 C 17.975 km/h
44 06-05-2015 19:00:00 16.15 C 7.63 g/m*3 16.15 C 12.09167 km/h
45 06-05-2015 20:00:00 15.04167 C 8.05 g/m*3 15.04 C 3.34167 km/h
46 06-05-2015 21:00:00 12.7 C 7.93 g/m*3 12.7 C 1.33333 km/h
47 06-05-2015 22:00:00 11.88333 C 7.83 g/m*3 11.88 C 1.73333 km/h
48 06-05-2015 23:00:00 10.53333 C 7.98 g/m*3 10.53 C 0.53333 km/h
49 07-05-2015 00:00:00 10.175 C 7.98 g/m*3 10.18 C 0.8 km/h
50 07-05-2015 01:00:00 10.36667 C 7.94 g/m*3 10.37 C 3.33333 km/h
Sensor: Nr:Datum:Temp:Abs-Feuchte:Windchill:Wind:
Aussen-T/F 51 07-05-2015 02:00:00 10.51667 C 7.9 g/m*3 10.52 C 3.73333 km/h
52 07-05-2015 03:00:00 10.1 C 7.86 g/m*3 10.1 C 2.675 km/h
53 07-05-2015 04:00:00 9.39167 C 7.78 g/m*3 9.39 C 2 km/h
54 07-05-2015 05:00:00 9.58333 C 7.78 g/m*3 9.58 C 2.8 km/h
55 07-05-2015 06:00:00 9.175 C 7.7 g/m*3 9.18 C 2.53333 km/h
56 07-05-2015 07:00:00 9.9 C 7.9 g/m*3 8.64 C 9.275 km/h
57 07-05-2015 08:00:00 10.59167 C 7.94 g/m*3 9.53 C 8.875 km/h
58 07-05-2015 09:00:00 11.78333 C 7.84 g/m*3 11.78 C 11.55833 km/h
59 07-05-2015 10:00:00 13.34167 C 7.64 g/m*3 13.34 C 12.49167 km/h
60 07-05-2015 11:00:00 14.875 C 7.31 g/m*3 14.88 C 13.7 km/h
61 07-05-2015 12:00:00 16.025 C 6.96 g/m*3 16.02 C 15.7 km/h
62 07-05-2015 13:00:00 17.03333 C 6.75 g/m*3 17.03 C 11.55833 km/h
63 07-05-2015 14:00:00 17.63333 C 6.56 g/m*3 17.63 C 10.9 km/h
64 07-05-2015 15:00:00 18.525 C 6.77 g/m*3 18.52 C 12.9 km/h
65 07-05-2015 16:00:00 19.30833 C 6.82 g/m*3 19.31 C 14.36667 km/h
66 07-05-2015 17:00:00 19.70833 C 6.61 g/m*3 19.71 C 11.825 km/h
67 07-05-2015 18:00:00 17.975 C 6.48 g/m*3 17.98 C 7.66667 km/h
68 07-05-2015 19:00:00 17.75 C 6.6 g/m*3 17.75 C 7.24167 km/h
69 07-05-2015 20:00:00 14.575 C 7.35 g/m*3 14.58 C 2.13333 km/h
70 07-05-2015 21:00:00 11.93333 C 7.34 g/m*3 11.93 C 0.4 km/h
71 07-05-2015 22:00:00 10.51667 C 7.18 g/m*3 10.52 C 0 km/h
72 07-05-2015 23:00:00 9.8 C 7.11 g/m*3 9.8 C 0 km/h
73 08-05-2015 00:00:00 8.75 C 6.83 g/m*3 8.75 C 0 km/h
74 08-05-2015 01:00:00 8.725 C 7.02 g/m*3 8.73 C 0 km/h
75 08-05-2015 02:00:00 8.51667 C 7.07 g/m*3 8.52 C 0 km/h
Sensor: Nr:Datum:Temp:Abs-Feuchte:Windchill:Wind:
Aussen-T/F 76 08-05-2015 03:00:00 8.35833 C 7.19 g/m*3 8.36 C 0 km/h
77 08-05-2015 04:00:00 8.19167 C 7.23 g/m*3 8.19 C 0 km/h
78 08-05-2015 05:00:00 8.03333 C 7.22 g/m*3 8.03 C 0 km/h
79 08-05-2015 06:00:00 7.9 C 7.26 g/m*3 7.9 C 0 km/h
80 08-05-2015 07:00:00 8.4 C 7.53 g/m*3 8.4 C 0 km/h
81 08-05-2015 08:00:00 10.11667 C 8.01 g/m*3 10.12 C 0 km/h
82 08-05-2015 09:00:00 12.225 C 8.31 g/m*3 12.23 C 0.4 km/h
83 08-05-2015 10:00:00 14.91667 C 8.7 g/m*3 14.92 C 3.46667 km/h
84 08-05-2015 11:00:00 18.525 C 8.82 g/m*3 18.52 C 6.3 km/h
85 08-05-2015 12:00:00 19.89167 C 8 g/m*3 19.89 C 9.825 km/h
86 08-05-2015 13:00:00 21.35 C 8.15 g/m*3 21.35 C 7.94167 km/h
87 08-05-2015 14:00:00 22.05 C 8.27 g/m*3 22.05 C 7.375 km/h
88 08-05-2015 15:00:00 23.03333 C 8.24 g/m*3 23.03 C 7.25833 km/h
89 08-05-2015 16:00:00 22.625 C 8.2 g/m*3 22.63 C 3.46667 km/h
90 08-05-2015 17:00:00 21.05833 C 9.47 g/m*3 21.06 C 2 km/h
91 08-05-2015 18:00:00 18.88333 C 9.08 g/m*3 18.88 C 1.73333 km/h
92 08-05-2015 19:00:00 16.91667 C 9.55 g/m*3 16.92 C 0.53333 km/h
93 08-05-2015 20:00:00 15.50833 C 9.46 g/m*3 15.51 C 1.2 km/h
94 08-05-2015 21:00:00 15.10833 C 9.3 g/m*3 15.11 C 0.66667 km/h
95 08-05-2015 22:00:00 14.51667 C 9.56 g/m*3 14.52 C 0.13333 km/h
96 08-05-2015 23:00:00 13.59167 C 9.39 g/m*3 13.59 C 0 km/h
97 09-05-2015 00:00:00 12.38333 C 8.9 g/m*3 12.38 C 0 km/h
98 09-05-2015 01:00:00 11.25833 C 8.51 g/m*3 11.26 C 0 km/h
99 09-05-2015 02:00:00 10.96667 C 8.55 g/m*3 10.97 C 0 km/h
100 09-05-2015 03:00:00 10.825 C 8.66 g/m*3 10.83 C 0 km/h
Sensor: Nr:Datum:Temp:Abs-Feuchte:Windchill:Wind:
Aussen-T/F 101 09-05-2015 04:00:00 10.79167 C 8.64 g/m*3 10.79 C 0.66667 km/h
102 09-05-2015 05:00:00 10.59167 C 8.68 g/m*3 10.59 C 0 km/h
103 09-05-2015 06:00:00 10.71667 C 8.93 g/m*3 10.72 C 0 km/h
104 09-05-2015 07:00:00 12.11667 C 9.64 g/m*3 12.12 C 3.48333 km/h
105 09-05-2015 08:00:00 14.975 C 10.62 g/m*3 14.98 C 9.68333 km/h
106 09-05-2015 09:00:00 16.08333 C 10.87 g/m*3 16.08 C 9.81667 km/h
107 09-05-2015 10:00:00 16.93333 C 11.07 g/m*3 16.93 C 12.76667 km/h
108 09-05-2015 11:00:00 18.24167 C 10.96 g/m*3 18.24 C 13.825 km/h
109 09-05-2015 12:00:00 18.38333 C 10.62 g/m*3 18.38 C 14.36667 km/h
110 09-05-2015 13:00:00 19.55833 C 10.44 g/m*3 19.56 C 15.16667 km/h
111 09-05-2015 14:00:00 21.275 C 9.83 g/m*3 21.28 C 18.5 km/h
112 09-05-2015 15:00:00 21.8 C 9.24 g/m*3 21.8 C 16.1 km/h
113 09-05-2015 16:00:00 21.38333 C 9.05 g/m*3 21.38 C 18.25 km/h
114 09-05-2015 17:00:00 20.88333 C 8.98 g/m*3 20.88 C 16.63333 km/h
115 09-05-2015 18:00:00 20.24167 C 8.49 g/m*3 20.24 C 13.69167 km/h
116 09-05-2015 19:00:00 16.34167 C 10.16 g/m*3 16.34 C 11 km/h
117 09-05-2015 20:00:00 13.93333 C 10.73 g/m*3 13.93 C 2.8 km/h
118 09-05-2015 21:00:00 12.55 C 10.31 g/m*3 12.55 C 2 km/h
119 09-05-2015 22:00:00 12.125 C 9.94 g/m*3 12.13 C 2.66667 km/h
120 09-05-2015 23:00:00 11.5 C 9.55 g/m*3 11.5 C 2.53333 km/h
121 10-05-2015 00:00:00 11.025 C 9.24 g/m*3 11.03 C 1.06667 km/h
122 10-05-2015 01:00:00 10.58333 C 9.06 g/m*3 10.58 C 2 km/h
123 10-05-2015 02:00:00 10.3 C 8.87 g/m*3 10.3 C 0.66667 km/h
124 10-05-2015 03:00:00 9.84167 C 8.67 g/m*3 9.84 C 1.06667 km/h
125 10-05-2015 04:00:00 10.21667 C 8.58 g/m*3 10.22 C 3.06667 km/h
Sensor: Nr:Datum:Temp:Abs-Feuchte:Windchill:Wind:
Aussen-T/F 126 10-05-2015 05:00:00 9.44167 C 8.24 g/m*3 9.44 C 1.46667 km/h
127 10-05-2015 06:00:00 9.21667 C 8.29 g/m*3 9.22 C 2.26667 km/h
128 10-05-2015 07:00:00 10.11667 C 8.63 g/m*3 9.56 C 6.15833 km/h
129 10-05-2015 08:00:00 11.225 C 9.11 g/m*3 11.23 C 8.475 km/h
130 10-05-2015 09:00:00 12.75 C 9.43 g/m*3 12.75 C 4.93333 km/h
131 10-05-2015 10:00:00 14.5 C 9.18 g/m*3 14.5 C 5.225 km/h
132 10-05-2015 11:00:00 16.53333 C 9.65 g/m*3 16.53 C 6.29167 km/h
133 10-05-2015 12:00:00 16.925 C 9.51 g/m*3 16.93 C 3.33333 km/h
134 10-05-2015 13:00:00 18.13333 C 9.68 g/m*3 18.13 C 3.86667 km/h
135 10-05-2015 14:00:00 20.26667 C 9.43 g/m*3 20.27 C 6.85 km/h
136 10-05-2015 15:00:00 21.16667 C 9.34 g/m*3 21.17 C 7.51667 km/h
137 10-05-2015 16:00:00 22.11667 C 9.05 g/m*3 22.12 C 7.79167 km/h
138 10-05-2015 17:00:00 22.48333 C 8.96 g/m*3 22.48 C 5.9 km/h
139 10-05-2015 18:00:00 21.45833 C 9.01 g/m*3 21.46 C 4.80833 km/h
140 10-05-2015 19:00:00 19.90833 C 10.6 g/m*3 19.91 C 1.33333 km/h
141 10-05-2015 20:00:00 16.6 C 10.58 g/m*3 16.6 C 0.8 km/h
142 10-05-2015 21:00:00 14.25 C 9.71 g/m*3 14.25 C 1.6 km/h
143 10-05-2015 22:00:00 13.25833 C 9.35 g/m*3 13.26 C 0.13333 km/h
144 10-05-2015 23:00:00 12.45833 C 9.15 g/m*3 12.46 C 0.26667 km/h
145 11-05-2015 00:00:00 11.5 C 8.93 g/m*3 11.5 C 0.53333 km/h
146 11-05-2015 01:00:00 11.35833 C 8.92 g/m*3 11.36 C 0 km/h
147 11-05-2015 02:00:00 10.50833 C 8.6 g/m*3 10.51 C 0 km/h
148 11-05-2015 03:00:00 9.60833 C 8.39 g/m*3 9.61 C 0 km/h
149 11-05-2015 04:00:00 9.2 C 8.29 g/m*3 9.2 C 0 km/h
150 11-05-2015 05:00:00 8.71667 C 8.1 g/m*3 8.72 C 0 km/h
Sensor: Nr:Datum:Temp:Abs-Feuchte:Windchill:Wind:
Aussen-T/F 151 11-05-2015 06:00:00 8.76667 C 8.19 g/m*3 8.77 C 0 km/h
152 11-05-2015 07:00:00 9.8 C 8.72 g/m*3 9.8 C 0 km/h
153 11-05-2015 08:00:00 11.40833 C 9.29 g/m*3 11.41 C 0 km/h
154 11-05-2015 09:00:00 13.575 C 9.68 g/m*3 13.58 C 0 km/h
155 11-05-2015 10:00:00 15.975 C 10.69 g/m*3 15.98 C 0 km/h
156 11-05-2015 11:00:00 19.825 C 10.96 g/m*3 19.83 C 4.13333 km/h
157 11-05-2015 12:00:00 22.25833 C 11.33 g/m*3 22.26 C 5.48333 km/h
158 11-05-2015 13:00:00 23.95833 C 11.45 g/m*3 23.96 C 5.88333 km/h
159 11-05-2015 14:00:00 24.425 C 11.76 g/m*3 24.43 C 6.16667 km/h
160 11-05-2015 15:00:00 26.49167 C 11.74 g/m*3 26.49 C 6.975 km/h
161 11-05-2015 16:00:00 26.64167 C 11.31 g/m*3 26.64 C 6.58333 km/h
162 11-05-2015 17:00:00 26.11667 C 11.93 g/m*3 26.12 C 5.21667 km/h
163 11-05-2015 18:00:00 26.43333 C 12.72 g/m*3 26.43 C 3.875 km/h
164 11-05-2015 19:00:00 22.76667 C 13.45 g/m*3 22.77 C 1.6 km/h
165 11-05-2015 20:00:00 20.06667 C 12.56 g/m*3 20.07 C 2.13333 km/h
166 11-05-2015 21:00:00 18.625 C 11.94 g/m*3 18.63 C 1.33333 km/h
167 11-05-2015 22:00:00 17.16667 C 11.47 g/m*3 17.17 C 0.13333 km/h
168 11-05-2015 23:00:00 15.88333 C 11.12 g/m*3 15.88 C 0 km/h
169 12-05-2015 00:00:00 14.79167 C 10.74 g/m*3 14.79 C 0 km/h
170 12-05-2015 01:00:00 14 C 10.58 g/m*3 14 C 0 km/h
171 12-05-2015 02:00:00 13.625 C 10.56 g/m*3 13.63 C 0 km/h
172 12-05-2015 03:00:00 13.29167 C 10.46 g/m*3 13.29 C 0.13333 km/h
173 12-05-2015 04:00:00 12.975 C 10.4 g/m*3 12.98 C 0.13333 km/h
174 12-05-2015 05:00:00 12.95833 C 10.43 g/m*3 12.96 C 0.13333 km/h
175 12-05-2015 06:00:00 12.94167 C 10.45 g/m*3 12.94 C 0 km/h
Sensor: Nr:Datum:Temp:Abs-Feuchte:Windchill:Wind:
Aussen-T/F 176 12-05-2015 07:00:00 13.61667 C 10.88 g/m*3 13.62 C 0.4 km/h
177 12-05-2015 08:00:00 15.33333 C 11.41 g/m*3 15.33 C 1.06667 km/h
178 12-05-2015 09:00:00 17.5 C 12.51 g/m*3 17.5 C 0.26667 km/h
179 12-05-2015 10:00:00 19.75833 C 13.8 g/m*3 19.76 C 0.66667 km/h
180 12-05-2015 11:00:00 23.09167 C 13.6 g/m*3 23.09 C 10.04167 km/h
181 12-05-2015 12:00:00 25.33333 C 13.11 g/m*3 25.33 C 15.03333 km/h
182 12-05-2015 13:00:00 27.10833 C 13.18 g/m*3 27.11 C 15.3 km/h
183 12-05-2015 14:00:00 27.20833 C 13.58 g/m*3 27.21 C 10.61667 km/h
184 12-05-2015 15:00:00 24.74167 C 14.12 g/m*3 24.74 C 13.01667 km/h
185 12-05-2015 16:00:00 20.95 C 14.76 g/m*3 20.95 C 3.06667 km/h
186 12-05-2015 17:00:00 19.26667 C 13.35 g/m*3 19.27 C 4.425 km/h
187 12-05-2015 18:00:00 19.25833 C 10.67 g/m*3 19.26 C 8.59167 km/h
188 12-05-2015 19:00:00 19.74167 C 9.87 g/m*3 19.74 C 11.96667 km/h
189 12-05-2015 20:00:00 18.73333 C 9.33 g/m*3 18.73 C 10.86667 km/h
190 12-05-2015 21:00:00 16.71667 C 9.14 g/m*3 16.72 C 8.725 km/h
191 12-05-2015 22:00:00 15.48333 C 8.12 g/m*3 15.48 C 4.425 km/h
192 12-05-2015 23:00:00 14.31667 C 7.64 g/m*3 14.32 C 5.63333 km/h
193 13-05-2015 00:00:00 13.25 C 7.79 g/m*3 13.25 C 4.95 km/h
194 13-05-2015 01:00:00 11.51667 C 7.9 g/m*3 11.52 C 0.26667 km/h
195 13-05-2015 02:00:00 10.16667 C 7.77 g/m*3 10.17 C 0.13333 km/h
196 13-05-2015 03:00:00 8.9 C 7.53 g/m*3 8.9 C 0.13333 km/h
197 13-05-2015 04:00:00 8.18333 C 7.4 g/m*3 8.18 C 0.4 km/h
198 13-05-2015 05:00:00 7.25833 C 7.12 g/m*3 7.26 C 0.13333 km/h
199 13-05-2015 06:00:00 6.80833 C 7.04 g/m*3 6.81 C 0 km/h
200 13-05-2015 07:00:00 7.14167 C 7.27 g/m*3 7.14 C 0 km/h
Sensor: Nr:Datum:Temp:Abs-Feuchte:Windchill:Wind:
Aussen-T/F 201 13-05-2015 08:00:00 8.95833 C 7.84 g/m*3 8.96 C 0 km/h
202 13-05-2015 09:00:00 10.25 C 8.21 g/m*3 10.25 C 0 km/h
203 13-05-2015 10:00:00 12.83333 C 8.84 g/m*3 12.83 C 1.33333 km/h
204 13-05-2015 11:00:00 17.3 C 8.53 g/m*3 17.3 C 3.6 km/h
205 13-05-2015 12:00:00 18.88333 C 7.98 g/m*3 18.88 C 5.35833 km/h
206 13-05-2015 13:00:00 21.04167 C 7.79 g/m*3 21.04 C 7.09167 km/h
207 13-05-2015 14:00:00 22.35833 C 7.18 g/m*3 22.36 C 7.10833 km/h
208 13-05-2015 15:00:00 22.88333 C 6.43 g/m*3 22.88 C 10.075 km/h
209 13-05-2015 16:00:00 20.575 C 8.52 g/m*3 20.58 C 1.33333 km/h
210 13-05-2015 17:00:00 18.975 C 9.86 g/m*3 18.98 C 0.93333 km/h
211 13-05-2015 18:00:00 17.94167 C 9.41 g/m*3 17.94 C 1.875 km/h
212 13-05-2015 19:00:00 18.10833 C 9.28 g/m*3 18.11 C 1.46667 km/h
213 13-05-2015 20:00:00 17.575 C 8.27 g/m*3 17.58 C 4.81667 km/h
214 13-05-2015 21:00:00 16.73333 C 8.08 g/m*3 16.73 C 4.275 km/h
215 13-05-2015 22:00:00 15.04167 C 8.25 g/m*3 15.04 C 2.26667 km/h
216 13-05-2015 23:00:00 14.16667 C 8.36 g/m*3 14.17 C 0.8 km/h
217 14-05-2015 00:00:00 14.175 C 8.37 g/m*3 14.18 C 2.8 km/h
218 14-05-2015 01:00:00 13.84167 C 7.94 g/m*3 13.84 C 4.55833 km/h
219 14-05-2015 02:00:00 13.06667 C 7.64 g/m*3 13.07 C 5.5 km/h
220 14-05-2015 03:00:00 11.65 C 7.48 g/m*3 11.65 C 5.5 km/h
221 14-05-2015 04:00:00 10.35 C 7.37 g/m*3 10.35 C 2.53333 km/h
222 14-05-2015 05:00:00 9.05833 C 7.19 g/m*3 9.06 C 2.66667 km/h
223 14-05-2015 06:00:00 8.45 C 7.17 g/m*3 8.45 C 0.93333 km/h
224 14-05-2015 07:00:00 8.55833 C 7.32 g/m*3 8.56 C 1.46667 km/h
225 14-05-2015 08:00:00 10.04167 C 7.72 g/m*3 10.04 C 0.93333 km/h
Sensor: Nr:Datum:Temp:Abs-Feuchte:Windchill:Wind:
Aussen-T/F 226 14-05-2015 09:00:00 10.98333 C 7.87 g/m*3 10.98 C 2.4 km/h
227 14-05-2015 10:00:00 13.125 C 8.23 g/m*3 13.13 C 3.46667 km/h
228 14-05-2015 11:00:00 15.76667 C 8.44 g/m*3 15.77 C 3.33333 km/h
229 14-05-2015 12:00:00 17.50833 C 8.5 g/m*3 17.51 C 4.14167 km/h
230 14-05-2015 13:00:00 18.36667 C 8.15 g/m*3 18.37 C 4.98889 km/h
231 14-05-2015 14:00:00 19.84167 C 8.16 g/m*3 19.84 C 6.425 km/h
232 14-05-2015 15:00:00 21.16667 C 8.17 g/m*3 21.17 C 6.3 km/h
233 14-05-2015 16:00:00 20 C 8.01 g/m*3 20 C 5.21667 km/h
234 14-05-2015 17:00:00 19.475 C 9.05 g/m*3 19.48 C 3.075 km/h
235 14-05-2015 18:00:00 16.54167 C 11.19 g/m*3 16.54 C 0.66667 km/h
236 14-05-2015 19:00:00 14.89167 C 11.07 g/m*3 14.89 C 0.26667 km/h
237 14-05-2015 20:00:00 13.78333 C 10.96 g/m*3 13.78 C 0.4 km/h
238 14-05-2015 21:00:00 13.35 C 10.87 g/m*3 13.35 C 0.26667 km/h
239 14-05-2015 22:00:00 13.25 C 10.92 g/m*3 13.25 C 0 km/h
240 14-05-2015 23:00:00 13.25833 C 10.95 g/m*3 13.26 C 0 km/h
241 15-05-2015 00:00:00 12.50833 C 10.45 g/m*3 12.51 C 0 km/h
242 15-05-2015 01:00:00 12.63333 C 10.63 g/m*3 12.63 C 0 km/h
243 15-05-2015 02:00:00 12.65 C 10.65 g/m*3 12.65 C 0 km/h
244 15-05-2015 03:00:00 12.63333 C 10.64 g/m*3 12.63 C 0 km/h
245 15-05-2015 04:00:00 12.56667 C 10.6 g/m*3 12.57 C 0 km/h
246 15-05-2015 05:00:00 11.99167 C 10.23 g/m*3 11.99 C 0.26667 km/h
247 15-05-2015 06:00:00 11.4 C 9.85 g/m*3 11.4 C 0.66667 km/h
248 15-05-2015 07:00:00 11.34167 C 9.82 g/m*3 11.34 C 0 km/h
249 15-05-2015 08:00:00 11.56667 C 9.87 g/m*3 11.57 C 0.8 km/h
250 15-05-2015 09:00:00 12.48333 C 10.15 g/m*3 12.48 C 5.08333 km/h
Sensor: Nr:Datum:Temp:Abs-Feuchte:Windchill:Wind:
Aussen-T/F 251 15-05-2015 10:00:00 12.94167 C 9.95 g/m*3 12.94 C 9.275 km/h
252 15-05-2015 11:00:00 13.725 C 10.21 g/m*3 13.73 C 9.275 km/h
253 15-05-2015 12:00:00 15.11667 C 10.54 g/m*3 15.12 C 10.9 km/h
254 15-05-2015 13:00:00 17.7 C 10.88 g/m*3 17.7 C 10.1 km/h
255 15-05-2015 14:00:00 19.13333 C 10.33 g/m*3 19.13 C 14.1 km/h
256 15-05-2015 15:00:00 20.26667 C 10.43 g/m*3 20.27 C 13.16667 km/h
257 15-05-2015 16:00:00 21.175 C 9.75 g/m*3 21.18 C 12.36667 km/h
258 15-05-2015 17:00:00 21.20833 C 9.29 g/m*3 21.21 C 15.43333 km/h
259 15-05-2015 18:00:00 20.76667 C 9.01 g/m*3 20.77 C 13.16667 km/h
260 15-05-2015 19:00:00 19.1 C 8.65 g/m*3 19.1 C 10.625 km/h
261 15-05-2015 20:00:00 17.08333 C 8.17 g/m*3 17.08 C 10.49167 km/h
262 15-05-2015 21:00:00 15.03333 C 7.88 g/m*3 15.03 C 5.90833 km/h
263 15-05-2015 22:00:00 13.58333 C 7.64 g/m*3 13.58 C 5.35833 km/h
264 15-05-2015 23:00:00 12.08333 C 7.54 g/m*3 12.08 C 1.46667 km/h
265 16-05-2015 00:00:00 10.73333 C 7.36 g/m*3 10.73 C 1.46667 km/h
266 16-05-2015 01:00:00 9.93333 C 7.28 g/m*3 9.93 C 0.13333 km/h
267 16-05-2015 02:00:00 8.775 C 7.2 g/m*3 8.78 C 0 km/h
268 16-05-2015 03:00:00 8.05833 C 7.19 g/m*3 8.06 C 0.8 km/h
269 16-05-2015 04:00:00 7.48333 C 7.09 g/m*3 7.48 C 0.53333 km/h
270 16-05-2015 05:00:00 6.84167 C 6.93 g/m*3 6.84 C 0.4 km/h
271 16-05-2015 06:00:00 6.525 C 6.93 g/m*3 6.53 C 1.06667 km/h
272 16-05-2015 07:00:00 6.79167 C 7.05 g/m*3 6.79 C 1.2 km/h
273 16-05-2015 08:00:00 9 C 7.63 g/m*3 8.55 C 5.225 km/h
274 16-05-2015 09:00:00 11.20833 C 7.93 g/m*3 11.21 C 6.15833 km/h
275 16-05-2015 10:00:00 12.53333 C 8.1 g/m*3 12.53 C 5.48333 km/h
Sensor: Nr:Datum:Temp:Abs-Feuchte:Windchill:Wind:
Aussen-T/F 276 16-05-2015 11:00:00 13.39167 C 8.46 g/m*3 13.39 C 4.675 km/h
277 16-05-2015 12:00:00 14.29167 C 8.38 g/m*3 14.29 C 8.05 km/h
278 16-05-2015 13:00:00 15.11667 C 8.33 g/m*3 15.12 C 9.80833 km/h
279 16-05-2015 14:00:00 15.175 C 8.31 g/m*3 15.18 C 12.36667 km/h
280 16-05-2015 15:00:00 14.99167 C 8.62 g/m*3 14.99 C 9.94167 km/h
281 16-05-2015 16:00:00 15.68333 C 9.07 g/m*3 15.68 C 5.34167 km/h
282 16-05-2015 17:00:00 15.85833 C 9.69 g/m*3 15.86 C 5.63333 km/h
283 16-05-2015 18:00:00 14.5 C 10.03 g/m*3 14.5 C 5.225 km/h
284 16-05-2015 19:00:00 14.175 C 10.27 g/m*3 14.18 C 1.33333 km/h
285 16-05-2015 20:00:00 14.425 C 10.18 g/m*3 14.43 C 5.23333 km/h
286 16-05-2015 21:00:00 14.63333 C 9.91 g/m*3 14.63 C 7.10833 km/h
287 16-05-2015 22:00:00 14.39167 C 9.94 g/m*3 14.39 C 4.28333 km/h
288 16-05-2015 23:00:00 13.85 C 9.95 g/m*3 13.85 C 5.225 km/h
289 17-05-2015 00:00:00 12.91667 C 9.89 g/m*3 12.92 C 1.86667 km/h
290 17-05-2015 01:00:00 11.93333 C 9.44 g/m*3 11.93 C 1.46667 km/h
291 17-05-2015 02:00:00 11.20833 C 8.87 g/m*3 11.21 C 2 km/h
292 17-05-2015 03:00:00 10.5 C 8.52 g/m*3 10.5 C 1.33333 km/h
293 17-05-2015 04:00:00 9.31667 C 8.13 g/m*3 9.32 C 0.26667 km/h
294 17-05-2015 05:00:00 8.48333 C 7.83 g/m*3 8.48 C 0 km/h
295 17-05-2015 06:00:00 8.225 C 7.72 g/m*3 8.23 C 0 km/h
296 17-05-2015 07:00:00 8.68333 C 7.9 g/m*3 8.68 C 0.26667 km/h
297 17-05-2015 08:00:00 10.71667 C 8.4 g/m*3 10.72 C 2.53333 km/h
298 17-05-2015 09:00:00 12.33333 C 8.51 g/m*3 12.33 C 4 km/h
299 17-05-2015 10:00:00 14.575 C 7.97 g/m*3 14.58 C 5.225 km/h
300 17-05-2015 11:00:00 16.45 C 6.92 g/m*3 16.45 C 5.5 km/h
Sensor: Nr:Datum:Temp:Abs-Feuchte:Windchill:Wind:
Aussen-T/F 301 17-05-2015 12:00:00 17.75 C 7.12 g/m*3 17.75 C 8.86667 km/h
302 17-05-2015 13:00:00 18.15 C 7.22 g/m*3 18.15 C 6.98333 km/h
303 17-05-2015 14:00:00 17.96667 C 7.4 g/m*3 17.97 C 7.925 km/h
304 17-05-2015 15:00:00 18.86667 C 7.61 g/m*3 18.87 C 5.075 km/h
305 17-05-2015 16:00:00 18.94167 C 7.88 g/m*3 18.94 C 4.15 km/h
306 17-05-2015 17:00:00 19.225 C 8.12 g/m*3 19.23 C 3.73333 km/h
307 17-05-2015 18:00:00 20.13333 C 7.97 g/m*3 20.13 C 4 km/h
308 17-05-2015 19:00:00 17.59167 C 9.97 g/m*3 17.59 C 0.26667 km/h
309 17-05-2015 20:00:00 15.63333 C 9.57 g/m*3 15.63 C 0.26667 km/h
310 17-05-2015 21:00:00 14.79167 C 9.07 g/m*3 14.79 C 0.93333 km/h
311 17-05-2015 22:00:00 13.55 C 8.83 g/m*3 13.55 C 1.06667 km/h
312 17-05-2015 23:00:00 12.6 C 8.52 g/m*3 12.6 C 0.26667 km/h
313 18-05-2015 00:00:00 11.41667 C 8.21 g/m*3 11.42 C 0 km/h
314 18-05-2015 01:00:00 10.23333 C 7.85 g/m*3 10.23 C 0 km/h
315 18-05-2015 02:00:00 9.55 C 7.75 g/m*3 9.55 C 0.26667 km/h
316 18-05-2015 03:00:00 8.59167 C 7.59 g/m*3 8.59 C 0 km/h
317 18-05-2015 04:00:00 7.90833 C 7.43 g/m*3 7.91 C 0 km/h
318 18-05-2015 05:00:00 7.325 C 7.25 g/m*3 7.33 C 0.13333 km/h
319 18-05-2015 06:00:00 7.10833 C 7.25 g/m*3 7.11 C 0 km/h
320 18-05-2015 07:00:00 7.54167 C 7.48 g/m*3 7.54 C 0.4 km/h
321 18-05-2015 08:00:00 9.475 C 8.2 g/m*3 9.48 C 0 km/h
322 18-05-2015 09:00:00 11.54167 C 8.93 g/m*3 11.54 C 0.8 km/h
323 18-05-2015 10:00:00 15.3 C 9.36 g/m*3 15.3 C 10.34167 km/h
324 18-05-2015 11:00:00 17.9 C 8.82 g/m*3 17.9 C 15.425 km/h
325 18-05-2015 12:00:00 18.90833 C 8.43 g/m*3 18.91 C 15.56667 km/h
Sensor: Nr:Datum:Temp:Abs-Feuchte:Windchill:Wind:
Aussen-T/F 326 18-05-2015 13:00:00 20.54167 C 8.16 g/m*3 20.54 C 15.975 km/h
327 18-05-2015 14:00:00 21.96667 C 7.75 g/m*3 21.97 C 15.96667 km/h
328 18-05-2015 15:00:00 22.78333 C 7.31 g/m*3 22.78 C 17.84167 km/h
329 18-05-2015 16:00:00 23.425 C 7.51 g/m*3 23.43 C 15.43333 km/h
330 18-05-2015 17:00:00 23.39167 C 7.6 g/m*3 23.39 C 14.9 km/h
331 18-05-2015 18:00:00 22.5 C 7.64 g/m*3 22.5 C 12.225 km/h
332 18-05-2015 19:00:00 21.625 C 8.02 g/m*3 21.63 C 10.74167 km/h
333 18-05-2015 20:00:00 19.625 C 8.48 g/m*3 19.63 C 3.74167 km/h
334 18-05-2015 21:00:00 17.675 C 8.36 g/m*3 17.68 C 2.4 km/h
335 18-05-2015 22:00:00 15.84167 C 8.64 g/m*3 15.84 C 1.6 km/h
336 18-05-2015 23:00:00 14.43333 C 8.62 g/m*3 14.43 C 0.8 km/h
337 19-05-2015 00:00:00 13.48333 C 8.68 g/m*3 13.48 C 3.75833 km/h
338 19-05-2015 01:00:00 13.15833 C 9.01 g/m*3 13.16 C 6.44167 km/h
339 19-05-2015 02:00:00 12.36667 C 8.52 g/m*3 12.37 C 5.9 km/h
340 19-05-2015 03:00:00 11.72727 C 8.38 g/m*3 11.73 C 2.61818 km/h
341 19-05-2015 06:00:00 8.25 C 7.31 g/m*3 8.25 C 4.8 km/h
342 19-05-2015 07:00:00 8.55 C 7 g/m*3 7.91 C 5.625 km/h
343 19-05-2015 08:00:00 10.43333 C 7.06 g/m*3 9.07 C 10.48333 km/h
344 19-05-2015 09:00:00 11.125 C 6.93 g/m*3 11.13 C 12.23333 km/h
345 19-05-2015 10:00:00 12.50833 C 6.96 g/m*3 12.51 C 11.83333 km/h
346 19-05-2015 11:00:00 13.68333 C 6.65 g/m*3 13.68 C 14.35833 km/h
347 19-05-2015 12:00:00 14.6 C 6.55 g/m*3 14.6 C 16.5 km/h
348 19-05-2015 13:00:00 15.36667 C 6.35 g/m*3 15.37 C 15.83333 km/h
349 19-05-2015 14:00:00 16.99167 C 6.35 g/m*3 16.99 C 18.23333 km/h
350 19-05-2015 15:00:00 16.99167 C 6.17 g/m*3 16.99 C 15.56667 km/h
Sensor: Nr:Datum:Temp:Abs-Feuchte:Windchill:Wind:
Aussen-T/F 351 19-05-2015 16:00:00 16.95833 C 6.16 g/m*3 16.96 C 15.16667 km/h
352 19-05-2015 17:00:00 16.51667 C 6.21 g/m*3 16.52 C 13.83333 km/h
353 19-05-2015 18:00:00 16.56667 C 6.46 g/m*3 16.57 C 12.625 km/h
354 19-05-2015 19:00:00 16.05833 C 6.21 g/m*3 16.06 C 10.08333 km/h
355 19-05-2015 20:00:00 14.59167 C 6.45 g/m*3 14.59 C 5.61667 km/h
356 19-05-2015 21:00:00 13.23333 C 6.85 g/m*3 13.23 C 1.46667 km/h
357 19-05-2015 22:00:00 11.43333 C 7.05 g/m*3 11.43 C 1.46667 km/h
358 19-05-2015 23:00:00 11.03333 C 7.18 g/m*3 11.03 C 0.53333 km/h
359 20-05-2015 00:00:00 10.43333 C 7.36 g/m*3 10.43 C 0.26667 km/h
360 20-05-2015 01:00:00 10.61667 C 7.35 g/m*3 10.62 C 1.86667 km/h
361 20-05-2015 02:00:00 10.39167 C 7.54 g/m*3 10.39 C 2.53333 km/h
362 20-05-2015 03:00:00 9.74167 C 7.72 g/m*3 9.74 C 0.53333 km/h
363 20-05-2015 04:00:00 9.21667 C 7.7 g/m*3 9.22 C 0.13333 km/h
364 20-05-2015 05:00:00 8.825 C 7.6 g/m*3 8.82 C 2.68333 km/h
365 20-05-2015 06:00:00 9.21667 C 7.66 g/m*3 9.22 C 0.26667 km/h
366 20-05-2015 07:00:00 9.7 C 7.68 g/m*3 9.7 C 4 km/h
367 20-05-2015 08:00:00 10.13333 C 7.58 g/m*3 9.45 C 6.70833 km/h
368 20-05-2015 09:00:00 11.03333 C 7.47 g/m*3 11.03 C 9.54167 km/h
369 20-05-2015 10:00:00 13.225 C 6.98 g/m*3 13.23 C 10.35 km/h
370 20-05-2015 11:00:00 13.475 C 6.55 g/m*3 13.48 C 9.675 km/h
371 20-05-2015 12:00:00 14.75833 C 6.4 g/m*3 14.76 C 7.78333 km/h
372 20-05-2015 13:00:00 15.725 C 6.24 g/m*3 15.73 C 11.94167 km/h
373 20-05-2015 14:00:00 14.3 C 6.76 g/m*3 14.3 C 8.6 km/h
374 20-05-2015 15:00:00 15.95833 C 7.12 g/m*3 15.96 C 10.75 km/h
375 20-05-2015 16:00:00 13.6 C 7.19 g/m*3 13.6 C 7.65 km/h
Sensor: Nr:Datum:Temp:Abs-Feuchte:Windchill:Wind:
Aussen-T/F 376 20-05-2015 17:00:00 14.95 C 8.05 g/m*3 14.95 C 3.2 km/h
377 20-05-2015 18:00:00 14.47778 C 7.67 g/m*3 14.48 C 3.56667 km/h
378 20-05-2015 19:00:00 14.04167 C 7.42 g/m*3 14.04 C 5.225 km/h
379 20-05-2015 20:00:00 13.5 C 7.46 g/m*3 13.5 C 4.00833 km/h
380 20-05-2015 21:00:00 10.69167 C 7.28 g/m*3 10.69 C 0.66667 km/h
381 20-05-2015 22:00:00 8.90833 C 7.03 g/m*3 8.91 C 0.66667 km/h
382 20-05-2015 23:00:00 8.175 C 7.03 g/m*3 8.18 C 0.8 km/h
383 21-05-2015 00:00:00 7.08333 C 6.8 g/m*3 7.08 C 0.13333 km/h
384 21-05-2015 01:00:00 6.7 C 6.81 g/m*3 6.7 C 0.93333 km/h
385 21-05-2015 02:00:00 5.925 C 6.6 g/m*3 5.93 C 1.46667 km/h
386 21-05-2015 03:00:00 5.58333 C 6.54 g/m*3 5.58 C 1.46667 km/h
387 21-05-2015 04:00:00 5.15833 C 6.39 g/m*3 5.16 C 1.6 km/h
388 21-05-2015 05:00:00 4.45 C 6.14 g/m*3 4.45 C 1.06667 km/h
389 21-05-2015 06:00:00 4.70833 C 6.3 g/m*3 3.47 C 5.775 km/h
390 21-05-2015 07:00:00 5.575 C 6.66 g/m*3 3.9 C 7.65833 km/h
391 21-05-2015 08:00:00 7.25 C 7.11 g/m*3 5.86 C 7.65833 km/h
392 21-05-2015 09:00:00 9.65833 C 7.59 g/m*3 9.22 C 5.48333 km/h
393 21-05-2015 10:00:00 12.49167 C 7.97 g/m*3 12.49 C 5.09167 km/h
394 21-05-2015 11:00:00 13.35833 C 7.98 g/m*3 13.36 C 6.56667 km/h
395 21-05-2015 12:00:00 15.04167 C 7.15 g/m*3 15.04 C 8.46667 km/h
396 21-05-2015 13:00:00 16.30833 C 6.78 g/m*3 16.31 C 11.025 km/h
397 21-05-2015 14:00:00 17.23333 C 6.46 g/m*3 17.23 C 10.60833 km/h
398 21-05-2015 15:00:00 17.1 C 6.4 g/m*3 17.1 C 7.65833 km/h
399 21-05-2015 16:00:00 18.375 C 6.35 g/m*3 18.38 C 8.86667 km/h
400 21-05-2015 17:00:00 18.68333 C 6.24 g/m*3 18.68 C 8.075 km/h
Sensor: Nr:Datum:Temp:Abs-Feuchte:Windchill:Wind:
Aussen-T/F 401 21-05-2015 18:00:00 18.58333 C 6.21 g/m*3 18.58 C 6.84167 km/h
402 21-05-2015 19:00:00 18.23333 C 6.44 g/m*3 18.23 C 9.69167 km/h
403 21-05-2015 20:00:00 15.93333 C 7.15 g/m*3 15.93 C 4.15 km/h
404 21-05-2015 21:00:00 12.53333 C 7.55 g/m*3 12.53 C 1.86667 km/h
405 21-05-2015 22:00:00 11.625 C 7.56 g/m*3 11.63 C 0.93333 km/h
406 21-05-2015 23:00:00 10.99167 C 7.64 g/m*3 10.99 C 0 km/h
407 22-05-2015 00:00:00 10.925 C 7.7 g/m*3 10.93 C 0 km/h
408 22-05-2015 01:00:00 11.1 C 7.77 g/m*3 11.1 C 1.06667 km/h
409 22-05-2015 02:00:00 10.73333 C 7.86 g/m*3 10.73 C 0 km/h
410 22-05-2015 03:00:00 9.69167 C 7.75 g/m*3 9.69 C 0.13333 km/h
411 22-05-2015 04:00:00 9.55833 C 7.81 g/m*3 9.56 C 0.26667 km/h
412 22-05-2015 05:00:00 9.025 C 7.72 g/m*3 9.03 C 0.13333 km/h
413 22-05-2015 06:00:00 8.76667 C 7.71 g/m*3 8.77 C 0 km/h
414 22-05-2015 07:00:00 9.86667 C 8.08 g/m*3 9.87 C 1.33333 km/h
415 22-05-2015 08:00:00 12.9 C 8.67 g/m*3 12.9 C 0.26667 km/h
416 22-05-2015 09:00:00 13.59167 C 8.69 g/m*3 13.59 C 1.46667 km/h
417 22-05-2015 10:00:00 15.81667 C 8.67 g/m*3 15.82 C 2.66667 km/h
418 22-05-2015 11:00:00 18.10833 C 8.61 g/m*3 18.11 C 4.4 km/h
419 22-05-2015 12:00:00 19.09167 C 8.14 g/m*3 19.09 C 6.29167 km/h
420 22-05-2015 13:00:00 20.4 C 7.71 g/m*3 20.4 C 7.10833 km/h
421 22-05-2015 14:00:00 21.525 C 7.24 g/m*3 21.53 C 7.38333 km/h
422 22-05-2015 15:00:00 22.34167 C 6.89 g/m*3 22.34 C 5.9 km/h
423 22-05-2015 16:00:00 22.98333 C 6.11 g/m*3 22.98 C 6.575 km/h
424 22-05-2015 17:00:00 23.21667 C 5.91 g/m*3 23.22 C 7.38333 km/h
425 22-05-2015 18:00:00 23.025 C 6.62 g/m*3 23.03 C 6.7 km/h
Sensor: Nr:Datum:Temp:Abs-Feuchte:Windchill:Wind:
Aussen-T/F 426 22-05-2015 19:00:00 20.41667 C 7.57 g/m*3 20.42 C 2.675 km/h
427 22-05-2015 20:00:00 19.50833 C 7.5 g/m*3 19.51 C 4.41667 km/h
428 22-05-2015 21:00:00 16.43333 C 7.6 g/m*3 16.43 C 1.06667 km/h
429 22-05-2015 22:00:00 14.45 C 7.83 g/m*3 14.45 C 0.93333 km/h
430 22-05-2015 23:00:00 14.45833 C 8.29 g/m*3 14.46 C 0 km/h
431 23-05-2015 00:00:00 13.95 C 8.47 g/m*3 13.95 C 0 km/h
432 23-05-2015 01:00:00 13.20833 C 8.44 g/m*3 13.21 C 0 km/h
433 23-05-2015 02:00:00 12.68333 C 8.41 g/m*3 12.68 C 0.26667 km/h
434 23-05-2015 03:00:00 12.275 C 8.46 g/m*3 12.28 C 0 km/h
435 23-05-2015 04:00:00 12.41667 C 8.52 g/m*3 12.42 C 0.26667 km/h
436 23-05-2015 05:00:00 11.83333 C 8.45 g/m*3 11.83 C 0 km/h
437 23-05-2015 06:00:00 11.875 C 8.73 g/m*3 11.88 C 0.26667 km/h
438 23-05-2015 07:00:00 12.45 C 8.91 g/m*3 12.45 C 0.66667 km/h
439 23-05-2015 08:00:00 13.35833 C 9.11 g/m*3 13.36 C 0.53333 km/h
440 23-05-2015 09:00:00 14.5 C 9.29 g/m*3 14.5 C 3.34167 km/h
441 23-05-2015 10:00:00 15.84167 C 9.6 g/m*3 15.84 C 4.13333 km/h
442 23-05-2015 11:00:00 16.85 C 9.87 g/m*3 16.85 C 4.275 km/h
443 23-05-2015 12:00:00 18.14167 C 10.15 g/m*3 18.14 C 5.75833 km/h
444 23-05-2015 13:00:00 19.8 C 9.91 g/m*3 19.8 C 8.59167 km/h
445 23-05-2015 14:00:00 20.26667 C 9.68 g/m*3 20.27 C 7.65833 km/h
446 23-05-2015 15:00:00 19.51667 C 9.79 g/m*3 19.52 C 5.34167 km/h
447 23-05-2015 16:00:00 19.76667 C 9.49 g/m*3 19.77 C 5.89167 km/h
448 23-05-2015 17:00:00 19.56667 C 9.73 g/m*3 19.57 C 4.275 km/h
449 23-05-2015 18:00:00 17.95833 C 10.79 g/m*3 17.96 C 0.13333 km/h
450 23-05-2015 19:00:00 17.475 C 11.04 g/m*3 17.48 C 0 km/h
Sensor: Nr:Datum:Temp:Abs-Feuchte:Windchill:Wind:
Aussen-T/F 451 23-05-2015 20:00:00 17.5 C 10.03 g/m*3 17.5 C 4.28333 km/h
452 23-05-2015 21:00:00 17.30833 C 10.73 g/m*3 17.31 C 6.55833 km/h
453 23-05-2015 22:00:00 16.325 C 10.83 g/m*3 16.33 C 6.44167 km/h
454 23-05-2015 23:00:00 15.6 C 10.64 g/m*3 15.6 C 5.63333 km/h
455 24-05-2015 00:00:00 14.95 C 10.56 g/m*3 14.95 C 3.2 km/h
456 24-05-2015 01:00:00 14.51667 C 10.46 g/m*3 14.52 C 2 km/h
457 24-05-2015 02:00:00 14.24167 C 10.28 g/m*3 14.24 C 3.33333 km/h
458 24-05-2015 03:00:00 13.95833 C 10.21 g/m*3 13.96 C 1.86667 km/h
459 24-05-2015 04:00:00 13.24167 C 10.09 g/m*3 13.24 C 0.26667 km/h
460 24-05-2015 05:00:00 13.2 C 10.13 g/m*3 13.2 C 0.4 km/h
461 24-05-2015 06:00:00 13.23333 C 10.17 g/m*3 13.23 C 0.13333 km/h
462 24-05-2015 07:00:00 13.61667 C 10.21 g/m*3 13.62 C 0.93333 km/h
463 24-05-2015 08:00:00 14.06667 C 10.38 g/m*3 14.07 C 3.6 km/h
464 24-05-2015 09:00:00 14.675 C 10.43 g/m*3 14.68 C 3.46667 km/h
465 24-05-2015 10:00:00 15.15833 C 10.5 g/m*3 15.16 C 2.53333 km/h
466 24-05-2015 11:00:00 16.05833 C 10.78 g/m*3 16.06 C 2.8 km/h
467 24-05-2015 12:00:00 18.25833 C 11.33 g/m*3 18.26 C 4.66667 km/h
468 24-05-2015 13:00:00 20.51667 C 11.4 g/m*3 20.52 C 6.98333 km/h
469 24-05-2015 14:00:00 22.1 C 11.32 g/m*3 22.1 C 6.56667 km/h
470 24-05-2015 15:00:00 23.45 C 10.35 g/m*3 23.45 C 8.325 km/h
471 24-05-2015 16:00:00 22.875 C 10.65 g/m*3 22.88 C 7.25 km/h
472 24-05-2015 17:00:00 22.54167 C 10.9 g/m*3 22.54 C 3.075 km/h
473 24-05-2015 18:00:00 22.99167 C 10.7 g/m*3 22.99 C 7.66667 km/h
474 24-05-2015 19:00:00 20.4 C 10.64 g/m*3 20.4 C 4.81667 km/h
475 24-05-2015 20:00:00 17.85833 C 11.58 g/m*3 17.86 C 0.8 km/h
Sensor: Nr:Datum:Temp:Abs-Feuchte:Windchill:Wind:
Aussen-T/F 476 24-05-2015 21:00:00 16.21667 C 11.81 g/m*3 16.22 C 3.08333 km/h
477 24-05-2015 22:00:00 15.21667 C 11.93 g/m*3 15.22 C 1.2 km/h
478 24-05-2015 23:00:00 14.5125 C 11.68 g/m*3 14.51 C 0.4 km/h
479 25-05-2015 00:00:00 13.89167 C 11.27 g/m*3 13.89 C 0.13333 km/h
480 25-05-2015 01:00:00 13.125 C 10.86 g/m*3 13.13 C 0.4 km/h
481 25-05-2015 02:00:00 12.475 C 10.44 g/m*3 12.48 C 0.53333 km/h
482 25-05-2015 03:00:00 11.61667 C 9.89 g/m*3 11.62 C 0.8 km/h
483 25-05-2015 04:00:00 10.49167 C 9.21 g/m*3 10.49 C 0.66667 km/h
484 25-05-2015 10:00:00 15.1 C 9.89 g/m*3 15.1 C 0.53333 km/h
485 25-05-2015 11:00:00 15.31667 C 9.98 g/m*3 15.32 C 3.35 km/h
486 25-05-2015 12:00:00 14.65714 C 9.83 g/m*3 14.66 C 4.6 km/h
487 25-05-2015 14:00:00 15.375 C 10.94 g/m*3 15.38 C 2 km/h
488 25-05-2015 15:00:00 15.56 C 11.38 g/m*3 15.56 C 0.64 km/h
489 25-05-2015 16:00:00 16.45 C 11.34 g/m*3 16.45 C 2.26667 km/h
490 25-05-2015 17:00:00 15.75 C 11.05 g/m*3 15.75 C 3.61667 km/h
491 25-05-2015 18:00:00 14.94167 C 11.56 g/m*3 14.94 C 3.75 km/h
492 25-05-2015 19:00:00 16 C 11.58 g/m*3 16 C 2 km/h
493 25-05-2015 22:00:00 11.725 C 9.7 g/m*3 11.73 C 4.425 km/h
494 25-05-2015 23:00:00 12.36667 C 9.44 g/m*3 12.37 C 4.95 km/h
495 26-05-2015 00:00:00 11.625 C 9.07 g/m*3 11.63 C 4.68333 km/h
496 26-05-2015 01:00:00 11.575 C 8.85 g/m*3 11.58 C 5.5 km/h
497 26-05-2015 02:00:00 11.11667 C 8.54 g/m*3 11.12 C 4.29167 km/h
498 26-05-2015 03:00:00 10.25833 C 8.45 g/m*3 10.26 C 1.2 km/h
499 26-05-2015 04:00:00 10.36667 C 8.37 g/m*3 10.37 C 2.26667 km/h
500 26-05-2015 05:00:00 10.10833 C 8.14 g/m*3 10.11 C 1.73333 km/h
Sensor: Nr:Datum:Temp:Abs-Feuchte:Windchill:Wind:
Aussen-T/F 501 26-05-2015 06:00:00 9.875 C 8.01 g/m*3 9.88 C 3.2 km/h
502 26-05-2015 07:00:00 10.16667 C 8.03 g/m*3 10.17 C 4.95 km/h
503 26-05-2015 08:00:00 10.75833 C 8.17 g/m*3 10.37 C 5.89167 km/h
504 26-05-2015 09:00:00 12.16667 C 8.09 g/m*3 12.17 C 10.75 km/h
505 26-05-2015 10:00:00 13.25 C 7.7 g/m*3 13.25 C 9.81667 km/h
506 26-05-2015 11:00:00 13.23333 C 7.2 g/m*3 13.23 C 11.55833 km/h
507 26-05-2015 12:00:00 12.725 C 6.97 g/m*3 12.73 C 10.35833 km/h
508 26-05-2015 13:00:00 13.15 C 6.93 g/m*3 13.15 C 8.46667 km/h
509 26-05-2015 14:00:00 14.125 C 7.04 g/m*3 14.13 C 7.10833 km/h
510 26-05-2015 15:00:00 13.80833 C 6.9 g/m*3 13.81 C 8.06667 km/h
511 26-05-2015 16:00:00 13.7 C 6.93 g/m*3 13.7 C 6.29167 km/h
512 26-05-2015 17:00:00 14.01667 C 7.32 g/m*3 14.02 C 4.40833 km/h
513 26-05-2015 18:00:00 13.31667 C 8.26 g/m*3 13.32 C 0.53333 km/h
514 26-05-2015 19:00:00 12.5 C 8.74 g/m*3 12.5 C 0 km/h
515 26-05-2015 20:00:00 11.775 C 8.66 g/m*3 11.78 C 0.13333 km/h
516 26-05-2015 21:00:00 11.11667 C 8.4 g/m*3 11.12 C 0 km/h
517 26-05-2015 22:00:00 10.81667 C 8.03 g/m*3 10.82 C 0.8 km/h
518 26-05-2015 23:00:00 9.475 C 7.64 g/m*3 9.48 C 0.13333 km/h
519 27-05-2015 00:00:00 9.1 C 7.31 g/m*3 9.1 C 0.8 km/h
520 27-05-2015 01:00:00 8.225 C 7.09 g/m*3 8.23 C 0 km/h
521 27-05-2015 02:00:00 7.24167 C 6.91 g/m*3 7.24 C 0.26667 km/h
522 27-05-2015 03:00:00 6.34167 C 6.77 g/m*3 6.34 C 0.66667 km/h
523 27-05-2015 04:00:00 6.625 C 6.94 g/m*3 6.63 C 2.66667 km/h
524 27-05-2015 05:00:00 7.06667 C 7.08 g/m*3 7.07 C 2 km/h
525 27-05-2015 06:00:00 7.375 C 7.23 g/m*3 7.38 C 2.13333 km/h
Sensor: Nr:Datum:Temp:Abs-Feuchte:Windchill:Wind:
Aussen-T/F 526 27-05-2015 07:00:00 8.09167 C 7.51 g/m*3 8.09 C 3.89167 km/h
527 27-05-2015 08:00:00 9.45 C 7.77 g/m*3 9.45 C 4.00833 km/h
528 27-05-2015 09:00:00 10.70833 C 7.71 g/m*3 10.71 C 3.2 km/h
529 27-05-2015 10:00:00 11.775 C 7.47 g/m*3 11.78 C 4.54167 km/h
530 27-05-2015 11:00:00 12.85833 C 6.59 g/m*3 12.86 C 3.34167 km/h
531 27-05-2015 12:00:00 13.08333 C 6.64 g/m*3 13.08 C 4.81667 km/h
532 27-05-2015 13:00:00 14.25833 C 6.88 g/m*3 14.26 C 4.275 km/h
533 27-05-2015 14:00:00 15.45 C 6.78 g/m*3 15.45 C 5.48333 km/h
534 27-05-2015 15:00:00 15.625 C 6.65 g/m*3 15.63 C 3.46667 km/h
535 27-05-2015 16:00:00 16.99167 C 6.76 g/m*3 16.99 C 6.45 km/h
536 27-05-2015 17:00:00 17.425 C 6.68 g/m*3 17.43 C 4.40833 km/h
537 27-05-2015 18:00:00 17.45 C 6.74 g/m*3 17.45 C 4.66667 km/h
538 27-05-2015 19:00:00 16.95 C 6.66 g/m*3 16.95 C 4.80833 km/h
539 27-05-2015 20:00:00 15.34167 C 7.43 g/m*3 15.34 C 0.93333 km/h
540 27-05-2015 21:00:00 11.66667 C 7.68 g/m*3 11.67 C 0.13333 km/h
541 27-05-2015 22:00:00 10.525 C 7.4 g/m*3 10.53 C 0.53333 km/h
542 27-05-2015 23:00:00 9.725 C 7.23 g/m*3 9.73 C 0.26667 km/h
543 28-05-2015 00:00:00 9.1 C 7.15 g/m*3 9.1 C 0 km/h
544 28-05-2015 01:00:00 8.85 C 7.04 g/m*3 8.85 C 0 km/h
545 28-05-2015 02:00:00 7.98333 C 6.89 g/m*3 7.98 C 0 km/h
546 28-05-2015 03:00:00 7.60833 C 6.86 g/m*3 7.61 C 0 km/h
547 28-05-2015 04:00:00 7.34167 C 6.93 g/m*3 7.34 C 0 km/h
548 28-05-2015 05:00:00 7.38333 C 7.06 g/m*3 7.38 C 0.4 km/h
549 28-05-2015 06:00:00 8.30833 C 7.38 g/m*3 8.31 C 0.66667 km/h
550 28-05-2015 07:00:00 9.35833 C 7.79 g/m*3 9.36 C 0.93333 km/h
Sensor: Nr:Datum:Temp:Abs-Feuchte:Windchill:Wind:
Aussen-T/F 551 28-05-2015 08:00:00 11.275 C 8.1 g/m*3 11.28 C 0.26667 km/h
552 28-05-2015 09:00:00 12.35 C 8.38 g/m*3 12.35 C 0.8 km/h
553 28-05-2015 10:00:00 14.56667 C 8.85 g/m*3 14.57 C 4.95 km/h
554 28-05-2015 11:00:00 17.725 C 9.15 g/m*3 17.73 C 12.23333 km/h
555 28-05-2015 12:00:00 19.26667 C 9.52 g/m*3 19.27 C 11.7 km/h
556 28-05-2015 13:00:00 21.06667 C 9.35 g/m*3 21.07 C 14.9 km/h
557 28-05-2015 14:00:00 19.15 C 9.07 g/m*3 19.15 C 9.26667 km/h
558 28-05-2015 15:00:00 19.15 C 9.48 g/m*3 19.15 C 6.7 km/h
559 28-05-2015 16:00:00 19.63333 C 9.39 g/m*3 19.63 C 12.34167 km/h
560 28-05-2015 17:00:00 20.06667 C 9.47 g/m*3 20.07 C 10.35833 km/h
561 28-05-2015 18:00:00 20.125 C 9.2 g/m*3 20.13 C 9.80833 km/h
562 28-05-2015 19:00:00 19 C 8.81 g/m*3 19 C 13.83333 km/h
563 28-05-2015 20:00:00 17.575 C 8.55 g/m*3 17.58 C 7.39167 km/h
564 28-05-2015 21:00:00 15.98333 C 8.57 g/m*3 15.98 C 1.6 km/h
565 28-05-2015 22:00:00 14.825 C 8.61 g/m*3 14.83 C 1.73333 km/h
566 28-05-2015 23:00:00 13.575 C 8.74 g/m*3 13.58 C 0.26667 km/h
567 29-05-2015 00:00:00 13.24167 C 9.01 g/m*3 13.24 C 0.4 km/h
568 29-05-2015 01:00:00 12.35833 C 8.81 g/m*3 12.36 C 0.8 km/h
569 29-05-2015 02:00:00 12.55 C 8.16 g/m*3 12.55 C 2.13333 km/h
570 29-05-2015 03:00:00 11.21667 C 7.86 g/m*3 11.22 C 0.53333 km/h
571 29-05-2015 04:00:00 9.525 C 7.48 g/m*3 9.53 C 0.66667 km/h
572 29-05-2015 05:00:00 8.85 C 7.48 g/m*3 8.85 C 0.66667 km/h
573 29-05-2015 06:00:00 8.74167 C 7.65 g/m*3 8.74 C 2.41667 km/h
574 29-05-2015 07:00:00 9.425 C 7.96 g/m*3 9.43 C 4.15 km/h
575 29-05-2015 08:00:00 11.43333 C 8.44 g/m*3 11.43 C 3.06667 km/h
Sensor: Nr:Datum:Temp:Abs-Feuchte:Windchill:Wind:
Aussen-T/F 576 29-05-2015 09:00:00 13.74167 C 8.29 g/m*3 13.74 C 8.34167 km/h
577 29-05-2015 10:00:00 13.29167 C 8.43 g/m*3 13.29 C 5.91667 km/h
578 29-05-2015 11:00:00 14.34167 C 8.6 g/m*3 14.34 C 4.01667 km/h
579 29-05-2015 12:00:00 15.64167 C 9.29 g/m*3 15.64 C 6.025 km/h
580 29-05-2015 13:00:00 15.71667 C 9.43 g/m*3 15.72 C 8.61667 km/h
581 29-05-2015 14:00:00 14.55455 C 9.62 g/m*3 14.55 C 6 km/h
582 29-05-2015 15:00:00 13.66667 C 10.52 g/m*3 13.67 C 1.6 km/h
583 29-05-2015 16:00:00 14.31667 C 10.59 g/m*3 14.32 C 7.79167 km/h
584 29-05-2015 17:00:00 15.46667 C 10.69 g/m*3 15.47 C 10.34167 km/h
585 29-05-2015 18:00:00 16.35 C 10.19 g/m*3 16.35 C 13.425 km/h
586 29-05-2015 19:00:00 16.05 C 9.24 g/m*3 16.05 C 11.15 km/h
587 29-05-2015 20:00:00 15.24167 C 8.62 g/m*3 15.24 C 9.26667 km/h
588 29-05-2015 21:00:00 14.8 C 8.41 g/m*3 14.8 C 7.91667 km/h
589 29-05-2015 22:00:00 14.4 C 8.16 g/m*3 14.4 C 4.55833 km/h
590 29-05-2015 23:00:00 13.95 C 8.47 g/m*3 13.95 C 2.13333 km/h
591 30-05-2015 00:00:00 13.225 C 8.57 g/m*3 13.23 C 1.2 km/h
592 30-05-2015 01:00:00 12.20833 C 8.72 g/m*3 12.21 C 8.30833 km/h
593 30-05-2015 02:00:00 9.88333 C 8.5 g/m*3 9.88 C 2.26667 km/h
594 30-05-2015 03:00:00 9.40833 C 8.32 g/m*3 9.41 C 2.26667 km/h
595 30-05-2015 04:00:00 9.125 C 8.19 g/m*3 9.13 C 2.4 km/h
596 30-05-2015 05:00:00 9.025 C 8.01 g/m*3 9.03 C 2.13333 km/h
597 30-05-2015 06:00:00 8.46667 C 7.92 g/m*3 8.47 C 0.4 km/h
598 30-05-2015 07:00:00 8.94167 C 8.13 g/m*3 8.94 C 4.41667 km/h
599 30-05-2015 08:00:00 11.15833 C 8.5 g/m*3 11.16 C 5.75833 km/h
600 30-05-2015 09:00:00 12.14167 C 8.15 g/m*3 12.14 C 10.60833 km/h
Sensor: Nr:Datum:Temp:Abs-Feuchte:Windchill:Wind:
Aussen-T/F 601 30-05-2015 10:00:00 13.21667 C 7.67 g/m*3 13.22 C 12.625 km/h
602 30-05-2015 11:00:00 14.4 C 7.47 g/m*3 14.4 C 14.63333 km/h
603 30-05-2015 12:00:00 15.40833 C 6.88 g/m*3 15.41 C 15.56667 km/h
604 30-05-2015 13:00:00 16.225 C 6.74 g/m*3 16.23 C 15.56667 km/h
605 30-05-2015 14:00:00 16.8 C 6.45 g/m*3 16.8 C 15.3 km/h
606 30-05-2015 15:00:00 17.31667 C 6.93 g/m*3 17.32 C 15.43333 km/h
607 30-05-2015 16:00:00 16.34167 C 6.43 g/m*3 16.34 C 13.15 km/h
608 30-05-2015 17:00:00 16.525 C 7.09 g/m*3 16.52 C 10.625 km/h
609 30-05-2015 18:00:00 15.29167 C 7.62 g/m*3 15.29 C 6.425 km/h
610 30-05-2015 19:00:00 14.80833 C 7.64 g/m*3 14.81 C 6.16667 km/h
611 30-05-2015 20:00:00 14.11667 C 7.82 g/m*3 14.12 C 2.93333 km/h
612 30-05-2015 21:00:00 11.16667 C 7.74 g/m*3 11.17 C 0.53333 km/h
613 30-05-2015 22:00:00 10 C 7.62 g/m*3 10 C 0 km/h
614 30-05-2015 23:00:00 8.71667 C 7.36 g/m*3 8.72 C 0 km/h
615 31-05-2015 00:00:00 7.86667 C 7.22 g/m*3 7.87 C 0 km/h
616 31-05-2015 01:00:00 7.325 C 7.1 g/m*3 7.33 C 0 km/h
617 31-05-2015 02:00:00 6.98333 C 7.09 g/m*3 6.98 C 0.26667 km/h
618 31-05-2015 03:00:00 6.69167 C 7.01 g/m*3 6.69 C 0 km/h
619 31-05-2015 04:00:00 6.51667 C 6.98 g/m*3 6.52 C 0 km/h
620 31-05-2015 05:00:00 6.33333 C 6.9 g/m*3 6.33 C 0.4 km/h
621 31-05-2015 06:00:00 6.31667 C 6.94 g/m*3 6.32 C 0.13333 km/h
622 31-05-2015 07:00:00 7.85833 C 7.5 g/m*3 7.86 C 1.6 km/h
623 31-05-2015 08:00:00 9.925 C 7.92 g/m*3 9.93 C 4.14167 km/h
624 31-05-2015 09:00:00 12.24167 C 8.7 g/m*3 12.24 C 5.48333 km/h
625 31-05-2015 10:00:00 16.06667 C 9.29 g/m*3 16.07 C 7.39167 km/h
Sensor: Nr:Datum:Temp:Abs-Feuchte:Windchill:Wind:
Aussen-T/F 626 31-05-2015 11:00:00 18.3 C 9.26 g/m*3 18.3 C 7.38333 km/h
627 31-05-2015 12:00:00 20.13333 C 9.3 g/m*3 20.13 C 13.83333 km/h
628 31-05-2015 13:00:00 20.65 C 9.62 g/m*3 20.65 C 12.36667 km/h
629 31-05-2015 14:00:00 21.25833 C 9.89 g/m*3 21.26 C 12.36667 km/h
630 31-05-2015 15:00:00 21.9 C 10.24 g/m*3 21.9 C 10.875 km/h
631 31-05-2015 16:00:00 21.725 C 9.98 g/m*3 21.73 C 14.23333 km/h
632 31-05-2015 17:00:00 20.65833 C 9.76 g/m*3 20.66 C 11.15833 km/h
633 31-05-2015 18:00:00 20.25 C 10.02 g/m*3 20.25 C 11.68333 km/h
634 31-05-2015 19:00:00 19.29167 C 10.33 g/m*3 19.29 C 18.65 km/h
635 31-05-2015 20:00:00 18.125 C 10.91 g/m*3 18.13 C 19.70833 km/h
636 31-05-2015 21:00:00 17.53333 C 11.1 g/m*3 17.53 C 15.16667 km/h
637 31-05-2015 22:00:00 17.24167 C 11.23 g/m*3 17.24 C 11.15 km/h
638 31-05-2015 23:00:00 17.025 C 11.22 g/m*3 17.02 C 14.76667 km/h
639 01-06-2015 00:00:00 16.575 C 11.44 g/m*3 16.58 C 13.96667 km/h
640 01-06-2015 01:00:00 16.05 C 11.72 g/m*3 16.05 C 16.1 km/h
641 01-06-2015 02:00:00 16.10833 C 11.85 g/m*3 16.11 C 13.56667 km/h
642 01-06-2015 03:00:00 15.05 C 11.55 g/m*3 15.05 C 7.66667 km/h
643 01-06-2015 04:00:00 13.04167 C 10.56 g/m*3 13.04 C 0.53333 km/h
644 01-06-2015 05:00:00 12.35 C 10.26 g/m*3 12.35 C 0 km/h
645 01-06-2015 06:00:00 12.225 C 10.27 g/m*3 12.23 C 0 km/h
646 01-06-2015 07:00:00 12.05833 C 10.12 g/m*3 12.06 C 2.675 km/h
647 01-06-2015 08:00:00 11.38333 C 9.62 g/m*3 11.38 C 2.13333 km/h
648 01-06-2015 09:00:00 12.125 C 9.71 g/m*3 12.13 C 2.4 km/h
649 01-06-2015 10:00:00 12.725 C 9.83 g/m*3 12.73 C 0.93333 km/h
650 01-06-2015 11:00:00 13.48333 C 9.91 g/m*3 13.48 C 1.33333 km/h
Sensor: Nr:Datum:Temp:Abs-Feuchte:Windchill:Wind:
Aussen-T/F 651 01-06-2015 12:00:00 14.55833 C 9.8 g/m*3 14.56 C 0.4 km/h
652 01-06-2015 13:00:00 15.325 C 9.78 g/m*3 15.33 C 3.73333 km/h
653 01-06-2015 14:00:00 16.525 C 9.72 g/m*3 16.52 C 6.025 km/h
654 01-06-2015 15:00:00 17.54167 C 9.83 g/m*3 17.54 C 6.45833 km/h
655 01-06-2015 16:00:00 18.36667 C 9.73 g/m*3 18.37 C 5.20833 km/h
656 01-06-2015 17:00:00 18.375 C 9.62 g/m*3 18.38 C 2.93333 km/h
657 01-06-2015 18:00:00 18.425 C 10.13 g/m*3 18.43 C 3.74167 km/h
658 01-06-2015 19:00:00 18.775 C 9.11 g/m*3 18.77 C 10.21667 km/h
659 01-06-2015 20:00:00 17.09167 C 9.03 g/m*3 17.09 C 3.74167 km/h
660 01-06-2015 21:00:00 14.29167 C 8.9 g/m*3 14.29 C 2.26667 km/h
661 01-06-2015 22:00:00 12.58333 C 8.67 g/m*3 12.58 C 2 km/h
662 01-06-2015 23:00:00 11.76667 C 8.62 g/m*3 11.77 C 0.8 km/h
663 02-06-2015 00:00:00 10.78333 C 8.52 g/m*3 10.78 C 0.53333 km/h
664 02-06-2015 01:00:00 9.54167 C 8.18 g/m*3 9.54 C 0 km/h
665 02-06-2015 02:00:00 9.1 C 8.15 g/m*3 9.1 C 0 km/h
666 02-06-2015 03:00:00 9.275 C 8.33 g/m*3 9.28 C 0 km/h
667 02-06-2015 04:00:00 9.78333 C 8.6 g/m*3 9.78 C 0 km/h
668 02-06-2015 05:00:00 10.275 C 8.85 g/m*3 10.28 C 0 km/h
669 02-06-2015 06:00:00 10.91667 C 9.19 g/m*3 10.92 C 0 km/h
670 02-06-2015 07:00:00 11.43333 C 9.51 g/m*3 11.43 C 0 km/h
671 02-06-2015 08:00:00 12.35 C 10.26 g/m*3 12.35 C 0.26667 km/h
672 02-06-2015 09:00:00 12.91667 C 10.62 g/m*3 12.92 C 0.8 km/h
673 02-06-2015 10:00:00 13.38333 C 10.91 g/m*3 13.38 C 0.66667 km/h
674 02-06-2015 11:00:00 14.05833 C 11.22 g/m*3 14.06 C 2.13333 km/h
675 02-06-2015 12:00:00 15.54167 C 10.27 g/m*3 15.54 C 7.90833 km/h
Sensor: Nr:Datum:Temp:Abs-Feuchte:Windchill:Wind:
Aussen-T/F 676 02-06-2015 13:00:00 18.675 C 9.55 g/m*3 18.68 C 13.68333 km/h
677 02-06-2015 14:00:00 22.325 C 10.2 g/m*3 22.33 C 18.23333 km/h
678 02-06-2015 15:00:00 24.125 C 10.63 g/m*3 24.13 C 18.23333 km/h
679 02-06-2015 16:00:00 25.04167 C 10.52 g/m*3 25.04 C 20.91667 km/h
680 02-06-2015 17:00:00 25.6 C 10.02 g/m*3 25.6 C 19.325 km/h
681 02-06-2015 18:00:00 25.74167 C 9.72 g/m*3 25.74 C 19.175 km/h
682 02-06-2015 19:00:00 25.08333 C 9.94 g/m*3 25.08 C 11.54167 km/h
683 02-06-2015 20:00:00 23.61667 C 10.13 g/m*3 23.62 C 11.41667 km/h
684 02-06-2015 21:00:00 22.09167 C 10.23 g/m*3 22.09 C 8.59167 km/h
685 02-06-2015 22:00:00 19.21667 C 11.16 g/m*3 19.22 C 1.46667 km/h
686 02-06-2015 23:00:00 16.95833 C 11.19 g/m*3 16.96 C 0.4 km/h
687 03-06-2015 00:00:00 18.26667 C 11.16 g/m*3 18.27 C 2 km/h
688 03-06-2015 01:00:00 17.025 C 11.16 g/m*3 17.02 C 1.33333 km/h
689 03-06-2015 02:00:00 15.04167 C 10.73 g/m*3 15.04 C 0 km/h
690 03-06-2015 03:00:00 14.15 C 10.58 g/m*3 14.15 C 0 km/h
691 03-06-2015 04:00:00 13.425 C 10.33 g/m*3 13.43 C 0 km/h
692 03-06-2015 05:00:00 13.025 C 10.32 g/m*3 13.03 C 0.26667 km/h
693 03-06-2015 06:00:00 13.43333 C 10.62 g/m*3 13.43 C 0.53333 km/h
694 03-06-2015 07:00:00 15.25833 C 11.32 g/m*3 15.26 C 3.89167 km/h
695 03-06-2015 08:00:00 18.125 C 11.68 g/m*3 18.13 C 10.075 km/h
696 03-06-2015 09:00:00 18.13333 C 11.66 g/m*3 18.13 C 9.40833 km/h
697 03-06-2015 10:00:00 16.65833 C 11.32 g/m*3 16.66 C 4.8 km/h
698 03-06-2015 11:00:00 16.675 C 11.21 g/m*3 16.68 C 5.06667 km/h
699 03-06-2015 12:00:00 18.05833 C 11.64 g/m*3 18.06 C 4.53333 km/h
700 03-06-2015 13:00:00 20.325 C 11.95 g/m*3 20.33 C 8.04167 km/h
Sensor: Nr:Datum:Temp:Abs-Feuchte:Windchill:Wind:
Aussen-T/F 701 03-06-2015 14:00:00 22.55833 C 11.17 g/m*3 22.56 C 14.36667 km/h
702 03-06-2015 15:00:00 21.63333 C 10.18 g/m*3 21.63 C 11.96667 km/h
703 03-06-2015 16:00:00 22.425 C 10.26 g/m*3 22.43 C 9.83333 km/h
704 03-06-2015 17:00:00 23.575 C 9.95 g/m*3 23.58 C 11.43333 km/h
705 03-06-2015 18:00:00 22.04167 C 9.32 g/m*3 22.04 C 10.09167 km/h
706 03-06-2015 19:00:00 20.15833 C 9.06 g/m*3 20.16 C 10.21667 km/h
707 03-06-2015 20:00:00 19.01667 C 8.77 g/m*3 19.02 C 6.7 km/h
708 03-06-2015 21:00:00 17.49167 C 9.23 g/m*3 17.49 C 1.86667 km/h
709 03-06-2015 22:00:00 15.05 C 9.36 g/m*3 15.05 C 0.4 km/h
710 03-06-2015 23:00:00 14.44167 C 9.32 g/m*3 14.44 C 0.13333 km/h
711 04-06-2015 00:00:00 13.275 C 8.86 g/m*3 13.28 C 0 km/h
712 04-06-2015 01:00:00 11.875 C 8.64 g/m*3 11.88 C 0 km/h
713 04-06-2015 02:00:00 10.96667 C 8.5 g/m*3 10.97 C 0 km/h
714 04-06-2015 03:00:00 10.76667 C 8.63 g/m*3 10.77 C 0 km/h
715 04-06-2015 04:00:00 10.875 C 8.74 g/m*3 10.88 C 0 km/h
716 04-06-2015 05:00:00 10.86667 C 8.78 g/m*3 10.87 C 0 km/h
717 04-06-2015 06:00:00 10.95 C 8.91 g/m*3 10.95 C 0 km/h
718 04-06-2015 07:00:00 11.725 C 9.31 g/m*3 11.73 C 0 km/h
719 04-06-2015 08:00:00 13.50833 C 9.76 g/m*3 13.51 C 0.26667 km/h
720 04-06-2015 09:00:00 15.01667 C 10.23 g/m*3 15.02 C 1.73333 km/h
721 04-06-2015 10:00:00 19.30833 C 10.41 g/m*3 19.31 C 5.225 km/h
722 04-06-2015 11:00:00 21.53333 C 9.75 g/m*3 21.53 C 6.43333 km/h
723 04-06-2015 12:00:00 23.125 C 10.02 g/m*3 23.13 C 6.43333 km/h
724 04-06-2015 13:00:00 24.10833 C 10.05 g/m*3 24.11 C 7.675 km/h
725 04-06-2015 14:00:00 25.7 C 10.45 g/m*3 25.7 C 8.2 km/h
Sensor: Nr:Datum:Temp:Abs-Feuchte:Windchill:Wind:
Aussen-T/F 726 04-06-2015 15:00:00 26.08333 C 10.39 g/m*3 26.08 C 6.575 km/h
727 04-06-2015 16:00:00 27.25833 C 10.4 g/m*3 27.26 C 8.05833 km/h
728 04-06-2015 17:00:00 27.95 C 10.73 g/m*3 27.95 C 7.66667 km/h
729 04-06-2015 18:00:00 27.675 C 10.55 g/m*3 27.68 C 8.06667 km/h
730 04-06-2015 19:00:00 26.24167 C 10.24 g/m*3 26.24 C 7.11667 km/h
731 04-06-2015 20:00:00 23.48333 C 11.59 g/m*3 23.48 C 1.875 km/h
732 04-06-2015 21:00:00 19.36667 C 10.85 g/m*3 19.37 C 1.73333 km/h
733 04-06-2015 22:00:00 17.45833 C 10.52 g/m*3 17.46 C 0.66667 km/h
734 04-06-2015 23:00:00 16.05833 C 10.22 g/m*3 16.06 C 0 km/h
735 05-06-2015 00:00:00 14.78333 C 10.01 g/m*3 14.78 C 0 km/h
736 05-06-2015 01:00:00 13.76667 C 9.87 g/m*3 13.77 C 0.53333 km/h
737 05-06-2015 02:00:00 12.88333 C 9.68 g/m*3 12.88 C 0 km/h
738 05-06-2015 03:00:00 12.14167 C 9.56 g/m*3 12.14 C 0 km/h
739 05-06-2015 04:00:00 11.60833 C 9.42 g/m*3 11.61 C 0 km/h
740 05-06-2015 05:00:00 11.275 C 9.34 g/m*3 11.28 C 0 km/h
741 05-06-2015 06:00:00 11.30833 C 9.45 g/m*3 11.31 C 0 km/h
742 05-06-2015 07:00:00 12.025 C 9.92 g/m*3 12.03 C 0 km/h
743 05-06-2015 08:00:00 15.45 C 11.22 g/m*3 15.45 C 0 km/h
744 05-06-2015 09:00:00 17.125 C 11.91 g/m*3 17.13 C 0 km/h
745 05-06-2015 10:00:00 19.9 C 13.07 g/m*3 19.9 C 0.26667 km/h
746 05-06-2015 11:00:00 23.06667 C 14.27 g/m*3 23.07 C 2.13333 km/h
747 05-06-2015 12:00:00 27.94167 C 14.98 g/m*3 27.94 C 5.49167 km/h
748 05-06-2015 13:00:00 31.18333 C 14.89 g/m*3 31.18 C 7.65833 km/h
749 05-06-2015 14:00:00 32.775 C 14.28 g/m*3 32.78 C 6.29167 km/h
750 05-06-2015 15:00:00 33.675 C 13.96 g/m*3 33.67 C 6.825 km/h
Sensor: Nr:Datum:Temp:Abs-Feuchte:Windchill:Wind:
Aussen-T/F 751 05-06-2015 16:00:00 33.64167 C 14.7 g/m*3 33.64 C 4.81667 km/h
752 05-06-2015 17:00:00 34.63333 C 13.9 g/m*3 34.63 C 7.10833 km/h
753 05-06-2015 18:00:00 34.3 C 14.71 g/m*3 34.3 C 6.45 km/h
754 05-06-2015 19:00:00 30.91667 C 16.09 g/m*3 30.92 C 3.08333 km/h
755 05-06-2015 20:00:00 26.96667 C 15.58 g/m*3 26.97 C 1.46667 km/h
756 05-06-2015 21:00:00 24.08333 C 14.45 g/m*3 24.08 C 2.26667 km/h
757 05-06-2015 22:00:00 22.96667 C 14.1 g/m*3 22.97 C 0.93333 km/h
758 05-06-2015 23:00:00 22.44167 C 14.3 g/m*3 22.44 C 2.00833 km/h
759 06-06-2015 00:00:00 23.71667 C 13.81 g/m*3 23.72 C 7.64167 km/h
760 06-06-2015 01:00:00 20.89167 C 14.87 g/m*3 20.89 C 4.025 km/h
761 06-06-2015 02:00:00 19.10833 C 14.77 g/m*3 19.11 C 0 km/h
762 06-06-2015 03:00:00 19.025 C 14.8 g/m*3 19.02 C 4.00833 km/h
763 06-06-2015 04:00:00 18.43333 C 14.56 g/m*3 18.43 C 5.35 km/h
764 06-06-2015 05:00:00 17.65833 C 14.18 g/m*3 17.66 C 0.13333 km/h
765 06-06-2015 06:00:00 17.46667 C 14.17 g/m*3 17.47 C 0.13333 km/h
766 06-06-2015 07:00:00 18.16667 C 14.89 g/m*3 18.17 C 0.13333 km/h
767 06-06-2015 08:00:00 18.90833 C 15.47 g/m*3 18.91 C 2.675 km/h
768 06-06-2015 09:00:00 20.275 C 15.76 g/m*3 20.27 C 7.375 km/h
769 06-06-2015 10:00:00 19.28333 C 14.11 g/m*3 19.28 C 10.23333 km/h
770 06-06-2015 11:00:00 19.01667 C 13.57 g/m*3 19.02 C 9.94167 km/h
771 06-06-2015 12:00:00 18.875 C 13.33 g/m*3 18.88 C 10.61667 km/h
772 06-06-2015 13:00:00 18.80833 C 13.09 g/m*3 18.81 C 11.3 km/h
773 06-06-2015 14:00:00 19.275 C 13.35 g/m*3 19.27 C 8.33333 km/h
774 06-06-2015 15:00:00 21.64167 C 14.15 g/m*3 21.64 C 10.08333 km/h
775 06-06-2015 16:00:00 23.675 C 13.76 g/m*3 23.68 C 9.28333 km/h
Sensor: Nr:Datum:Temp:Abs-Feuchte:Windchill:Wind:
Aussen-T/F 776 06-06-2015 17:00:00 24.41667 C 13.48 g/m*3 24.42 C 9.95833 km/h
777 06-06-2015 18:00:00 23.6 C 13.04 g/m*3 23.6 C 11.3 km/h
778 06-06-2015 19:00:00 22.91667 C 12.56 g/m*3 22.92 C 7.25833 km/h
779 06-06-2015 20:00:00 21.64167 C 11.74 g/m*3 21.64 C 6.41667 km/h
780 06-06-2015 21:00:00 19.325 C 11.77 g/m*3 19.33 C 1.6 km/h
781 06-06-2015 22:00:00 16.61667 C 11.5 g/m*3 16.62 C 0.4 km/h
782 06-06-2015 23:00:00 15.825 C 11.04 g/m*3 15.83 C 0.66667 km/h
783 07-06-2015 00:00:00 14.975 C 10.48 g/m*3 14.98 C 0.13333 km/h
784 07-06-2015 01:00:00 14.15 C 10.01 g/m*3 14.15 C 0.26667 km/h
785 07-06-2015 02:00:00 13.44167 C 9.74 g/m*3 13.44 C 0 km/h
786 07-06-2015 03:00:00 12.58333 C 9.47 g/m*3 12.58 C 0.13333 km/h
787 07-06-2015 04:00:00 12.21667 C 9.11 g/m*3 12.22 C 0.8 km/h
788 07-06-2015 05:00:00 12.075 C 8.67 g/m*3 12.08 C 2 km/h
789 07-06-2015 06:00:00 12.38333 C 8.65 g/m*3 12.38 C 0.53333 km/h
790 07-06-2015 07:00:00 12.6 C 8.63 g/m*3 12.6 C 0.53333 km/h
791 07-06-2015 08:00:00 13.93333 C 8.93 g/m*3 13.93 C 0.93333 km/h
792 07-06-2015 09:00:00 15.7 C 8.54 g/m*3 15.7 C 4.68333 km/h
793 07-06-2015 10:00:00 18.11667 C 8.76 g/m*3 18.12 C 6.83333 km/h
794 07-06-2015 11:00:00 20.23333 C 8.93 g/m*3 20.23 C 8.58333 km/h
795 07-06-2015 12:00:00 21.51667 C 8.84 g/m*3 21.52 C 11.15833 km/h
796 07-06-2015 13:00:00 22.75833 C 9.19 g/m*3 22.76 C 11.56667 km/h
797 07-06-2015 14:00:00 24.175 C 8.64 g/m*3 24.18 C 11.43333 km/h
798 07-06-2015 15:00:00 24.31667 C 7.72 g/m*3 24.32 C 13.83333 km/h
799 07-06-2015 16:00:00 25.08333 C 7.54 g/m*3 25.08 C 10.76667 km/h
800 07-06-2015 17:00:00 25.34167 C 7.84 g/m*3 25.34 C 11.56667 km/h
Sensor: Nr:Datum:Temp:Abs-Feuchte:Windchill:Wind:
Aussen-T/F 801 07-06-2015 18:00:00 24.90833 C 7.44 g/m*3 24.91 C 12.1 km/h
802 07-06-2015 19:00:00 22.98333 C 7.58 g/m*3 22.98 C 9.28333 km/h
803 07-06-2015 20:00:00 20.41667 C 8.16 g/m*3 20.42 C 2.94167 km/h
804 07-06-2015 21:00:00 18.025 C 8.54 g/m*3 18.02 C 2.40833 km/h
805 07-06-2015 22:00:00 15.95833 C 8.64 g/m*3 15.96 C 0.4 km/h
806 07-06-2015 23:00:00 15.14167 C 8.78 g/m*3 15.14 C 0.93333 km/h
807 08-06-2015 00:00:00 14.38333 C 8.72 g/m*3 14.38 C 0.66667 km/h
808 08-06-2015 01:00:00 13.81667 C 8.57 g/m*3 13.82 C 0.8 km/h
809 08-06-2015 02:00:00 13.225 C 8.32 g/m*3 13.23 C 5.36667 km/h
810 08-06-2015 03:00:00 13.13333 C 8.23 g/m*3 13.13 C 5.63333 km/h
811 08-06-2015 04:00:00 12.23333 C 8.24 g/m*3 12.23 C 3.475 km/h
812 08-06-2015 05:00:00 11.61667 C 8.19 g/m*3 11.62 C 6.70833 km/h
813 08-06-2015 06:00:00 11.15 C 8.32 g/m*3 11.15 C 2.66667 km/h
814 08-06-2015 07:00:00 11.46667 C 8.56 g/m*3 11.47 C 3.34167 km/h
815 08-06-2015 08:00:00 12.44167 C 8.87 g/m*3 12.44 C 5.20833 km/h
816 08-06-2015 09:00:00 13.575 C 9.19 g/m*3 13.58 C 7.24167 km/h
817 08-06-2015 10:00:00 14.89167 C 9.36 g/m*3 14.89 C 8.74167 km/h
818 08-06-2015 11:00:00 16.41667 C 9.58 g/m*3 16.42 C 8.48333 km/h
819 08-06-2015 12:00:00 18.81667 C 9.82 g/m*3 18.82 C 11.96667 km/h
820 08-06-2015 13:00:00 20.075 C 9.65 g/m*3 20.08 C 11.3 km/h
821 08-06-2015 14:00:00 20.95 C 9.73 g/m*3 20.95 C 12.23333 km/h
822 08-06-2015 15:00:00 20.64167 C 9.15 g/m*3 20.64 C 11.56667 km/h
823 08-06-2015 16:00:00 21.05833 C 8.85 g/m*3 21.06 C 12.75833 km/h
824 08-06-2015 17:00:00 21.25833 C 8.68 g/m*3 21.26 C 11.7 km/h
825 08-06-2015 18:00:00 20.79167 C 8.37 g/m*3 20.79 C 12.36667 km/h
Sensor: Nr:Datum:Temp:Abs-Feuchte:Windchill:Wind:
Aussen-T/F 826 08-06-2015 19:00:00 19.5 C 8.03 g/m*3 19.5 C 11.96667 km/h
827 08-06-2015 20:00:00 18.31667 C 7.6 g/m*3 18.32 C 14.1 km/h
828 08-06-2015 21:00:00 16.88333 C 7.53 g/m*3 16.88 C 9.68333 km/h
829 08-06-2015 22:00:00 16.03333 C 7.51 g/m*3 16.03 C 6.56667 km/h
830 08-06-2015 23:00:00 15.45833 C 7.57 g/m*3 15.46 C 4.93333 km/h
831 09-06-2015 00:00:00 14.58333 C 7.68 g/m*3 14.58 C 2.4 km/h
832 09-06-2015 01:00:00 13.775 C 7.77 g/m*3 13.78 C 2.93333 km/h
833 09-06-2015 02:00:00 12.75 C 7.62 g/m*3 12.75 C 3.73333 km/h
834 09-06-2015 03:00:00 12.65 C 7.62 g/m*3 12.65 C 4.95833 km/h
835 09-06-2015 04:00:00 12.01667 C 7.57 g/m*3 12.02 C 2.93333 km/h
836 09-06-2015 05:00:00 11.60833 C 7.55 g/m*3 11.61 C 2.4 km/h
837 09-06-2015 06:00:00 11.53333 C 7.63 g/m*3 11.53 C 3.74167 km/h
838 09-06-2015 07:00:00 11.88333 C 7.86 g/m*3 11.88 C 6.15833 km/h
839 09-06-2015 08:00:00 12.825 C 8.12 g/m*3 12.83 C 9.825 km/h
840 09-06-2015 09:00:00 13.85833 C 8.44 g/m*3 13.86 C 9.96667 km/h
841 09-06-2015 10:00:00 15.20833 C 8.71 g/m*3 15.21 C 9.00833 km/h
842 09-06-2015 11:00:00 16.375 C 8.81 g/m*3 16.38 C 8.88333 km/h
843 09-06-2015 12:00:00 16.725 C 8.65 g/m*3 16.73 C 10.48333 km/h
844 09-06-2015 13:00:00 17.225 C 7.99 g/m*3 17.23 C 9.81667 km/h
845 09-06-2015 14:00:00 18.075 C 8.01 g/m*3 18.08 C 12.5 km/h
846 09-06-2015 15:00:00 18.6 C 7.59 g/m*3 18.6 C 10.625 km/h
847 09-06-2015 16:00:00 18.74167 C 7.65 g/m*3 18.74 C 8.45833 km/h
848 09-06-2015 17:00:00 19.20833 C 7.71 g/m*3 19.21 C 7.25833 km/h
849 09-06-2015 18:00:00 18.91667 C 7.61 g/m*3 18.92 C 7.51667 km/h
850 09-06-2015 19:00:00 18.15833 C 7.6 g/m*3 18.16 C 6.975 km/h
Sensor: Nr:Datum:Temp:Abs-Feuchte:Windchill:Wind:
Aussen-T/F 851 09-06-2015 20:00:00 15.86667 C 7.81 g/m*3 15.87 C 1.33333 km/h
852 09-06-2015 21:00:00 14.01667 C 7.78 g/m*3 14.02 C 1.2 km/h
853 09-06-2015 22:00:00 12.50833 C 7.74 g/m*3 12.51 C 0.26667 km/h
854 09-06-2015 23:00:00 11.64167 C 7.62 g/m*3 11.64 C 0 km/h
855 10-06-2015 00:00:00 11.11667 C 7.66 g/m*3 11.12 C 0 km/h
856 10-06-2015 01:00:00 11.41667 C 7.91 g/m*3 11.42 C 0 km/h
857 10-06-2015 02:00:00 11.59167 C 8.02 g/m*3 11.59 C 0 km/h
858 10-06-2015 03:00:00 11.775 C 8.02 g/m*3 11.78 C 0 km/h
859 10-06-2015 04:00:00 10.9 C 7.81 g/m*3 10.9 C 0 km/h
860 10-06-2015 05:00:00 9.96667 C 7.7 g/m*3 9.97 C 0 km/h
861 10-06-2015 06:00:00 10.2 C 8.03 g/m*3 10.2 C 0 km/h
862 10-06-2015 07:00:00 11.20833 C 8.5 g/m*3 11.21 C 0 km/h
863 10-06-2015 08:00:00 13.23333 C 9.03 g/m*3 13.23 C 0.13333 km/h
864 10-06-2015 09:00:00 15.8 C 9.15 g/m*3 15.8 C 7.65 km/h
865 10-06-2015 10:00:00 18.68333 C 9.41 g/m*3 18.68 C 9.94167 km/h
866 10-06-2015 11:00:00 19.55 C 9.47 g/m*3 19.55 C 11.28333 km/h
867 10-06-2015 12:00:00 20.68333 C 9.67 g/m*3 20.68 C 11.7 km/h
868 10-06-2015 13:00:00 20.65833 C 10.13 g/m*3 20.66 C 8.85833 km/h
869 10-06-2015 14:00:00 22.98333 C 10.59 g/m*3 22.98 C 9.14167 km/h
870 10-06-2015 15:00:00 23.425 C 10.53 g/m*3 23.43 C 7.11667 km/h
871 10-06-2015 16:00:00 23.45 C 10.46 g/m*3 23.45 C 8.6 km/h
872 10-06-2015 17:00:00 23.45 C 10.68 g/m*3 23.45 C 7.25833 km/h
873 10-06-2015 18:00:00 24.06667 C 10.59 g/m*3 24.07 C 7.91667 km/h
874 10-06-2015 19:00:00 22.48333 C 10.48 g/m*3 22.48 C 3.2 km/h
875 10-06-2015 20:00:00 20.325 C 11.52 g/m*3 20.33 C 0.13333 km/h
Sensor: Nr:Datum:Temp:Abs-Feuchte:Windchill:Wind:
Aussen-T/F 876 10-06-2015 21:00:00 18.35833 C 11.09 g/m*3 18.36 C 0.13333 km/h
877 10-06-2015 22:00:00 17.64167 C 10.69 g/m*3 17.64 C 0 km/h
878 10-06-2015 23:00:00 17.48333 C 10.36 g/m*3 17.48 C 0.26667 km/h
879 11-06-2015 00:00:00 17.575 C 9.73 g/m*3 17.58 C 1.86667 km/h
880 11-06-2015 01:00:00 16.625 C 9.6 g/m*3 16.63 C 1.73333 km/h
881 11-06-2015 02:00:00 17.01667 C 9.57 g/m*3 17.02 C 2.13333 km/h
882 11-06-2015 03:00:00 16.38333 C 9.44 g/m*3 16.38 C 1.06667 km/h
883 11-06-2015 04:00:00 16.09167 C 9.43 g/m*3 16.09 C 1.33333 km/h
884 11-06-2015 05:00:00 14.2 C 9.22 g/m*3 14.2 C 0.13333 km/h
885 11-06-2015 06:00:00 13.625 C 9.35 g/m*3 13.63 C 0 km/h
886 11-06-2015 07:00:00 13.84167 C 9.76 g/m*3 13.84 C 0 km/h
887 11-06-2015 08:00:00 16.35833 C 10.48 g/m*3 16.36 C 2.80833 km/h
888 11-06-2015 09:00:00 19.06667 C 10.1 g/m*3 19.07 C 8.86667 km/h
889 11-06-2015 10:00:00 21.075 C 10.56 g/m*3 21.08 C 9.4 km/h
890 11-06-2015 11:00:00 22.9 C 11.05 g/m*3 22.9 C 9.29167 km/h
891 11-06-2015 12:00:00 24.16667 C 11.11 g/m*3 24.17 C 10.75833 km/h
892 11-06-2015 13:00:00 24.54167 C 11.2 g/m*3 24.54 C 10.475 km/h
893 11-06-2015 14:00:00 24.18333 C 11.19 g/m*3 24.18 C 10.76667 km/h
894 11-06-2015 15:00:00 24.71667 C 11.08 g/m*3 24.72 C 10.23333 km/h
895 11-06-2015 16:00:00 25.625 C 11.21 g/m*3 25.63 C 9.26667 km/h
896 11-06-2015 17:00:00 25.45833 C 11.18 g/m*3 25.46 C 9.13333 km/h
897 11-06-2015 18:00:00 24.88333 C 11.07 g/m*3 24.88 C 8.2 km/h
898 11-06-2015 19:00:00 24.18333 C 10.96 g/m*3 24.18 C 4.81667 km/h
899 11-06-2015 20:00:00 23.08333 C 11.05 g/m*3 23.08 C 4.54167 km/h
900 11-06-2015 21:00:00 19.87778 C 11.4 g/m*3 19.88 C 0 km/h
Sensor: Nr:Datum:Temp:Abs-Feuchte:Windchill:Wind:
Aussen-T/F 901 11-06-2015 22:00:00 17.24167 C 10.78 g/m*3 17.24 C 0.4 km/h
902 11-06-2015 23:00:00 16.275 C 10.7 g/m*3 16.27 C 0.13333 km/h
903 12-06-2015 00:00:00 15.45 C 10.56 g/m*3 15.45 C 0 km/h
904 12-06-2015 01:00:00 14.81667 C 10.46 g/m*3 14.82 C 0 km/h
905 12-06-2015 02:00:00 14.21667 C 10.33 g/m*3 14.22 C 0 km/h
906 12-06-2015 03:00:00 13.78333 C 10.26 g/m*3 13.78 C 0.13333 km/h
907 12-06-2015 04:00:00 13.125 C 10.06 g/m*3 13.13 C 0 km/h
908 12-06-2015 05:00:00 12.51667 C 9.88 g/m*3 12.52 C 0 km/h
909 12-06-2015 06:00:00 13.05833 C 10.26 g/m*3 13.06 C 0 km/h
910 12-06-2015 07:00:00 13.79167 C 10.67 g/m*3 13.79 C 0 km/h
911 12-06-2015 08:00:00 16.35833 C 11.39 g/m*3 16.36 C 2.40833 km/h
912 12-06-2015 09:00:00 19.44167 C 11.72 g/m*3 19.44 C 5.08333 km/h
913 12-06-2015 10:00:00 22.21667 C 12.9 g/m*3 22.22 C 6.16667 km/h
914 12-06-2015 11:00:00 24.85 C 13.52 g/m*3 24.85 C 8.74167 km/h
915 12-06-2015 12:00:00 26.95833 C 14.31 g/m*3 26.96 C 6.025 km/h
916 12-06-2015 13:00:00 29.075 C 14.85 g/m*3 29.08 C 7.11667 km/h
917 12-06-2015 14:00:00 29.90833 C 14.86 g/m*3 29.91 C 6.01667 km/h
918 12-06-2015 15:00:00 30.78333 C 17.29 g/m*3 30.78 C 5.88333 km/h
919 12-06-2015 16:00:00 28.175 C 15.95 g/m*3 28.18 C 2.275 km/h
920 12-06-2015 17:00:00 22.65 C 16.32 g/m*3 22.65 C 1.6 km/h
921 12-06-2015 18:00:00 21.62857 C 16.34 g/m*3 21.63 C 2.05714 km/h
922 12-06-2015 19:00:00 20.91667 C 15.81 g/m*3 20.92 C 2.80833 km/h
923 12-06-2015 20:00:00 19.1 C 15.08 g/m*3 19.1 C 1.2 km/h
924 12-06-2015 21:00:00 18.35833 C 14.8 g/m*3 18.36 C 0.26667 km/h
925 12-06-2015 22:00:00 17.8 C 14.42 g/m*3 17.8 C 1.2 km/h
Sensor: Nr:Datum:Temp:Abs-Feuchte:Windchill:Wind:
Aussen-T/F 926 12-06-2015 23:00:00 17.35833 C 14.13 g/m*3 17.36 C 0.93333 km/h
927 13-06-2015 00:00:00 16.64167 C 13.6 g/m*3 16.64 C 0 km/h
928 13-06-2015 01:00:00 16.19167 C 13.23 g/m*3 16.19 C 0 km/h
929 13-06-2015 02:00:00 15.79167 C 12.92 g/m*3 15.79 C 0 km/h
930 13-06-2015 03:00:00 15.53333 C 12.72 g/m*3 15.53 C 0 km/h
931 13-06-2015 04:00:00 15.00833 C 12.34 g/m*3 15.01 C 0 km/h
932 13-06-2015 05:00:00 14.90833 C 12.37 g/m*3 14.91 C 0.13333 km/h
933 13-06-2015 06:00:00 15.19167 C 12.58 g/m*3 15.19 C 2.26667 km/h
934 13-06-2015 07:00:00 15.40833 C 12.75 g/m*3 15.41 C 0.4 km/h
935 13-06-2015 08:00:00 15.925 C 13.16 g/m*3 15.93 C 1.34167 km/h
936 13-06-2015 09:00:00 16.93333 C 13.86 g/m*3 16.93 C 6.16667 km/h
937 13-06-2015 10:00:00 16.99167 C 13.65 g/m*3 16.99 C 3.49167 km/h
938 13-06-2015 11:00:00 18.23333 C 14.72 g/m*3 18.23 C 2.54167 km/h
939 13-06-2015 12:00:00 19.11667 C 14.7 g/m*3 19.12 C 2.80833 km/h
940 13-06-2015 13:00:00 18.80833 C 15 g/m*3 18.81 C 0.13333 km/h
941 13-06-2015 14:00:00 20.85833 C 15.52 g/m*3 20.86 C 4.85 km/h
942 13-06-2015 15:00:00 23.74167 C 14.62 g/m*3 23.74 C 9.55 km/h
943 13-06-2015 16:00:00 24.95833 C 14.26 g/m*3 24.96 C 10.625 km/h
944 13-06-2015 17:00:00 25.38333 C 12.6 g/m*3 25.38 C 14.09167 km/h
945 13-06-2015 18:00:00 24.53333 C 12.31 g/m*3 24.53 C 9.95 km/h
946 13-06-2015 19:00:00 23.425 C 13.16 g/m*3 23.43 C 3.89167 km/h
947 13-06-2015 20:00:00 21.30833 C 13.41 g/m*3 21.31 C 1.86667 km/h
948 13-06-2015 21:00:00 18.69167 C 13.27 g/m*3 18.69 C 1.46667 km/h
949 13-06-2015 22:00:00 17.4 C 12.58 g/m*3 17.4 C 0.8 km/h
950 13-06-2015 23:00:00 16.36667 C 12.17 g/m*3 16.37 C 0.4 km/h
Sensor: Nr:Datum:Temp:Abs-Feuchte:Windchill:Wind:
Aussen-T/F 951 14-06-2015 00:00:00 15.575 C 11.82 g/m*3 15.58 C 0 km/h
952 14-06-2015 01:00:00 14.88333 C 11.5 g/m*3 14.88 C 0.4 km/h
953 14-06-2015 02:00:00 13.8 C 10.88 g/m*3 13.8 C 0.13333 km/h
954 14-06-2015 03:00:00 13.05 C 10.54 g/m*3 13.05 C 0 km/h
955 14-06-2015 04:00:00 12.55 C 10.35 g/m*3 12.55 C 0 km/h
956 14-06-2015 05:00:00 11.98333 C 10.03 g/m*3 11.98 C 0.26667 km/h
957 14-06-2015 06:00:00 11.70833 C 9.92 g/m*3 11.71 C 0.13333 km/h
958 14-06-2015 07:00:00 12.16667 C 10.23 g/m*3 12.17 C 0.53333 km/h
959 14-06-2015 08:00:00 14.625 C 11.37 g/m*3 14.63 C 1.46667 km/h
960 14-06-2015 09:00:00 16.28333 C 11.45 g/m*3 16.28 C 0.93333 km/h
961 14-06-2015 10:00:00 19.5 C 11.16 g/m*3 19.5 C 3.46667 km/h
962 14-06-2015 11:00:00 21.39167 C 10.81 g/m*3 21.39 C 6.44167 km/h
963 14-06-2015 12:00:00 22.775 C 10.74 g/m*3 22.78 C 5.75 km/h
964 14-06-2015 13:00:00 23.86667 C 10.83 g/m*3 23.87 C 6.29167 km/h
965 14-06-2015 14:00:00 25.3 C 10.53 g/m*3 25.3 C 7.375 km/h
966 14-06-2015 15:00:00 26.64167 C 9.9 g/m*3 26.64 C 9.00833 km/h
967 14-06-2015 16:00:00 26.99167 C 9.35 g/m*3 26.99 C 10.76667 km/h
968 14-06-2015 17:00:00 26.89167 C 9.02 g/m*3 26.89 C 10.23333 km/h
969 14-06-2015 18:00:00 25.8 C 9.27 g/m*3 25.8 C 8.875 km/h
970 14-06-2015 19:00:00 24.95 C 9.66 g/m*3 24.95 C 7.525 km/h
971 14-06-2015 20:00:00 23.23333 C 10.12 g/m*3 23.23 C 5.09167 km/h
972 14-06-2015 21:00:00 19.51667 C 11.61 g/m*3 19.52 C 1.46667 km/h
973 14-06-2015 22:00:00 17.625 C 11.37 g/m*3 17.63 C 0 km/h
974 14-06-2015 23:00:00 16.74167 C 11.24 g/m*3 16.74 C 0.53333 km/h
975 15-06-2015 00:00:00 16.03333 C 11.22 g/m*3 16.03 C 0 km/h
Sensor: Nr:Datum:Temp:Abs-Feuchte:Windchill:Wind:
Aussen-T/F 976 15-06-2015 01:00:00 15.39167 C 11.09 g/m*3 15.39 C 0.26667 km/h
977 15-06-2015 02:00:00 14.74167 C 11.02 g/m*3 14.74 C 0.13333 km/h
978 15-06-2015 03:00:00 14.76667 C 11.16 g/m*3 14.77 C 0.26667 km/h
979 15-06-2015 04:00:00 14.425 C 11.08 g/m*3 14.43 C 0 km/h
980 15-06-2015 05:00:00 13.79167 C 10.88 g/m*3 13.79 C 0 km/h
981 15-06-2015 06:00:00 13.75833 C 11.05 g/m*3 13.76 C 0.26667 km/h
982 15-06-2015 07:00:00 14.7 C 11.56 g/m*3 14.7 C 0.4 km/h
983 15-06-2015 08:00:00 16.45 C 11.83 g/m*3 16.45 C 2.53333 km/h
984 15-06-2015 09:00:00 18.1 C 11.67 g/m*3 18.1 C 6.44167 km/h
985 15-06-2015 10:00:00 18.81667 C 11.65 g/m*3 18.82 C 8.45833 km/h
986 15-06-2015 11:00:00 18.075 C 11.78 g/m*3 18.08 C 11.03333 km/h
987 15-06-2015 12:00:00 18.39167 C 11.71 g/m*3 18.39 C 11.43333 km/h
988 15-06-2015 13:00:00 19.425 C 11.81 g/m*3 19.43 C 13.03333 km/h
989 15-06-2015 14:00:00 19.80833 C 11.49 g/m*3 19.81 C 12.1 km/h
990 15-06-2015 15:00:00 20.71667 C 11.73 g/m*3 20.72 C 13.15833 km/h
991 15-06-2015 16:00:00 21.39167 C 11.56 g/m*3 21.39 C 10.89167 km/h
992 15-06-2015 17:00:00 21.13333 C 11.12 g/m*3 21.13 C 10.48333 km/h
993 15-06-2015 18:00:00 21.275 C 10.7 g/m*3 21.28 C 10.625 km/h
994 15-06-2015 19:00:00 20.925 C 10.53 g/m*3 20.93 C 8.46667 km/h
995 15-06-2015 20:00:00 20.05833 C 10.1 g/m*3 20.06 C 7.525 km/h
996 15-06-2015 21:00:00 18.63333 C 9.58 g/m*3 18.63 C 3.6 km/h
997 15-06-2015 22:00:00 16.075 C 9.76 g/m*3 16.08 C 0.66667 km/h
998 15-06-2015 23:00:00 15.34167 C 9.6 g/m*3 15.34 C 0.26667 km/h
999 16-06-2015 00:00:00 14.625 C 9.49 g/m*3 14.63 C 0 km/h
1000 16-06-2015 01:00:00 14.00833 C 9.2 g/m*3 14.01 C 0.13333 km/h
Sensor: Nr:Datum:Temp:Abs-Feuchte:Windchill:Wind:
Aussen-T/F 1001 16-06-2015 02:00:00 12.925 C 8.85 g/m*3 12.93 C 0 km/h
1002 16-06-2015 03:00:00 11.9 C 8.62 g/m*3 11.9 C 0 km/h
1003 16-06-2015 04:00:00 12.425 C 8.51 g/m*3 12.43 C 1.46667 km/h
1004 16-06-2015 05:00:00 11.375 C 8.19 g/m*3 11.38 C 3.2 km/h
1005 16-06-2015 06:00:00 11.11667 C 8.19 g/m*3 11.12 C 1.46667 km/h
1006 16-06-2015 07:00:00 11.125 C 8.37 g/m*3 11.13 C 0.4 km/h
1007 16-06-2015 08:00:00 13.26667 C 8.79 g/m*3 13.27 C 3.61667 km/h
1008 16-06-2015 09:00:00 14.85 C 8.78 g/m*3 14.85 C 4.81667 km/h
1009 16-06-2015 10:00:00 16.675 C 8.89 g/m*3 16.68 C 7.65833 km/h
1010 16-06-2015 11:00:00 18.49167 C 8.76 g/m*3 18.49 C 8.06667 km/h
1011 16-06-2015 12:00:00 19.34167 C 8.23 g/m*3 19.34 C 11.96667 km/h
1012 16-06-2015 13:00:00 19.40833 C 8.12 g/m*3 19.41 C 11.83333 km/h
1013 16-06-2015 14:00:00 18.71667 C 8.24 g/m*3 18.72 C 13.43333 km/h
1014 16-06-2015 15:00:00 18.50833 C 8.06 g/m*3 18.51 C 11.83333 km/h
1015 16-06-2015 16:00:00 18.30833 C 8.2 g/m*3 18.31 C 10.76667 km/h
1016 16-06-2015 17:00:00 19.26667 C 8.62 g/m*3 19.27 C 11.16667 km/h
1017 16-06-2015 18:00:00 19.66667 C 8.13 g/m*3 19.67 C 13.03333 km/h
1018 16-06-2015 19:00:00 19.19167 C 7.28 g/m*3 19.19 C 11.03333 km/h
1019 16-06-2015 20:00:00 17.80833 C 6.85 g/m*3 17.81 C 9.13333 km/h
1020 16-06-2015 21:00:00 16.41667 C 6.71 g/m*3 16.42 C 6.7 km/h
1021 16-06-2015 22:00:00 14.75833 C 7.28 g/m*3 14.76 C 3.075 km/h
1022 16-06-2015 23:00:00 12.36667 C 7.53 g/m*3 12.37 C 0.26667 km/h
1023 17-06-2015 00:00:00 11.00833 C 7.59 g/m*3 11.01 C 0.26667 km/h
1024 17-06-2015 01:00:00 10.23333 C 7.64 g/m*3 10.23 C 0.13333 km/h
1025 17-06-2015 02:00:00 9.65 C 7.67 g/m*3 9.65 C 0 km/h
Sensor: Nr:Datum:Temp:Abs-Feuchte:Windchill:Wind:
Aussen-T/F 1026 17-06-2015 03:00:00 8.83333 C 7.52 g/m*3 8.83 C 0 km/h
1027 17-06-2015 04:00:00 8.00833 C 7.41 g/m*3 8.01 C 0 km/h
1028 17-06-2015 05:00:00 7.5 C 7.33 g/m*3 7.5 C 0 km/h
1029 17-06-2015 06:00:00 7.46667 C 7.4 g/m*3 7.47 C 0 km/h
1030 17-06-2015 07:00:00 8.125 C 7.75 g/m*3 8.13 C 0.26667 km/h
1031 17-06-2015 08:00:00 10.86667 C 8.69 g/m*3 10.87 C 0 km/h
1032 17-06-2015 09:00:00 13.35 C 8.69 g/m*3 13.35 C 1.86667 km/h
1033 17-06-2015 10:00:00 16.35 C 8.43 g/m*3 16.35 C 3.6 km/h
1034 17-06-2015 11:00:00 18.175 C 7.54 g/m*3 18.18 C 6.01667 km/h
1035 17-06-2015 12:00:00 19.35 C 7.47 g/m*3 19.35 C 6.71667 km/h
1036 17-06-2015 13:00:00 20.6 C 7.79 g/m*3 20.6 C 7.10833 km/h
1037 17-06-2015 14:00:00 21.36667 C 8.03 g/m*3 21.37 C 8.75 km/h
1038 17-06-2015 15:00:00 22.225 C 8.06 g/m*3 22.23 C 6.55 km/h
1039 17-06-2015 16:00:00 22.375 C 8 g/m*3 22.38 C 5.625 km/h
1040 17-06-2015 17:00:00 23.425 C 8.28 g/m*3 23.43 C 6.99167 km/h
1041 17-06-2015 18:00:00 23.66667 C 8.47 g/m*3 23.67 C 6.01667 km/h
1042 17-06-2015 19:00:00 22.35 C 9.08 g/m*3 22.35 C 4.675 km/h
1043 17-06-2015 20:00:00 19.25 C 10.69 g/m*3 19.25 C 0.13333 km/h
1044 17-06-2015 21:00:00 17.03333 C 9.92 g/m*3 17.03 C 1.06667 km/h
1045 17-06-2015 22:00:00 16.45833 C 9.87 g/m*3 16.46 C 0 km/h
1046 17-06-2015 23:00:00 16.29167 C 9.71 g/m*3 16.29 C 0.53333 km/h
1047 18-06-2015 00:00:00 16.51667 C 9.84 g/m*3 16.52 C 2.26667 km/h
1048 18-06-2015 01:00:00 16.20833 C 10.03 g/m*3 16.21 C 2.13333 km/h
1049 18-06-2015 02:00:00 16.49167 C 10.22 g/m*3 16.49 C 0.53333 km/h
1050 18-06-2015 03:00:00 16.225 C 10.86 g/m*3 16.23 C 0.13333 km/h
Sensor: Nr:Datum:Temp:Abs-Feuchte:Windchill:Wind:
Aussen-T/F 1051 18-06-2015 04:00:00 17.2 C 11.04 g/m*3 17.2 C 4.00833 km/h
1052 18-06-2015 05:00:00 16.01667 C 11.99 g/m*3 16.02 C 0.66667 km/h
1053 18-06-2015 06:00:00 15.25833 C 12.2 g/m*3 15.26 C 0.53333 km/h
1054 18-06-2015 07:00:00 15.58333 C 12.51 g/m*3 15.58 C 4.94167 km/h
1055 18-06-2015 08:00:00 15.78333 C 12.77 g/m*3 15.78 C 4.69167 km/h
1056 18-06-2015 09:00:00 16.26667 C 13.11 g/m*3 16.27 C 6.3 km/h
1057 18-06-2015 10:00:00 16.24167 C 12.72 g/m*3 16.24 C 6.85 km/h
1058 18-06-2015 11:00:00 15.76667 C 12.42 g/m*3 15.77 C 6.03333 km/h
1059 18-06-2015 12:00:00 16.65833 C 12.98 g/m*3 16.66 C 2.53333 km/h
1060 18-06-2015 13:00:00 18.46667 C 12.29 g/m*3 18.47 C 11.69167 km/h
1061 18-06-2015 14:00:00 20.15833 C 11.35 g/m*3 20.16 C 14.23333 km/h
1062 18-06-2015 15:00:00 21.14167 C 11.51 g/m*3 21.14 C 13.16667 km/h
1063 18-06-2015 16:00:00 20.96667 C 10.85 g/m*3 20.97 C 14.5 km/h
1064 18-06-2015 17:00:00 21.05833 C 10.03 g/m*3 21.06 C 14.5 km/h
1065 18-06-2015 18:00:00 20.48333 C 9.6 g/m*3 20.48 C 16.1 km/h
1066 18-06-2015 19:00:00 18.75 C 9.26 g/m*3 18.75 C 13.825 km/h
1067 18-06-2015 20:00:00 17.18333 C 8.85 g/m*3 17.18 C 13.16667 km/h
1068 18-06-2015 21:00:00 15.68333 C 8.38 g/m*3 15.68 C 10.49167 km/h
1069 18-06-2015 22:00:00 14.44167 C 8.24 g/m*3 14.44 C 6.575 km/h
1070 18-06-2015 23:00:00 13.2 C 8.34 g/m*3 13.2 C 3.75 km/h
1071 19-06-2015 00:00:00 12.46667 C 8.17 g/m*3 12.47 C 4.68333 km/h
1072 19-06-2015 01:00:00 11.25 C 8.15 g/m*3 11.25 C 1.33333 km/h
1073 19-06-2015 02:00:00 10.61667 C 8.22 g/m*3 10.62 C 0.26667 km/h
1074 19-06-2015 03:00:00 10.375 C 8.1 g/m*3 10.38 C 0 km/h
1075 19-06-2015 04:00:00 10.025 C 8.02 g/m*3 10.03 C 0 km/h
Sensor: Nr:Datum:Temp:Abs-Feuchte:Windchill:Wind:
Aussen-T/F 1076 19-06-2015 05:00:00 10.65833 C 8.08 g/m*3 10.66 C 0.8 km/h
1077 19-06-2015 06:00:00 11.16667 C 8.12 g/m*3 11.17 C 0.93333 km/h
1078 19-06-2015 07:00:00 11.55833 C 8.25 g/m*3 11.56 C 2.66667 km/h
1079 19-06-2015 08:00:00 12.21667 C 8.51 g/m*3 12.22 C 5.20833 km/h
1080 19-06-2015 09:00:00 12.95 C 8.55 g/m*3 12.95 C 7.25833 km/h
1081 19-06-2015 10:00:00 14.36667 C 8.85 g/m*3 14.37 C 7.8 km/h
1082 19-06-2015 11:00:00 14.925 C 9.13 g/m*3 14.93 C 10.35 km/h
1083 19-06-2015 12:00:00 14.44167 C 10.38 g/m*3 14.44 C 3.6 km/h
1084 19-06-2015 13:00:00 15.51667 C 10.42 g/m*3 15.52 C 6.70833 km/h
1085 19-06-2015 14:00:00 15.025 C 10.55 g/m*3 15.03 C 2.4 km/h
1086 19-06-2015 15:00:00 13.9 C 10.56 g/m*3 13.9 C 3.075 km/h
1087 19-06-2015 16:00:00 15.025 C 10.93 g/m*3 15.03 C 4.425 km/h
1088 19-06-2015 17:00:00 13.73333 C 10.33 g/m*3 13.73 C 4.975 km/h
1089 19-06-2015 18:00:00 14.81667 C 10.27 g/m*3 14.82 C 8.2 km/h
1090 19-06-2015 19:00:00 13.51667 C 9.88 g/m*3 13.52 C 2.81667 km/h
1091 19-06-2015 20:00:00 12.74167 C 9.91 g/m*3 12.74 C 2 km/h
1092 19-06-2015 21:00:00 12.30833 C 9.53 g/m*3 12.31 C 3.075 km/h
1093 19-06-2015 22:00:00 11.61667 C 9.49 g/m*3 11.62 C 0.4 km/h
1094 19-06-2015 23:00:00 10.925 C 9.36 g/m*3 10.93 C 0 km/h
1095 20-06-2015 00:00:00 10.80833 C 9.39 g/m*3 10.81 C 0 km/h
1096 20-06-2015 01:00:00 10.9 C 9.48 g/m*3 10.9 C 0 km/h
1097 20-06-2015 02:00:00 10.81667 C 9.5 g/m*3 10.82 C 0.53333 km/h
1098 20-06-2015 03:00:00 10.80833 C 9.47 g/m*3 10.81 C 0.66667 km/h
1099 20-06-2015 04:00:00 10.35833 C 9.13 g/m*3 10.36 C 0.26667 km/h
1100 20-06-2015 05:00:00 10.32 C 9.13 g/m*3 10.32 C 0 km/h
Sensor: Nr:Datum:Temp:Abs-Feuchte:Windchill:Wind:
Aussen-T/F 1101 20-06-2015 06:00:00 10.35 C 9.17 g/m*3 10.35 C 0.53333 km/h
1102 20-06-2015 07:00:00 10.73333 C 9.1 g/m*3 10.73 C 4.81667 km/h
1103 20-06-2015 08:00:00 11.51667 C 9.2 g/m*3 11.52 C 5.09167 km/h
1104 20-06-2015 09:00:00 12.03333 C 9.29 g/m*3 12.03 C 6.44167 km/h
1105 20-06-2015 10:00:00 12.73333 C 9.4 g/m*3 12.73 C 7.925 km/h
1106 20-06-2015 11:00:00 13.04444 C 9.2 g/m*3 13.04 C 8.78889 km/h
1107 20-06-2015 12:00:00 14.95833 C 9.62 g/m*3 14.96 C 10.49167 km/h
1108 20-06-2015 13:00:00 15.04167 C 9.16 g/m*3 15.04 C 8.73333 km/h
1109 20-06-2015 14:00:00 15.99167 C 8.83 g/m*3 15.99 C 9.275 km/h
1110 20-06-2015 15:00:00 16.8 C 8.92 g/m*3 16.8 C 11.03333 km/h
1111 20-06-2015 16:00:00 16.825 C 8.78 g/m*3 16.83 C 11.69167 km/h
1112 20-06-2015 17:00:00 16.475 C 8.69 g/m*3 16.48 C 10.225 km/h
1113 20-06-2015 18:00:00 15.91667 C 8.54 g/m*3 15.92 C 8.73333 km/h
1114 20-06-2015 19:00:00 15.43333 C 8.29 g/m*3 15.43 C 4.26667 km/h
1115 20-06-2015 20:00:00 13.65 C 9.77 g/m*3 13.65 C 0 km/h
1116 20-06-2015 21:00:00 13.15 C 9.66 g/m*3 13.15 C 0.13333 km/h
1117 20-06-2015 22:00:00 12.60833 C 9.54 g/m*3 12.61 C 0 km/h
1118 20-06-2015 23:00:00 12.34286 C 9.3 g/m*3 12.34 C 0 km/h
1119 21-06-2015 00:00:00 11.9 C 9.19 g/m*3 11.9 C 0 km/h
1120 21-06-2015 01:00:00 11.76667 C 9.31 g/m*3 11.77 C 0 km/h
1121 21-06-2015 02:00:00 11.4 C 9.42 g/m*3 11.4 C 0 km/h
1122 21-06-2015 03:00:00 11.3 C 9.49 g/m*3 11.3 C 0 km/h
1123 21-06-2015 04:00:00 11.36667 C 9.53 g/m*3 11.37 C 0 km/h
1124 21-06-2015 05:00:00 11.35 C 9.59 g/m*3 11.35 C 0.13333 km/h
1125 21-06-2015 06:00:00 11.71667 C 9.71 g/m*3 11.72 C 1.475 km/h
Sensor: Nr:Datum:Temp:Abs-Feuchte:Windchill:Wind:
Aussen-T/F 1126 21-06-2015 07:00:00 12.18333 C 9.98 g/m*3 12.18 C 1.2 km/h
1127 21-06-2015 08:00:00 12.7 C 10.34 g/m*3 12.7 C 1.46667 km/h
1128 21-06-2015 09:00:00 13.575 C 10.58 g/m*3 13.58 C 6.3 km/h
1129 21-06-2015 10:00:00 15.93333 C 11.29 g/m*3 15.93 C 10.1 km/h
1130 21-06-2015 11:00:00 17.70833 C 11.62 g/m*3 17.71 C 11.29167 km/h
1131 21-06-2015 12:00:00 18.56667 C 11.78 g/m*3 18.57 C 15.16667 km/h
1132 21-06-2015 13:00:00 18.80833 C 11.91 g/m*3 18.81 C 13.83333 km/h
1133 21-06-2015 14:00:00 19.175 C 12.23 g/m*3 19.18 C 12.35833 km/h
1134 21-06-2015 15:00:00 18 C 12.86 g/m*3 18 C 9.125 km/h
1135 21-06-2015 16:00:00 19.075 C 13.83 g/m*3 19.08 C 8.475 km/h
1136 21-06-2015 17:00:00 19.625 C 13.81 g/m*3 19.63 C 5.90833 km/h
1137 21-06-2015 18:00:00 20.08333 C 13.4 g/m*3 20.08 C 7.63333 km/h
1138 21-06-2015 19:00:00 20.4 C 12.21 g/m*3 20.4 C 4.85 km/h
1139 21-06-2015 20:00:00 18.15 C 13.34 g/m*3 18.15 C 0.8 km/h
1140 21-06-2015 21:00:00 17.475 C 12.06 g/m*3 17.48 C 1.46667 km/h
1141 21-06-2015 22:00:00 16.075 C 10.79 g/m*3 16.08 C 1.06667 km/h
1142 21-06-2015 23:00:00 14.31667 C 10.39 g/m*3 14.32 C 0.8 km/h
1143 22-06-2015 00:00:00 13.775 C 9.86 g/m*3 13.78 C 2.26667 km/h
1144 22-06-2015 01:00:00 13.46667 C 9.66 g/m*3 13.47 C 0.93333 km/h
1145 22-06-2015 02:00:00 12.6 C 9.4 g/m*3 12.6 C 2.54167 km/h
1146 22-06-2015 03:00:00 11.95833 C 9.36 g/m*3 11.96 C 4.825 km/h
1147 22-06-2015 04:00:00 12.16667 C 9.59 g/m*3 12.17 C 5.225 km/h
1148 22-06-2015 05:00:00 12.21667 C 9.6 g/m*3 12.22 C 4.69167 km/h
1149 22-06-2015 06:00:00 12.56667 C 9.74 g/m*3 12.57 C 5.21667 km/h
1150 22-06-2015 07:00:00 13.175 C 9.87 g/m*3 13.18 C 6.96667 km/h
Sensor: Nr:Datum:Temp:Abs-Feuchte:Windchill:Wind:
Aussen-T/F 1151 22-06-2015 08:00:00 13.50833 C 9.95 g/m*3 13.51 C 6.83333 km/h
1152 22-06-2015 09:00:00 12.96667 C 10.15 g/m*3 12.97 C 5.08333 km/h
1153 22-06-2015 10:00:00 13.05833 C 10.32 g/m*3 13.06 C 6.56667 km/h
1154 22-06-2015 11:00:00 13.55833 C 10.58 g/m*3 13.56 C 9.125 km/h
1155 22-06-2015 12:00:00 13.83333 C 10.49 g/m*3 13.83 C 9.94167 km/h
1156 22-06-2015 13:00:00 13.9 C 10.29 g/m*3 13.9 C 7.91667 km/h
1157 22-06-2015 14:00:00 14.43333 C 10.38 g/m*3 14.43 C 10.33333 km/h
1158 22-06-2015 15:00:00 13.9 C 10.63 g/m*3 13.9 C 9.80833 km/h
1159 22-06-2015 16:00:00 14.35833 C 10.7 g/m*3 14.36 C 9.68333 km/h
1160 22-06-2015 17:00:00 14.525 C 10.41 g/m*3 14.53 C 9.26667 km/h
1161 22-06-2015 18:00:00 14.26667 C 10.34 g/m*3 14.27 C 8.74167 km/h
1162 22-06-2015 19:00:00 13.34167 C 10.62 g/m*3 13.34 C 0.8 km/h
1163 22-06-2015 20:00:00 12.825 C 10.55 g/m*3 12.83 C 2.53333 km/h
1164 22-06-2015 21:00:00 12.5 C 10.33 g/m*3 12.5 C 0 km/h
1165 22-06-2015 22:00:00 11.73333 C 9.96 g/m*3 11.73 C 3.21111 km/h
1166 22-06-2015 23:00:00 11.18333 C 9.62 g/m*3 11.18 C 2.14167 km/h
1167 23-06-2015 00:00:00 10.50833 C 9.15 g/m*3 10.23 C 5.35833 km/h
1168 23-06-2015 01:00:00 9.95833 C 8.9 g/m*3 9.96 C 0.93333 km/h
1169 23-06-2015 02:00:00 9.3 C 8.46 g/m*3 9.3 C 3.2 km/h
1170 23-06-2015 03:00:00 9.06667 C 8.32 g/m*3 9.07 C 2 km/h
1171 23-06-2015 04:00:00 9.15 C 8.37 g/m*3 9.15 C 0.8 km/h
1172 23-06-2015 05:00:00 8.65 C 8.15 g/m*3 8.65 C 0.8 km/h
1173 23-06-2015 06:00:00 8.84167 C 8.3 g/m*3 8.84 C 0.8 km/h
1174 23-06-2015 07:00:00 9.85833 C 8.8 g/m*3 9.86 C 4.68333 km/h
1175 23-06-2015 08:00:00 10.975 C 9.2 g/m*3 10.06 C 8.46667 km/h
Sensor: Nr:Datum:Temp:Abs-Feuchte:Windchill:Wind:
Aussen-T/F 1176 23-06-2015 09:00:00 11.36667 C 9.36 g/m*3 11.37 C 6.56667 km/h
1177 23-06-2015 10:00:00 12.04167 C 9.7 g/m*3 12.04 C 8.05833 km/h
1178 23-06-2015 11:00:00 13.45833 C 10.15 g/m*3 13.46 C 6.84167 km/h
1179 23-06-2015 12:00:00 13.69167 C 10.28 g/m*3 13.69 C 3.48333 km/h
1180 23-06-2015 13:00:00 14.275 C 10.5 g/m*3 14.28 C 7.51667 km/h
1181 23-06-2015 14:00:00 15.675 C 10.92 g/m*3 15.68 C 5.48333 km/h
1182 23-06-2015 15:00:00 13.53333 C 10.3 g/m*3 13.53 C 5.775 km/h
1183 23-06-2015 16:00:00 12.75833 C 10.35 g/m*3 12.76 C 2.94167 km/h
1184 23-06-2015 17:00:00 12.85833 C 10.56 g/m*3 12.86 C 0.4 km/h
1185 23-06-2015 18:00:00 13.00833 C 10.73 g/m*3 13.01 C 0.53333 km/h
1186 23-06-2015 19:00:00 12.75833 C 10.6 g/m*3 12.76 C 2.275 km/h
1187 23-06-2015 20:00:00 12.81667 C 10.6 g/m*3 12.82 C 1.33333 km/h
1188 23-06-2015 21:00:00 12.5 C 10.44 g/m*3 12.5 C 2.4 km/h
1189 23-06-2015 22:00:00 12.3 C 10.37 g/m*3 12.3 C 1.06667 km/h
1190 23-06-2015 23:00:00 12.13333 C 10.14 g/m*3 12.13 C 4.15 km/h
1191 24-06-2015 00:00:00 11.83333 C 9.93 g/m*3 11.83 C 2.95 km/h
1192 24-06-2015 01:00:00 11.63333 C 9.76 g/m*3 11.63 C 1.46667 km/h
1193 24-06-2015 02:00:00 11.45833 C 9.7 g/m*3 11.46 C 1.2 km/h
1194 24-06-2015 03:00:00 11.54167 C 9.73 g/m*3 11.54 C 1.33333 km/h
1195 24-06-2015 04:00:00 11.45833 C 9.66 g/m*3 11.46 C 1.06667 km/h
1196 24-06-2015 05:00:00 11.14167 C 9.59 g/m*3 11.14 C 0.26667 km/h
1197 24-06-2015 06:00:00 11.16667 C 9.59 g/m*3 11.17 C 0.4 km/h
1198 24-06-2015 07:00:00 11.58333 C 9.53 g/m*3 11.58 C 0.53333 km/h
1199 24-06-2015 08:00:00 12.075 C 9.63 g/m*3 12.08 C 1.475 km/h
1200 24-06-2015 09:00:00 12.54167 C 9.53 g/m*3 12.54 C 2.4 km/h
Sensor: Nr:Datum:Temp:Abs-Feuchte:Windchill:Wind:
Aussen-T/F 1201 24-06-2015 10:00:00 13.24167 C 9.36 g/m*3 13.24 C 3.475 km/h
1202 24-06-2015 11:00:00 13.93333 C 9.5 g/m*3 13.93 C 4.15 km/h
1203 24-06-2015 12:00:00 14.8 C 9.52 g/m*3 14.8 C 3.6 km/h
1204 24-06-2015 13:00:00 16.06667 C 9.79 g/m*3 16.07 C 5.9 km/h
1205 24-06-2015 14:00:00 18.05 C 10.69 g/m*3 18.05 C 6.3 km/h
1206 24-06-2015 15:00:00 19.66667 C 11 g/m*3 19.67 C 7.525 km/h
1207 24-06-2015 16:00:00 20.84167 C 11.12 g/m*3 20.84 C 7.525 km/h
1208 24-06-2015 17:00:00 21.45 C 11.14 g/m*3 21.45 C 5.60833 km/h
1209 24-06-2015 18:00:00 21.49167 C 10.96 g/m*3 21.49 C 6.70833 km/h
1210 24-06-2015 19:00:00 21.125 C 10.78 g/m*3 21.13 C 6.28333 km/h
1211 24-06-2015 20:00:00 19.075 C 11.57 g/m*3 19.08 C 2.13333 km/h
1212 24-06-2015 21:00:00 15.375 C 11.39 g/m*3 15.38 C 0.26667 km/h
1213 24-06-2015 22:00:00 14.15 C 10.9 g/m*3 14.15 C 0 km/h
1214 24-06-2015 23:00:00 13.39167 C 10.64 g/m*3 13.39 C 0 km/h
1215 25-06-2015 00:00:00 12.60833 C 10.23 g/m*3 12.61 C 0 km/h
1216 25-06-2015 01:00:00 11.86667 C 9.86 g/m*3 11.87 C 0 km/h
1217 25-06-2015 02:00:00 11.35 C 9.62 g/m*3 11.35 C 0 km/h
1218 25-06-2015 03:00:00 10.90833 C 9.45 g/m*3 10.91 C 0 km/h
1219 25-06-2015 04:00:00 10.94167 C 9.47 g/m*3 10.94 C 0 km/h
1220 25-06-2015 05:00:00 10.625 C 9.31 g/m*3 10.63 C 0.13333 km/h
1221 25-06-2015 06:00:00 11 C 9.61 g/m*3 11 C 0.26667 km/h
1222 25-06-2015 07:00:00 11.75 C 10.05 g/m*3 11.75 C 2.53333 km/h
1223 25-06-2015 08:00:00 13.03333 C 10.68 g/m*3 13.03 C 0.66667 km/h
1224 25-06-2015 09:00:00 15.60833 C 11.38 g/m*3 15.61 C 2.53333 km/h
1225 25-06-2015 10:00:00 18.00833 C 12.4 g/m*3 18.01 C 2 km/h
Sensor: Nr:Datum:Temp:Abs-Feuchte:Windchill:Wind:
Aussen-T/F 1226 25-06-2015 11:00:00 21.01667 C 11.89 g/m*3 21.02 C 5.75 km/h
1227 25-06-2015 12:00:00 22.94167 C 11.54 g/m*3 22.94 C 6.43333 km/h
1228 25-06-2015 13:00:00 24.125 C 11.96 g/m*3 24.13 C 5.225 km/h
1229 25-06-2015 14:00:00 25.2 C 11.15 g/m*3 25.2 C 7.125 km/h
1230 25-06-2015 15:00:00 25.91667 C 10.88 g/m*3 25.92 C 6.975 km/h
1231 25-06-2015 16:00:00 26.55833 C 10.59 g/m*3 26.56 C 7.925 km/h
1232 25-06-2015 17:00:00 25.975 C 11.06 g/m*3 25.98 C 7.39167 km/h
1233 25-06-2015 18:00:00 24.84167 C 12.68 g/m*3 24.84 C 2.4 km/h
1234 25-06-2015 19:00:00 23.625 C 13.4 g/m*3 23.63 C 2.00833 km/h
1235 25-06-2015 20:00:00 19.96667 C 13.38 g/m*3 19.97 C 1.33333 km/h
1236 25-06-2015 21:00:00 18.49167 C 12.73 g/m*3 18.49 C 0.4 km/h
1237 25-06-2015 22:00:00 17.44167 C 12.28 g/m*3 17.44 C 0.13333 km/h
1238 25-06-2015 23:00:00 16.83333 C 12.15 g/m*3 16.83 C 0.26667 km/h
1239 26-06-2015 00:00:00 15.73333 C 11.65 g/m*3 15.73 C 0 km/h
1240 26-06-2015 01:00:00 14.84167 C 11.3 g/m*3 14.84 C 0.26667 km/h
1241 26-06-2015 02:00:00 14.575 C 11.18 g/m*3 14.58 C 1.46667 km/h
1242 26-06-2015 03:00:00 14.55 C 11.19 g/m*3 14.55 C 0.66667 km/h
1243 26-06-2015 04:00:00 13.775 C 10.88 g/m*3 13.78 C 0.4 km/h
1244 26-06-2015 05:00:00 13.55 C 10.79 g/m*3 13.55 C 0 km/h
1245 26-06-2015 06:00:00 13.49167 C 10.88 g/m*3 13.49 C 0 km/h
1246 26-06-2015 07:00:00 14.5 C 11.44 g/m*3 14.5 C 0 km/h
1247 26-06-2015 08:00:00 16.35833 C 11.93 g/m*3 16.36 C 1.6 km/h
1248 26-06-2015 09:00:00 18.06667 C 12.97 g/m*3 18.07 C 0.53333 km/h
1249 26-06-2015 10:00:00 21.625 C 13.33 g/m*3 21.63 C 7.53333 km/h
1250 26-06-2015 11:00:00 24.075 C 13 g/m*3 24.08 C 9.825 km/h
Sensor: Nr:Datum:Temp:Abs-Feuchte:Windchill:Wind:
Aussen-T/F 1251 26-06-2015 12:00:00 25.85833 C 13.04 g/m*3 25.86 C 10.33333 km/h
1252 26-06-2015 13:00:00 26 C 12.92 g/m*3 26 C 8.58333 km/h
1253 26-06-2015 14:00:00 25.175 C 13.52 g/m*3 25.18 C 4.81667 km/h
1254 26-06-2015 15:00:00 24.71667 C 13.95 g/m*3 24.72 C 5.48333 km/h
1255 26-06-2015 16:00:00 23.83333 C 14.39 g/m*3 23.83 C 3.20833 km/h
1256 26-06-2015 17:00:00 22.31667 C 15.17 g/m*3 22.32 C 0.66667 km/h
1257 26-06-2015 18:00:00 21.66667 C 15.36 g/m*3 21.67 C 0.13333 km/h
1258 26-06-2015 19:00:00 21.51667 C 15.27 g/m*3 21.52 C 0.8 km/h
1259 26-06-2015 20:00:00 20.86667 C 14.68 g/m*3 20.87 C 1.33333 km/h
1260 26-06-2015 21:00:00 19.90833 C 13.89 g/m*3 19.91 C 0.4 km/h
1261 26-06-2015 22:00:00 19.46667 C 13.53 g/m*3 19.47 C 0.4 km/h
1262 26-06-2015 23:00:00 19.16667 C 13.28 g/m*3 19.17 C 0 km/h
1263 27-06-2015 00:00:00 18.66667 C 13.24 g/m*3 18.67 C 0.13333 km/h
1264 27-06-2015 01:00:00 18.43333 C 13.46 g/m*3 18.43 C 1.33333 km/h
1265 27-06-2015 02:00:00 18.41667 C 13.37 g/m*3 18.42 C 1.2 km/h
1266 27-06-2015 03:00:00 17.44167 C 13.61 g/m*3 17.44 C 0.13333 km/h
1267 27-06-2015 04:00:00 16.89167 C 13.53 g/m*3 16.89 C 0 km/h
1268 27-06-2015 05:00:00 16.53333 C 13.44 g/m*3 16.53 C 0.53333 km/h
1269 27-06-2015 06:00:00 16.4 C 13.26 g/m*3 16.4 C 4.8 km/h
1270 27-06-2015 09:00:00 17.65 C 14.44 g/m*3 17.65 C 0 km/h
1271 27-06-2015 10:00:00 18.81667 C 15.15 g/m*3 18.82 C 1.73333 km/h
1272 27-06-2015 11:00:00 21.06667 C 16.11 g/m*3 21.07 C 4.025 km/h
1273 27-06-2015 12:00:00 22.025 C 15.92 g/m*3 22.03 C 7.36667 km/h
1274 27-06-2015 13:00:00 22.24167 C 13.73 g/m*3 22.24 C 12.23333 km/h
1275 27-06-2015 14:00:00 22.625 C 13.56 g/m*3 22.63 C 14.36667 km/h
Sensor: Nr:Datum:Temp:Abs-Feuchte:Windchill:Wind:
Aussen-T/F 1276 27-06-2015 15:00:00 23.575 C 12.71 g/m*3 23.58 C 14.36667 km/h
1277 27-06-2015 16:00:00 24.95833 C 12.59 g/m*3 24.96 C 13.83333 km/h
1278 27-06-2015 17:00:00 23.33333 C 12.64 g/m*3 23.33 C 15.3 km/h
1279 27-06-2015 18:00:00 23.575 C 12.28 g/m*3 23.58 C 14.36667 km/h
1280 27-06-2015 19:00:00 22.48333 C 11.74 g/m*3 22.48 C 10.625 km/h
1281 27-06-2015 20:00:00 21.78333 C 10.7 g/m*3 21.78 C 8.86667 km/h
1282 27-06-2015 21:00:00 20.2 C 10.32 g/m*3 20.2 C 5.775 km/h
1283 27-06-2015 22:00:00 16.95 C 10.78 g/m*3 16.95 C 0.93333 km/h
1284 27-06-2015 23:00:00 15.85833 C 10.57 g/m*3 15.86 C 0.93333 km/h
1285 28-06-2015 00:00:00 14.79167 C 10.33 g/m*3 14.79 C 0.26667 km/h
1286 28-06-2015 01:00:00 12.9 C 9.81 g/m*3 12.9 C 0 km/h
1287 28-06-2015 02:00:00 12.60833 C 9.8 g/m*3 12.61 C 0.8 km/h
1288 28-06-2015 03:00:00 11.93333 C 9.6 g/m*3 11.93 C 0 km/h
1289 28-06-2015 04:00:00 11.6 C 9.46 g/m*3 11.6 C 0 km/h
1290 28-06-2015 06:00:00 10.55 C 9.15 g/m*3 10.55 C 0.26667 km/h
1291 28-06-2015 07:00:00 11.2 C 9.53 g/m*3 11.2 C 0 km/h
1292 28-06-2015 08:00:00 13.53333 C 10.45 g/m*3 13.53 C 0 km/h
1293 28-06-2015 09:00:00 15.59167 C 11.27 g/m*3 15.59 C 0.13333 km/h
1294 28-06-2015 10:00:00 17.48571 C 11.7 g/m*3 17.49 C 0.91429 km/h
1295 28-06-2015 11:00:00 21.31429 C 10.5 g/m*3 21.31 C 3.88571 km/h
1296 28-06-2015 12:00:00 22.79091 C 10.25 g/m*3 22.79 C 4.65455 km/h
1297 28-06-2015 13:00:00 24.2 C 10.01 g/m*3 24.2 C 6.41667 km/h
1298 28-06-2015 14:00:00 24.125 C 10.15 g/m*3 24.13 C 4.93333 km/h
1299 28-06-2015 15:00:00 24.40833 C 10.28 g/m*3 24.41 C 4.94167 km/h
1300 28-06-2015 16:00:00 24.71667 C 10.31 g/m*3 24.72 C 5.2 km/h
Sensor: Nr:Datum:Temp:Abs-Feuchte:Windchill:Wind:
Aussen-T/F 1301 28-06-2015 17:00:00 22.43333 C 13.4 g/m*3 22.43 C 0.93333 km/h
1302 28-06-2015 18:00:00 22.575 C 12.99 g/m*3 22.58 C 1.06667 km/h
1303 28-06-2015 19:00:00 21.40833 C 14.21 g/m*3 21.41 C 0.53333 km/h
1304 28-06-2015 20:00:00 19.65 C 13.18 g/m*3 19.65 C 0.13333 km/h
1305 28-06-2015 21:00:00 18.4 C 12.57 g/m*3 18.4 C 0.93333 km/h
1306 28-06-2015 22:00:00 18.23333 C 12.32 g/m*3 18.23 C 1.46667 km/h
1307 28-06-2015 23:00:00 19.2 C 11.98 g/m*3 19.2 C 1.6 km/h
1308 29-06-2015 06:00:00 15.79 C 11.91 g/m*3 15.79 C 0 km/h
1309 29-06-2015 07:00:00 16.86 C 12.31 g/m*3 16.86 C 1.28 km/h
1310 29-06-2015 08:00:00 18.5 C 12.51 g/m*3 18.5 C 2.4 km/h
1311 29-06-2015 09:00:00 19.61667 C 12.67 g/m*3 19.62 C 5.88333 km/h
1312 29-06-2015 12:00:00 26.45 C 14.1 g/m*3 26.45 C 5.6 km/h
1313 29-06-2015 13:00:00 27.1 C 14.36 g/m*3 27.1 C 8.73333 km/h
1314 29-06-2015 14:00:00 27.725 C 13.91 g/m*3 27.73 C 9.28333 km/h
1315 29-06-2015 15:00:00 28.11667 C 13.89 g/m*3 28.12 C 12.76667 km/h
1316 29-06-2015 16:00:00 28.16667 C 13.49 g/m*3 28.17 C 9.96667 km/h
1317 29-06-2015 17:00:00 27.35833 C 12.91 g/m*3 27.36 C 10.225 km/h
1318 29-06-2015 18:00:00 27.01667 C 12.32 g/m*3 27.02 C 11.3 km/h
1319 29-06-2015 19:00:00 26.11667 C 11.44 g/m*3 26.12 C 7.25833 km/h
1320 29-06-2015 20:00:00 23.925 C 11.84 g/m*3 23.93 C 3.88333 km/h
1321 29-06-2015 21:00:00 20.5 C 12.66 g/m*3 20.5 C 1.46667 km/h
1322 29-06-2015 22:00:00 18.96 C 12.52 g/m*3 18.96 C 0.32 km/h
1323 29-06-2015 23:00:00 18.35833 C 12.37 g/m*3 18.36 C 0 km/h
1324 30-06-2015 00:00:00 17.05 C 11.89 g/m*3 17.05 C 0 km/h
1325 30-06-2015 01:00:00 16.175 C 11.64 g/m*3 16.18 C 0 km/h
Sensor: Nr:Datum:Temp:Abs-Feuchte:Windchill:Wind:
Aussen-T/F 1326 30-06-2015 02:00:00 16 C 11.73 g/m*3 16 C 0 km/h
1327 30-06-2015 03:00:00 15.075 C 11.29 g/m*3 15.08 C 0 km/h
1328 30-06-2015 04:00:00 14.28333 C 11.06 g/m*3 14.28 C 0 km/h
1329 30-06-2015 05:00:00 13.54167 C 10.75 g/m*3 13.54 C 0 km/h
1330 30-06-2015 06:00:00 13.425 C 10.83 g/m*3 13.43 C 0 km/h
1331 30-06-2015 07:00:00 14.15833 C 11.29 g/m*3 14.16 C 0.8 km/h
1332 30-06-2015 08:00:00 16.41667 C 12.28 g/m*3 16.42 C 0.13333 km/h
1333 30-06-2015 09:00:00 17.4 C 12.6 g/m*3 17.4 C 0 km/h
1334 30-06-2015 11:00:00 24.71111 C 13.41 g/m*3 24.71 C 4.26667 km/h
1335 30-06-2015 12:00:00 26.30833 C 12.57 g/m*3 26.31 C 6.43333 km/h
1336 30-06-2015 13:00:00 27.725 C 12.28 g/m*3 27.73 C 6.69167 km/h
1337 30-06-2015 14:00:00 29.14167 C 11.24 g/m*3 29.14 C 7.1 km/h
1338 30-06-2015 15:00:00 30 C 10.89 g/m*3 30 C 4.95 km/h
1339 30-06-2015 16:00:00 30.725 C 9.59 g/m*3 30.73 C 5.89167 km/h
1340 30-06-2015 17:00:00 31.26667 C 8.74 g/m*3 31.27 C 6.29167 km/h
1341 30-06-2015 18:00:00 31.49167 C 8.13 g/m*3 31.49 C 7.1 km/h
1342 30-06-2015 19:00:00 29.78333 C 10.02 g/m*3 29.78 C 5.20833 km/h
1343 30-06-2015 20:00:00 24.74167 C 12.08 g/m*3 24.74 C 1.06667 km/h
1344 30-06-2015 21:00:00 21.98333 C 11.6 g/m*3 21.98 C 1.6 km/h
1345 30-06-2015 22:00:00 20.575 C 11.59 g/m*3 20.58 C 0.8 km/h
1346 30-06-2015 23:00:00 19.35833 C 11.6 g/m*3 19.36 C 0 km/h
1347 01-07-2015 00:00:00 17.775 C 11.23 g/m*3 17.77 C 0 km/h
1348 01-07-2015 01:00:00 16.75 C 11.17 g/m*3 16.75 C 0 km/h
1349 01-07-2015 02:00:00 15.96667 C 11.08 g/m*3 15.97 C 0 km/h
1350 01-07-2015 03:00:00 15.10833 C 10.97 g/m*3 15.11 C 0 km/h
Sensor: Nr:Datum:Temp:Abs-Feuchte:Windchill:Wind:
Aussen-T/F 1351 01-07-2015 04:00:00 14.5 C 10.9 g/m*3 14.5 C 0 km/h
1352 01-07-2015 05:00:00 14.10833 C 10.94 g/m*3 14.11 C 0 km/h
1353 01-07-2015 06:00:00 13.975 C 11.03 g/m*3 13.98 C 0 km/h
1354 01-07-2015 07:00:00 14.60909 C 11.52 g/m*3 14.61 C 0 km/h
1355 01-07-2015 08:00:00 18.34 C 13.16 g/m*3 18.34 C 0 km/h
1356 01-07-2015 09:00:00 20.00833 C 13.54 g/m*3 20.01 C 0.66667 km/h
1357 01-07-2015 10:00:00 23.49167 C 14.85 g/m*3 23.49 C 3.6 km/h
1358 01-07-2015 11:00:00 28 C 14.96 g/m*3 28 C 6.7 km/h
1359 01-07-2015 12:00:00 30.5 C 14.69 g/m*3 30.5 C 7.53333 km/h
1360 01-07-2015 13:00:00 32.575 C 12.53 g/m*3 32.58 C 9.55833 km/h
1361 01-07-2015 14:00:00 33.44167 C 11.54 g/m*3 33.44 C 6.96667 km/h
1362 01-07-2015 15:00:00 34.03333 C 12.37 g/m*3 34.03 C 8.2 km/h
1363 01-07-2015 16:00:00 34.625 C 12.08 g/m*3 34.63 C 8.19167 km/h
1364 01-07-2015 17:00:00 34.98333 C 12.51 g/m*3 34.98 C 7.25833 km/h
1365 01-07-2015 18:00:00 34.1 C 13.23 g/m*3 34.1 C 5.35 km/h
1366 01-07-2015 19:00:00 30.23333 C 15.74 g/m*3 30.23 C 1.6 km/h
1367 01-07-2015 20:00:00 27.80833 C 15.94 g/m*3 27.81 C 1.46667 km/h
1368 01-07-2015 21:00:00 25.35833 C 15.48 g/m*3 25.36 C 0.93333 km/h
1369 01-07-2015 22:00:00 24 C 14.95 g/m*3 24 C 0.91429 km/h
1370 01-07-2015 23:00:00 23.07 C 14.4 g/m*3 23.07 C 0.64 km/h
1371 02-07-2015 00:00:00 22.25833 C 14.33 g/m*3 22.26 C 0.13333 km/h
1372 02-07-2015 01:00:00 21.13333 C 14.09 g/m*3 21.13 C 0.26667 km/h
1373 02-07-2015 02:00:00 20.075 C 13.86 g/m*3 20.08 C 0 km/h
1374 02-07-2015 03:00:00 19.1 C 13.76 g/m*3 19.1 C 0 km/h
1375 02-07-2015 04:00:00 18.4 C 13.61 g/m*3 18.4 C 0 km/h
Sensor: Nr:Datum:Temp:Abs-Feuchte:Windchill:Wind:
Aussen-T/F 1376 02-07-2015 05:00:00 17.875 C 13.52 g/m*3 17.88 C 0 km/h
1377 02-07-2015 06:00:00 17.85833 C 13.71 g/m*3 17.86 C 0 km/h
1378 02-07-2015 07:00:00 18.37778 C 14.26 g/m*3 18.38 C 0 km/h
1379 02-07-2015 08:00:00 21.2 C 15.58 g/m*3 21.2 C 0 km/h
1380 02-07-2015 09:00:00 22.93333 C 16.18 g/m*3 22.93 C 0.26667 km/h
1381 02-07-2015 10:00:00 25.49167 C 17.43 g/m*3 25.49 C 3.33333 km/h
1382 02-07-2015 11:00:00 29.83333 C 17.48 g/m*3 29.83 C 4.8 km/h
1383 02-07-2015 12:00:00 32.54167 C 17 g/m*3 32.54 C 6.7 km/h
1384 02-07-2015 13:00:00 34.59167 C 16.64 g/m*3 34.59 C 7.65 km/h
1385 02-07-2015 14:00:00 35.8 C 16.35 g/m*3 35.8 C 6.28333 km/h
1386 02-07-2015 15:00:00 36.46667 C 16.31 g/m*3 36.47 C 7.93333 km/h
1387 02-07-2015 16:00:00 36.875 C 15.75 g/m*3 36.88 C 8.20833 km/h
1388 02-07-2015 17:00:00 37.34167 C 15.17 g/m*3 37.34 C 7.39167 km/h
1389 02-07-2015 18:00:00 36.20833 C 16.31 g/m*3 36.21 C 6.16667 km/h
1390 02-07-2015 19:00:00 31.16667 C 18.24 g/m*3 31.17 C 1.46667 km/h
1391 02-07-2015 20:00:00 28.45833 C 17.54 g/m*3 28.46 C 1.06667 km/h
1392 02-07-2015 21:00:00 26.81667 C 16.56 g/m*3 26.82 C 1.46667 km/h
1393 02-07-2015 22:00:00 25.775 C 16.05 g/m*3 25.78 C 1.46667 km/h
1394 02-07-2015 23:00:00 25.34167 C 16.11 g/m*3 25.34 C 0.4 km/h
1395 03-07-2015 00:00:00 24.78333 C 16.24 g/m*3 24.78 C 0.53333 km/h
1396 03-07-2015 01:00:00 24.94167 C 16.75 g/m*3 24.94 C 4.15 km/h
1397 03-07-2015 02:00:00 24.76667 C 17.12 g/m*3 24.77 C 6.3 km/h
1398 03-07-2015 03:00:00 23.45 C 16.64 g/m*3 23.45 C 2.8 km/h
1399 03-07-2015 04:00:00 22.45 C 16.23 g/m*3 22.45 C 4.425 km/h
1400 03-07-2015 07:00:00 21.65833 C 15.48 g/m*3 21.66 C 7.51667 km/h
Sensor: Nr:Datum:Temp:Abs-Feuchte:Windchill:Wind:
Aussen-T/F 1401 03-07-2015 08:00:00 22.62727 C 15.86 g/m*3 22.63 C 7.90909 km/h
1402 03-07-2015 09:00:00 24.14 C 16.67 g/m*3 24.14 C 6.92 km/h
1403 03-07-2015 10:00:00 25.71667 C 17.21 g/m*3 25.72 C 4.40833 km/h
1404 03-07-2015 11:00:00 27.30833 C 17.93 g/m*3 27.31 C 2.13333 km/h
1405 03-07-2015 12:00:00 29.03333 C 18.38 g/m*3 29.03 C 4.81111 km/h
1406 03-07-2015 13:00:00 31.04167 C 18.63 g/m*3 31.04 C 5.60833 km/h
1407 03-07-2015 14:00:00 32.825 C 19.34 g/m*3 32.83 C 5.075 km/h
1408 03-07-2015 15:00:00 34.23333 C 18.45 g/m*3 34.23 C 5.46667 km/h
1409 03-07-2015 16:00:00 35.28333 C 17.52 g/m*3 35.28 C 5.34167 km/h
1410 03-07-2015 17:00:00 35.55 C 16.71 g/m*3 35.55 C 5.75 km/h
1411 03-07-2015 18:00:00 35.79167 C 16.44 g/m*3 35.79 C 6.01667 km/h
1412 03-07-2015 19:00:00 33.40833 C 18.49 g/m*3 33.41 C 3.34167 km/h
1413 03-07-2015 20:00:00 29.49167 C 19.22 g/m*3 29.49 C 0.8 km/h
1414 03-07-2015 21:00:00 26.98333 C 18.79 g/m*3 26.98 C 0 km/h
1415 03-07-2015 22:00:00 25.95833 C 18.84 g/m*3 25.96 C 0 km/h
1416 03-07-2015 23:00:00 25.04167 C 18.34 g/m*3 25.04 C 0 km/h
1417 04-07-2015 00:00:00 23.925 C 17.73 g/m*3 23.93 C 0 km/h
1418 04-07-2015 01:00:00 22.85833 C 17.28 g/m*3 22.86 C 0 km/h
1419 04-07-2015 02:00:00 22.05833 C 17.1 g/m*3 22.06 C 0 km/h
1420 04-07-2015 03:00:00 21.51667 C 16.94 g/m*3 21.52 C 0 km/h
1421 04-07-2015 04:00:00 20.775 C 16.47 g/m*3 20.78 C 0 km/h
1422 04-07-2015 05:00:00 20.375 C 16.3 g/m*3 20.38 C 0 km/h
1423 04-07-2015 06:00:00 20.74167 C 16.77 g/m*3 20.74 C 0.13333 km/h
1424 04-07-2015 07:00:00 21.775 C 17.43 g/m*3 21.78 C 0.8 km/h
1425 04-07-2015 08:00:00 23.70833 C 18.4 g/m*3 23.71 C 0.13333 km/h
Sensor: Nr:Datum:Temp:Abs-Feuchte:Windchill:Wind:
Aussen-T/F 1426 04-07-2015 09:00:00 25.13333 C 19.08 g/m*3 25.13 C 0.13333 km/h
1427 04-07-2015 10:00:00 27.275 C 20.01 g/m*3 27.28 C 1.2 km/h
1428 04-07-2015 11:00:00 31.18333 C 18.69 g/m*3 31.18 C 5.5 km/h
1429 04-07-2015 12:00:00 33.80833 C 17.21 g/m*3 33.81 C 7.51667 km/h
1430 04-07-2015 13:00:00 34.89167 C 17.3 g/m*3 34.89 C 4.81667 km/h
1431 04-07-2015 14:00:00 36.74167 C 16.15 g/m*3 36.74 C 7.25 km/h
1432 04-07-2015 15:00:00 37.7 C 16.09 g/m*3 37.7 C 7.40833 km/h
1433 04-07-2015 16:00:00 38.34167 C 15.84 g/m*3 38.34 C 9.01667 km/h
1434 04-07-2015 17:00:00 37.89167 C 14.83 g/m*3 37.89 C 11.025 km/h
1435 04-07-2015 18:00:00 33.2 C 15.44 g/m*3 33.2 C 6.05 km/h
1436 04-07-2015 19:00:00 30.025 C 17.16 g/m*3 30.03 C 0.8 km/h
1437 04-07-2015 20:00:00 28.46667 C 17.76 g/m*3 28.47 C 0.93333 km/h
1438 04-07-2015 21:00:00 26.30833 C 17.32 g/m*3 26.31 C 1.33333 km/h
1439 04-07-2015 22:00:00 24.29167 C 16.77 g/m*3 24.29 C 0 km/h
1440 04-07-2015 23:00:00 23.71667 C 16.2 g/m*3 23.72 C 0 km/h
1441 05-07-2015 00:00:00 23.3 C 16.95 g/m*3 23.3 C 0.53333 km/h
1442 05-07-2015 01:00:00 23.04167 C 16.98 g/m*3 23.04 C 1.875 km/h
1443 05-07-2015 02:00:00 24.20833 C 15.8 g/m*3 24.21 C 3.08333 km/h
1444 05-07-2015 03:00:00 24.13333 C 14.94 g/m*3 24.13 C 5.09167 km/h
1445 05-07-2015 04:00:00 22.63333 C 14.54 g/m*3 22.63 C 2.275 km/h
1446 05-07-2015 05:00:00 21.49167 C 14.17 g/m*3 21.49 C 1.33333 km/h
1447 05-07-2015 06:00:00 21.25833 C 14.18 g/m*3 21.26 C 2.13333 km/h
1448 05-07-2015 07:00:00 21.33333 C 14.38 g/m*3 21.33 C 1.33333 km/h
1449 05-07-2015 08:00:00 22.80833 C 14.94 g/m*3 22.81 C 0.53333 km/h
1450 05-07-2015 09:00:00 24.60833 C 15.27 g/m*3 24.61 C 3.06667 km/h
Sensor: Nr:Datum:Temp:Abs-Feuchte:Windchill:Wind:
Aussen-T/F 1451 05-07-2015 10:00:00 27 C 16.43 g/m*3 27 C 3.60833 km/h
1452 05-07-2015 11:00:00 29.19167 C 17.63 g/m*3 29.19 C 4.13333 km/h
1453 05-07-2015 12:00:00 31.85833 C 18.29 g/m*3 31.86 C 3.6 km/h
1454 05-07-2015 13:00:00 34.45833 C 18.67 g/m*3 34.46 C 5.75 km/h
1455 05-07-2015 14:00:00 36.95 C 15.89 g/m*3 36.95 C 8.86667 km/h
1456 05-07-2015 15:00:00 37.48333 C 14.83 g/m*3 37.48 C 15.43333 km/h
1457 05-07-2015 16:00:00 38.04167 C 14.37 g/m*3 38.04 C 13.56667 km/h
1458 05-07-2015 17:00:00 38.11667 C 13.38 g/m*3 38.12 C 14.63333 km/h
1459 05-07-2015 18:00:00 34.73333 C 14.46 g/m*3 34.73 C 21.325 km/h
1460 05-07-2015 19:00:00 25.9 C 15.25 g/m*3 25.9 C 20.79167 km/h
1461 05-07-2015 20:00:00 22.975 C 14.25 g/m*3 22.98 C 11.56667 km/h
1462 05-07-2015 21:00:00 20.25 C 15.24 g/m*3 20.25 C 3.88333 km/h
1463 05-07-2015 22:00:00 18.475 C 14.68 g/m*3 18.48 C 2.54167 km/h
1464 05-07-2015 23:00:00 17.85 C 14.3 g/m*3 17.85 C 1.20833 km/h
1465 06-07-2015 00:00:00 17.5 C 14.01 g/m*3 17.5 C 0 km/h
1466 06-07-2015 07:00:00 14.62857 C 11.89 g/m*3 14.63 C 0.68571 km/h
1467 06-07-2015 08:00:00 16.33 C 12.16 g/m*3 16.33 C 1.76 km/h
1468 06-07-2015 09:00:00 17.94286 C 11.39 g/m*3 17.94 C 6.67143 km/h
1469 06-07-2015 10:00:00 20.09167 C 11.45 g/m*3 20.09 C 5.63333 km/h
1470 06-07-2015 11:00:00 22.05833 C 11.47 g/m*3 22.06 C 6.7 km/h
1471 06-07-2015 12:00:00 23.55833 C 10.89 g/m*3 23.56 C 9.40833 km/h
1472 06-07-2015 13:00:00 25.11667 C 10.95 g/m*3 25.12 C 7.65833 km/h
1473 06-07-2015 14:00:00 26.575 C 10.54 g/m*3 26.58 C 8.475 km/h
1474 06-07-2015 15:00:00 27.75833 C 10.29 g/m*3 27.76 C 9.69167 km/h
1475 06-07-2015 16:00:00 28.53333 C 10.15 g/m*3 28.53 C 7.51667 km/h
Sensor: Nr:Datum:Temp:Abs-Feuchte:Windchill:Wind:
Aussen-T/F 1476 06-07-2015 17:00:00 29.1 C 9.99 g/m*3 29.1 C 7.8 km/h
1477 06-07-2015 18:00:00 29.49167 C 9.93 g/m*3 29.49 C 8.2 km/h
1478 06-07-2015 19:00:00 29.03333 C 10.1 g/m*3 29.03 C 4.95833 km/h
1479 06-07-2015 20:00:00 24.98333 C 12.5 g/m*3 24.98 C 1.2 km/h
1480 06-07-2015 21:00:00 21.73333 C 12.07 g/m*3 21.73 C 1.6 km/h
1481 06-07-2015 22:00:00 19.75556 C 12.15 g/m*3 19.76 C 0.88889 km/h
1482 06-07-2015 23:00:00 19 C 11.98 g/m*3 19 C 0 km/h
1483 07-07-2015 00:00:00 17.03333 C 12.21 g/m*3 17.03 C 0 km/h
1484 07-07-2015 01:00:00 16.275 C 11.22 g/m*3 16.27 C 0 km/h
1485 07-07-2015 02:00:00 15.575 C 11.02 g/m*3 15.58 C 0 km/h
1486 07-07-2015 03:00:00 15.4 C 10.9 g/m*3 15.4 C 0 km/h
1487 07-07-2015 05:00:00 13.7 C 10.97 g/m*3 13.7 C 0 km/h
1488 07-07-2015 06:00:00 13.73333 C 10.74 g/m*3 13.73 C 0 km/h
1489 07-07-2015 07:00:00 14.20833 C 11.08 g/m*3 14.21 C 0 km/h
1490 07-07-2015 08:00:00 16.77 C 12.2 g/m*3 16.77 C 0 km/h
1491 07-07-2015 09:00:00 19.04545 C 12.92 g/m*3 19.05 C 0 km/h
1492 07-07-2015 10:00:00 21.51667 C 14.12 g/m*3 21.52 C 0.26667 km/h
1493 07-07-2015 11:00:00 26.09167 C 14.93 g/m*3 26.09 C 3.075 km/h
1494 07-07-2015 12:00:00 30.53333 C 14.02 g/m*3 30.53 C 4.94167 km/h
1495 07-07-2015 13:00:00 32.94167 C 13.19 g/m*3 32.94 C 7.25 km/h
1496 07-07-2015 14:00:00 34.55833 C 13.42 g/m*3 34.56 C 9.55833 km/h
1497 07-07-2015 15:00:00 33.99167 C 14.6 g/m*3 33.99 C 9.53333 km/h
1498 07-07-2015 16:00:00 31.83333 C 13.89 g/m*3 31.83 C 14.21667 km/h
1499 07-07-2015 17:00:00 28.76667 C 14.75 g/m*3 28.77 C 12.60833 km/h
1500 07-07-2015 18:00:00 26.85833 C 12.62 g/m*3 26.86 C 11.41667 km/h
Sensor: Nr:Datum:Temp:Abs-Feuchte:Windchill:Wind:
Aussen-T/F 1501 07-07-2015 19:00:00 24.575 C 12.23 g/m*3 24.58 C 12.35833 km/h
1502 07-07-2015 20:00:00 23.48333 C 12.47 g/m*3 23.48 C 5.225 km/h
1503 07-07-2015 21:00:00 22.83333 C 12.54 g/m*3 22.83 C 3.475 km/h
1504 07-07-2015 22:00:00 21.18333 C 13.08 g/m*3 21.18 C 0.66667 km/h
1505 07-07-2015 23:00:00 20.81667 C 13.28 g/m*3 20.82 C 0.13333 km/h
1506 08-07-2015 00:00:00 21.05833 C 13.22 g/m*3 21.06 C 2.8 km/h
1507 08-07-2015 01:00:00 19.56667 C 13.58 g/m*3 19.57 C 8.99167 km/h
1508 08-07-2015 02:00:00 16.05 C 12.01 g/m*3 16.05 C 4.81667 km/h
1509 08-07-2015 03:00:00 14.56667 C 11.55 g/m*3 14.57 C 1.46667 km/h
1510 08-07-2015 04:00:00 13.84167 C 11.25 g/m*3 13.84 C 1.46667 km/h
1511 08-07-2015 05:00:00 13.61667 C 10.74 g/m*3 13.62 C 6.31667 km/h
1512 08-07-2015 06:00:00 13.84167 C 10.17 g/m*3 13.84 C 7.525 km/h
1513 08-07-2015 07:00:00 14.03333 C 9.78 g/m*3 14.03 C 10.35 km/h
1514 08-07-2015 08:00:00 15.275 C 9.94 g/m*3 15.28 C 10.625 km/h
1515 08-07-2015 09:00:00 16.275 C 9.8 g/m*3 16.27 C 12.625 km/h
1516 08-07-2015 10:00:00 17.03333 C 9.86 g/m*3 17.03 C 12.625 km/h
1517 08-07-2015 11:00:00 17.825 C 10.03 g/m*3 17.83 C 15.03333 km/h
1518 08-07-2015 12:00:00 18.075 C 10.58 g/m*3 18.08 C 12.09167 km/h
1519 08-07-2015 13:00:00 19.55833 C 9.77 g/m*3 19.56 C 15.16667 km/h
1520 08-07-2015 14:00:00 19.99167 C 9.7 g/m*3 19.99 C 16.75833 km/h
1521 08-07-2015 15:00:00 20.56667 C 9.79 g/m*3 20.57 C 20.64167 km/h
1522 08-07-2015 16:00:00 20.16667 C 10.05 g/m*3 20.17 C 20.24167 km/h
1523 08-07-2015 17:00:00 21.21667 C 10.26 g/m*3 21.22 C 19.96667 km/h
1524 08-07-2015 18:00:00 20.61667 C 10.2 g/m*3 20.62 C 19.16667 km/h
1525 08-07-2015 19:00:00 19.48333 C 10.23 g/m*3 19.48 C 17.7 km/h
Sensor: Nr:Datum:Temp:Abs-Feuchte:Windchill:Wind:
Aussen-T/F 1526 08-07-2015 20:00:00 18.575 C 10.65 g/m*3 18.58 C 15.7 km/h
1527 08-07-2015 21:00:00 17.85 C 10.58 g/m*3 17.85 C 12.89167 km/h
1528 08-07-2015 22:00:00 17.20833 C 10.87 g/m*3 17.21 C 11.55 km/h
1529 08-07-2015 23:00:00 16.7 C 10.84 g/m*3 16.7 C 12.225 km/h
1530 09-07-2015 00:00:00 16.225 C 10.91 g/m*3 16.23 C 6.98333 km/h
1531 09-07-2015 01:00:00 15.96667 C 10.81 g/m*3 15.97 C 5.89167 km/h
1532 09-07-2015 02:00:00 16.26667 C 10.65 g/m*3 16.27 C 6.7 km/h
1533 09-07-2015 03:00:00 16.13333 C 10.76 g/m*3 16.13 C 7.51667 km/h
1534 09-07-2015 04:00:00 14.95 C 11.23 g/m*3 14.95 C 6.3 km/h
1535 09-07-2015 05:00:00 14.10833 C 10.79 g/m*3 14.11 C 9.25833 km/h
1536 09-07-2015 06:00:00 13.79167 C 9.93 g/m*3 13.79 C 8.56667 km/h
1537 09-07-2015 07:00:00 13.78333 C 9.48 g/m*3 13.78 C 11.95833 km/h
1538 09-07-2015 08:00:00 14.45 C 9.27 g/m*3 14.45 C 12.63333 km/h
1539 09-07-2015 09:00:00 15.00833 C 8.93 g/m*3 15.01 C 13.29167 km/h
1540 09-07-2015 10:00:00 16.8 C 8.83 g/m*3 16.8 C 10.89167 km/h
1541 09-07-2015 11:00:00 17.25 C 8.94 g/m*3 17.25 C 10.49167 km/h
1542 09-07-2015 12:00:00 17.66667 C 9.5 g/m*3 17.67 C 8.33333 km/h
1543 09-07-2015 13:00:00 18.69167 C 9.52 g/m*3 18.69 C 12.49167 km/h
1544 09-07-2015 14:00:00 16.74167 C 9.77 g/m*3 16.74 C 12.36667 km/h
1545 09-07-2015 15:00:00 15.925 C 9.55 g/m*3 15.93 C 10.75833 km/h
1546 09-07-2015 16:00:00 18.91667 C 9.59 g/m*3 18.92 C 13.43333 km/h
1547 09-07-2015 17:00:00 19.20833 C 9.29 g/m*3 19.21 C 12.36667 km/h
1548 09-07-2015 18:00:00 20.375 C 8.98 g/m*3 20.38 C 13.96667 km/h
1549 09-07-2015 19:00:00 19.89167 C 8.36 g/m*3 19.89 C 11.69167 km/h
1550 09-07-2015 20:00:00 18.46667 C 7.88 g/m*3 18.47 C 10.08333 km/h
Sensor: Nr:Datum:Temp:Abs-Feuchte:Windchill:Wind:
Aussen-T/F 1551 09-07-2015 21:00:00 16.7375 C 7.74 g/m*3 16.74 C 5.0125 km/h
1552 09-07-2015 22:00:00 15.40833 C 8.13 g/m*3 15.41 C 3.88333 km/h
1553 09-07-2015 23:00:00 13.475 C 8.38 g/m*3 13.48 C 1.06667 km/h
1554 10-07-2015 00:00:00 12.45 C 8.36 g/m*3 12.45 C 0.4 km/h
1555 10-07-2015 01:00:00 11.63333 C 8.25 g/m*3 11.63 C 1.46667 km/h
1556 10-07-2015 02:00:00 11.11667 C 8.11 g/m*3 11.12 C 0.26667 km/h
1557 10-07-2015 03:00:00 9.64167 C 7.85 g/m*3 9.64 C 0 km/h
1558 10-07-2015 04:00:00 8.775 C 7.71 g/m*3 8.78 C 0 km/h
1559 10-07-2015 05:00:00 8.34167 C 7.66 g/m*3 8.34 C 0.4 km/h
1560 10-07-2015 06:00:00 8.075 C 7.62 g/m*3 8.07 C 0.13333 km/h
1561 10-07-2015 07:00:00 8.50833 C 7.86 g/m*3 8.51 C 0.13333 km/h
1562 10-07-2015 08:00:00 10.85 C 8.63 g/m*3 10.85 C 1.2 km/h
1563 10-07-2015 09:00:00 12.98333 C 8.83 g/m*3 12.98 C 0.66667 km/h
1564 10-07-2015 10:00:00 16.35 C 8.56 g/m*3 16.35 C 4.8 km/h
1565 10-07-2015 11:00:00 18.625 C 7.23 g/m*3 18.63 C 5.21667 km/h
1566 10-07-2015 12:00:00 20.65833 C 6.94 g/m*3 20.66 C 5.61667 km/h
1567 10-07-2015 13:00:00 22.025 C 6.06 g/m*3 22.03 C 6.96667 km/h
1568 10-07-2015 14:00:00 23.175 C 5.86 g/m*3 23.18 C 8.05 km/h
1569 10-07-2015 15:00:00 24.40833 C 5.97 g/m*3 24.41 C 8.2 km/h
1570 10-07-2015 16:00:00 25.68333 C 5.44 g/m*3 25.68 C 6.83333 km/h
1571 10-07-2015 17:00:00 26.58333 C 5.47 g/m*3 26.58 C 7.525 km/h
1572 10-07-2015 18:00:00 26.86667 C 5.98 g/m*3 26.87 C 6.55 km/h
1573 10-07-2015 19:00:00 26.26667 C 6.49 g/m*3 26.27 C 6.025 km/h
1574 10-07-2015 20:00:00 23.58333 C 7.68 g/m*3 23.58 C 2.53333 km/h
1575 10-07-2015 21:00:00 19.21667 C 8.73 g/m*3 19.22 C 0.66667 km/h
Sensor: Nr:Datum:Temp:Abs-Feuchte:Windchill:Wind:
Aussen-T/F 1576 10-07-2015 22:00:00 17 C 8.37 g/m*3 17 C 0.4 km/h
1577 10-07-2015 23:00:00 15.51111 C 8.2 g/m*3 15.51 C 0 km/h
1578 11-07-2015 00:00:00 14.325 C 8.01 g/m*3 14.33 C 0 km/h
1579 11-07-2015 01:00:00 13.225 C 8.08 g/m*3 13.23 C 0 km/h
1580 11-07-2015 02:00:00 12.33333 C 8.19 g/m*3 12.33 C 0 km/h
1581 11-07-2015 03:00:00 11.63333 C 8.14 g/m*3 11.63 C 0 km/h
1582 11-07-2015 04:00:00 11.21667 C 8.08 g/m*3 11.22 C 0 km/h
1583 11-07-2015 05:00:00 11.225 C 8.28 g/m*3 11.23 C 0 km/h
1584 11-07-2015 06:00:00 11.55833 C 8.6 g/m*3 11.56 C 0.13333 km/h
1585 11-07-2015 07:00:00 12.18333 C 9.03 g/m*3 12.18 C 0.13333 km/h
1586 11-07-2015 08:00:00 14.66667 C 9.83 g/m*3 14.67 C 0 km/h
1587 11-07-2015 09:00:00 17.25833 C 10.38 g/m*3 17.26 C 0.4 km/h
1588 11-07-2015 10:00:00 19.525 C 10.64 g/m*3 19.52 C 1.73333 km/h
1589 11-07-2015 11:00:00 23.03333 C 10.88 g/m*3 23.03 C 2.93333 km/h
1590 11-07-2015 12:00:00 26.43333 C 10.02 g/m*3 26.43 C 4.54167 km/h
1591 11-07-2015 13:00:00 29.10833 C 9.41 g/m*3 29.11 C 7.53333 km/h
1592 11-07-2015 14:00:00 30.375 C 9.39 g/m*3 30.38 C 10.63333 km/h
1593 11-07-2015 15:00:00 31.26667 C 9.52 g/m*3 31.27 C 10.225 km/h
1594 11-07-2015 16:00:00 31.75833 C 9.53 g/m*3 31.76 C 10.5 km/h
1595 11-07-2015 17:00:00 31.53333 C 9.11 g/m*3 31.53 C 10.63333 km/h
1596 11-07-2015 18:00:00 31.14167 C 8.65 g/m*3 31.14 C 12.225 km/h
1597 11-07-2015 19:00:00 29.98333 C 8.61 g/m*3 29.98 C 8.75 km/h
1598 11-07-2015 20:00:00 27.8 C 9.73 g/m*3 27.8 C 3.75 km/h
1599 11-07-2015 21:00:00 23.44167 C 10.78 g/m*3 23.44 C 0.93333 km/h
1600 11-07-2015 22:00:00 22.225 C 10.42 g/m*3 22.23 C 2.26667 km/h
Sensor: Nr:Datum:Temp:Abs-Feuchte:Windchill:Wind:
Aussen-T/F 1601 11-07-2015 23:00:00 22.54167 C 10.49 g/m*3 22.54 C 5.63333 km/h
1602 12-07-2015 00:00:00 21.95 C 10.79 g/m*3 21.95 C 1.2 km/h
1603 12-07-2015 02:00:00 18.1875 C 10.72 g/m*3 18.19 C 0.8 km/h
1604 12-07-2015 03:00:00 16.88333 C 10.67 g/m*3 16.88 C 0.93333 km/h
1605 12-07-2015 04:00:00 15.41667 C 10.41 g/m*3 15.42 C 0.13333 km/h
1606 12-07-2015 05:00:00 14.74167 C 10.4 g/m*3 14.74 C 0.93333 km/h
1607 12-07-2015 06:00:00 14.48333 C 10.44 g/m*3 14.48 C 0.66667 km/h
1608 12-07-2015 07:00:00 14.975 C 10.87 g/m*3 14.98 C 1.46667 km/h
1609 12-07-2015 08:00:00 17.34167 C 11.54 g/m*3 17.34 C 4.575 km/h
1610 12-07-2015 09:00:00 19.50833 C 11.19 g/m*3 19.51 C 9.14167 km/h
1611 12-07-2015 10:00:00 21.425 C 9.78 g/m*3 21.43 C 9.95 km/h
1612 12-07-2015 11:00:00 23.55 C 9.46 g/m*3 23.55 C 8.73333 km/h
1613 12-07-2015 12:00:00 24 C 10.3 g/m*3 24 C 5.75 km/h
1614 12-07-2015 13:00:00 24.90833 C 10.76 g/m*3 24.91 C 6.575 km/h
1615 12-07-2015 14:00:00 24.425 C 11.44 g/m*3 24.43 C 7.8 km/h
1616 12-07-2015 15:00:00 22.73333 C 12.16 g/m*3 22.73 C 13.7 km/h
1617 12-07-2015 16:00:00 20.1 C 12.62 g/m*3 20.1 C 11.29167 km/h
1618 12-07-2015 17:00:00 19.21667 C 12.96 g/m*3 19.22 C 4.66667 km/h
1619 12-07-2015 18:00:00 18.375 C 13.62 g/m*3 18.38 C 0.93333 km/h
1620 12-07-2015 19:00:00 17.8 C 13.19 g/m*3 17.8 C 2.13333 km/h
1621 12-07-2015 20:00:00 16.34167 C 12.24 g/m*3 16.34 C 2.13333 km/h
1622 12-07-2015 21:00:00 15.25 C 12.56 g/m*3 15.25 C 0 km/h
1623 12-07-2015 22:00:00 15.275 C 12.13 g/m*3 15.28 C 0.26667 km/h
1624 13-07-2015 05:00:00 14.7 C 11.46 g/m*3 14.7 C 0 km/h
1625 13-07-2015 06:00:00 14.89167 C 11.86 g/m*3 14.89 C 1.33333 km/h
Sensor: Nr:Datum:Temp:Abs-Feuchte:Windchill:Wind:
Aussen-T/F 1626 13-07-2015 07:00:00 15.58333 C 11.8 g/m*3 15.58 C 4.15833 km/h
1627 13-07-2015 08:00:00 16.83333 C 12.05 g/m*3 16.83 C 6.44167 km/h
1628 13-07-2015 09:00:00 16.34167 C 12.14 g/m*3 16.34 C 4.29167 km/h
1629 13-07-2015 10:00:00 17.28333 C 12.53 g/m*3 17.28 C 8.59167 km/h
1630 13-07-2015 11:00:00 18.05833 C 12.45 g/m*3 18.06 C 10.225 km/h
1631 13-07-2015 12:00:00 19.08333 C 12.86 g/m*3 19.08 C 10.88333 km/h
1632 13-07-2015 13:00:00 18.64167 C 13.2 g/m*3 18.64 C 11.69167 km/h
1633 13-07-2015 14:00:00 18.625 C 13.69 g/m*3 18.63 C 12.36667 km/h
1634 13-07-2015 15:00:00 18.95833 C 13.56 g/m*3 18.96 C 9.25833 km/h
1635 13-07-2015 16:00:00 19.21667 C 13.66 g/m*3 19.22 C 4.68333 km/h
1636 13-07-2015 17:00:00 19.8 C 13.72 g/m*3 19.8 C 4.15 km/h
1637 13-07-2015 18:00:00 20.37 C 13.39 g/m*3 20.37 C 9.03 km/h
1638 13-07-2015 20:00:00 18.63333 C 14.67 g/m*3 18.63 C 1.6 km/h
1639 13-07-2015 21:00:00 18.18 C 13.97 g/m*3 18.18 C 2.56 km/h
1640 13-07-2015 22:00:00 18.15833 C 13.95 g/m*3 18.16 C 2 km/h
1641 13-07-2015 23:00:00 17.89167 C 13.89 g/m*3 17.89 C 1.875 km/h
1642 14-07-2015 00:00:00 18.1 C 14.06 g/m*3 18.1 C 0 km/h
1643 14-07-2015 02:00:00 18.45 C 13.76 g/m*3 18.45 C 4.4 km/h
1644 14-07-2015 03:00:00 18.56667 C 13.55 g/m*3 18.57 C 4.03333 km/h
1645 14-07-2015 04:00:00 18.65833 C 13.26 g/m*3 18.66 C 6.44167 km/h
1646 14-07-2015 05:00:00 18.7 C 13.16 g/m*3 18.7 C 8.58889 km/h
1647 14-07-2015 06:00:00 18.88182 C 13.23 g/m*3 18.88 C 8.33636 km/h
1648 14-07-2015 07:00:00 19.16667 C 13.41 g/m*3 19.17 C 10.35833 km/h
1649 14-07-2015 08:00:00 19.49167 C 13.59 g/m*3 19.49 C 7.93333 km/h
1650 14-07-2015 09:00:00 20.125 C 13.93 g/m*3 20.13 C 7.65 km/h
Sensor: Nr:Datum:Temp:Abs-Feuchte:Windchill:Wind:
Aussen-T/F 1651 14-07-2015 10:00:00 20.325 C 13.96 g/m*3 20.33 C 7.91667 km/h
1652 14-07-2015 11:00:00 21.28333 C 14.29 g/m*3 21.28 C 8.875 km/h
1653 14-07-2015 12:00:00 22.225 C 14.11 g/m*3 22.23 C 10.75 km/h
1654 14-07-2015 13:00:00 22.95 C 14.04 g/m*3 22.95 C 12.225 km/h
1655 14-07-2015 14:00:00 23.98333 C 13.49 g/m*3 23.98 C 13.56667 km/h
1656 14-07-2015 15:00:00 24.03333 C 13.17 g/m*3 24.03 C 13.03333 km/h
1657 14-07-2015 16:00:00 24.05833 C 13.33 g/m*3 24.06 C 12.09167 km/h
1658 14-07-2015 17:00:00 23.3 C 13.38 g/m*3 23.3 C 9.81667 km/h
1659 14-07-2015 18:00:00 22.38571 C 14.46 g/m*3 22.39 C 7.15714 km/h
1660 14-07-2015 20:00:00 21.3 C 13.52 g/m*3 21.3 C 6.78889 km/h
1661 14-07-2015 21:00:00 21.025 C 13.48 g/m*3 21.03 C 4.675 km/h
1662 14-07-2015 22:00:00 20.575 C 13.57 g/m*3 20.58 C 2.675 km/h
1663 14-07-2015 23:00:00 19.96667 C 13.58 g/m*3 19.97 C 1.46667 km/h
1664 15-07-2015 00:00:00 19.29167 C 13.5 g/m*3 19.29 C 0.66667 km/h
1665 15-07-2015 01:00:00 18.725 C 13.44 g/m*3 18.73 C 0 km/h
1666 15-07-2015 02:00:00 18.55833 C 13.31 g/m*3 18.56 C 0 km/h
1667 15-07-2015 03:00:00 18.19167 C 13.24 g/m*3 18.19 C 0.13333 km/h
1668 15-07-2015 04:00:00 18.13333 C 13.15 g/m*3 18.13 C 1.33333 km/h
1669 15-07-2015 05:00:00 17.63333 C 13.01 g/m*3 17.63 C 1.33333 km/h
1670 15-07-2015 06:00:00 17.41667 C 13.04 g/m*3 17.42 C 0.13333 km/h
1671 15-07-2015 07:00:00 17.97778 C 13.11 g/m*3 17.98 C 1.6 km/h
1672 15-07-2015 08:00:00 18.98333 C 13.35 g/m*3 18.98 C 2.13333 km/h
1673 15-07-2015 09:00:00 19.95833 C 13.38 g/m*3 19.96 C 2.8 km/h
1674 15-07-2015 10:00:00 21.41667 C 13.68 g/m*3 21.42 C 3.86667 km/h
1675 15-07-2015 11:00:00 23 C 13.55 g/m*3 23 C 3.6 km/h
Sensor: Nr:Datum:Temp:Abs-Feuchte:Windchill:Wind:
Aussen-T/F 1676 15-07-2015 12:00:00 25.175 C 13.64 g/m*3 25.18 C 11.03333 km/h
1677 15-07-2015 13:00:00 27.04167 C 13.2 g/m*3 27.04 C 11.15833 km/h
1678 15-07-2015 14:00:00 27.81667 C 12.83 g/m*3 27.82 C 9.94167 km/h
1679 15-07-2015 15:00:00 28.85833 C 13.25 g/m*3 28.86 C 9.26667 km/h
1680 15-07-2015 16:00:00 28.01667 C 13.61 g/m*3 28.02 C 6.975 km/h
1681 15-07-2015 17:00:00 24.95 C 16.34 g/m*3 24.95 C 3.89167 km/h
1682 15-07-2015 18:00:00 22.25 C 17.36 g/m*3 22.25 C 1.2 km/h
1683 15-07-2015 19:00:00 22.03333 C 16.63 g/m*3 22.03 C 1.46667 km/h
1684 15-07-2015 20:00:00 21.71667 C 15.86 g/m*3 21.72 C 0.8 km/h
1685 15-07-2015 21:00:00 21.79167 C 15.68 g/m*3 21.79 C 2.81667 km/h
1686 15-07-2015 22:00:00 19.68333 C 15.13 g/m*3 19.68 C 0.13333 km/h
1687 15-07-2015 23:00:00 18.725 C 14.62 g/m*3 18.73 C 0 km/h
1688 16-07-2015 00:00:00 18.175 C 14.37 g/m*3 18.18 C 0 km/h
1689 16-07-2015 01:00:00 17.8 C 14.22 g/m*3 17.8 C 0 km/h
1690 16-07-2015 02:00:00 17.28333 C 13.88 g/m*3 17.28 C 0 km/h
1691 16-07-2015 03:00:00 17.04167 C 13.78 g/m*3 17.04 C 0 km/h
1692 16-07-2015 04:00:00 16.775 C 13.61 g/m*3 16.77 C 0 km/h
1693 16-07-2015 05:00:00 16.76667 C 13.65 g/m*3 16.77 C 0 km/h
1694 16-07-2015 06:00:00 17.06667 C 13.95 g/m*3 17.07 C 0.13333 km/h
1695 16-07-2015 07:00:00 17.38333 C 14.15 g/m*3 17.38 C 0.13333 km/h
1696 16-07-2015 08:00:00 19.05833 C 15.15 g/m*3 19.06 C 0.4 km/h
1697 16-07-2015 09:00:00 21.3 C 15.75 g/m*3 21.3 C 1.73333 km/h
1698 16-07-2015 10:00:00 23.23333 C 16 g/m*3 23.23 C 3.73333 km/h
1699 16-07-2015 11:00:00 25.55 C 16.06 g/m*3 25.55 C 4.4 km/h
1700 16-07-2015 12:00:00 27.61667 C 15.8 g/m*3 27.62 C 6.16667 km/h
Sensor: Nr:Datum:Temp:Abs-Feuchte:Windchill:Wind:
Aussen-T/F 1701 16-07-2015 13:00:00 29.3 C 15.43 g/m*3 29.3 C 5.49167 km/h
1702 16-07-2015 14:00:00 30.45 C 15.09 g/m*3 30.45 C 6.15833 km/h
1703 16-07-2015 15:00:00 30.05833 C 15.03 g/m*3 30.06 C 5.89167 km/h
1704 16-07-2015 16:00:00 31.68333 C 15.1 g/m*3 31.68 C 10.09167 km/h
1705 16-07-2015 17:00:00 33.25833 C 14.61 g/m*3 33.26 C 9.13333 km/h
1706 16-07-2015 18:00:00 33.875 C 14.35 g/m*3 33.88 C 8.6 km/h
1707 16-07-2015 19:00:00 32.90833 C 14.97 g/m*3 32.91 C 3.33333 km/h
1708 16-07-2015 20:00:00 28.1 C 15.75 g/m*3 28.1 C 0.53333 km/h
1709 16-07-2015 21:00:00 24.98333 C 15.26 g/m*3 24.98 C 0.93333 km/h
1710 16-07-2015 22:00:00 23.65 C 14.7 g/m*3 23.65 C 0.93333 km/h
1711 16-07-2015 23:00:00 22.775 C 14.29 g/m*3 22.78 C 0 km/h
1712 17-07-2015 00:00:00 21.91667 C 14.07 g/m*3 21.92 C 0 km/h
1713 17-07-2015 01:00:00 20.79167 C 13.85 g/m*3 20.79 C 0 km/h
1714 17-07-2015 02:00:00 20.49167 C 14.14 g/m*3 20.49 C 0.8 km/h
1715 17-07-2015 03:00:00 20.30833 C 14.46 g/m*3 20.31 C 0 km/h
1716 17-07-2015 04:00:00 20.2 C 14.54 g/m*3 20.2 C 1.33333 km/h
1717 17-07-2015 05:00:00 23.15 C 13.99 g/m*3 23.15 C 8.0625 km/h
1718 17-07-2015 06:00:00 24.6 C 13.35 g/m*3 24.6 C 4.01667 km/h
1719 17-07-2015 07:00:00 22.40833 C 13.56 g/m*3 22.41 C 1.73333 km/h
1720 17-07-2015 08:00:00 23.53333 C 14.2 g/m*3 23.53 C 0.8 km/h
1721 17-07-2015 09:00:00 24.625 C 14.48 g/m*3 24.63 C 6.18333 km/h
1722 17-07-2015 10:00:00 26.875 C 14.25 g/m*3 26.88 C 11.825 km/h
1723 17-07-2015 11:00:00 29.18333 C 13.64 g/m*3 29.18 C 13.425 km/h
1724 17-07-2015 12:00:00 31.44167 C 13.9 g/m*3 31.44 C 9 km/h
1725 17-07-2015 13:00:00 33.81667 C 12.82 g/m*3 33.82 C 9.40833 km/h
Sensor: Nr:Datum:Temp:Abs-Feuchte:Windchill:Wind:
Aussen-T/F 1726 17-07-2015 14:00:00 35.61667 C 9.69 g/m*3 35.62 C 13.83333 km/h
1727 17-07-2015 15:00:00 36.24167 C 8.75 g/m*3 36.24 C 16.5 km/h
1728 17-07-2015 16:00:00 36.575 C 8.93 g/m*3 36.58 C 15.16667 km/h
1729 17-07-2015 17:00:00 36.50833 C 9.87 g/m*3 36.51 C 13.16667 km/h
1730 17-07-2015 18:00:00 35.98333 C 10.78 g/m*3 35.98 C 13.43333 km/h
1731 17-07-2015 19:00:00 34.875 C 11.06 g/m*3 34.88 C 9 km/h
1732 17-07-2015 20:00:00 32.46667 C 12.23 g/m*3 32.47 C 6.025 km/h
1733 17-07-2015 21:00:00 29.075 C 12.83 g/m*3 29.08 C 1.86667 km/h
1734 17-07-2015 22:00:00 26.58333 C 13.18 g/m*3 26.58 C 1.2 km/h
1735 17-07-2015 23:00:00 25.29167 C 13.38 g/m*3 25.29 C 1.86667 km/h
1736 18-07-2015 00:00:00 24.325 C 14.05 g/m*3 24.33 C 0.93333 km/h
1737 18-07-2015 01:00:00 22.775 C 14.05 g/m*3 22.78 C 0.66667 km/h
1738 18-07-2015 02:00:00 22.2 C 13.69 g/m*3 22.2 C 2.26667 km/h
1739 18-07-2015 03:00:00 21.225 C 13.52 g/m*3 21.23 C 0.53333 km/h
1740 18-07-2015 04:00:00 20.55 C 13.59 g/m*3 20.55 C 1.2 km/h
1741 18-07-2015 05:00:00 20.66667 C 13.94 g/m*3 20.67 C 3.875 km/h
1742 18-07-2015 06:00:00 20.46667 C 14.52 g/m*3 20.47 C 2 km/h
1743 18-07-2015 07:00:00 20.65833 C 14.88 g/m*3 20.66 C 0.53333 km/h
1744 18-07-2015 08:00:00 21.51667 C 15.1 g/m*3 21.52 C 1.06667 km/h
1745 18-07-2015 09:00:00 22.85 C 14.98 g/m*3 22.85 C 4.81667 km/h
1746 18-07-2015 10:00:00 24.93333 C 14.51 g/m*3 24.93 C 5.90833 km/h
1747 18-07-2015 11:00:00 26.575 C 14.01 g/m*3 26.58 C 11.95833 km/h
1748 18-07-2015 12:00:00 27.44167 C 13.21 g/m*3 27.44 C 13.56667 km/h
1749 18-07-2015 13:00:00 27.60833 C 12.8 g/m*3 27.61 C 8.73333 km/h
1750 18-07-2015 14:00:00 28 C 12.37 g/m*3 28 C 9.66667 km/h
Sensor: Nr:Datum:Temp:Abs-Feuchte:Windchill:Wind:
Aussen-T/F 1751 18-07-2015 15:00:00 27.16667 C 12.12 g/m*3 27.17 C 6.16667 km/h
1752 18-07-2015 16:00:00 26.76667 C 11.52 g/m*3 26.77 C 9.68333 km/h
1753 18-07-2015 17:00:00 26.98333 C 11.48 g/m*3 26.98 C 9.95 km/h
1754 18-07-2015 19:00:00 25.86667 C 11.92 g/m*3 25.87 C 1.6 km/h
1755 18-07-2015 20:00:00 25.90833 C 10.6 g/m*3 25.91 C 4.94167 km/h
1756 18-07-2015 21:00:00 22.6 C 10.88 g/m*3 22.6 C 0.53333 km/h
1757 18-07-2015 22:00:00 20.44167 C 10.91 g/m*3 20.44 C 0.13333 km/h
1758 18-07-2015 23:00:00 19.45 C 10.79 g/m*3 19.45 C 0.13333 km/h
1759 19-07-2015 00:00:00 18.85 C 10.9 g/m*3 18.85 C 0 km/h
1760 19-07-2015 05:00:00 16.3 C 12.76 g/m*3 16.3 C 1.4 km/h
1761 19-07-2015 07:00:00 16.325 C 13.13 g/m*3 16.33 C 9.65 km/h
1762 19-07-2015 08:00:00 17.15 C 13.87 g/m*3 17.15 C 0.8 km/h
1763 19-07-2015 09:00:00 17.65 C 14.44 g/m*3 17.65 C 2 km/h
1764 19-07-2015 10:00:00 20.08889 C 15.89 g/m*3 20.09 C 3.03333 km/h
1765 19-07-2015 11:00:00 22.53333 C 16.81 g/m*3 22.53 C 7.93333 km/h
1766 19-07-2015 12:00:00 22.825 C 16.41 g/m*3 22.83 C 11.81667 km/h
1767 19-07-2015 13:00:00 23.225 C 16.52 g/m*3 23.23 C 10.75833 km/h
1768 19-07-2015 14:00:00 23.775 C 16.24 g/m*3 23.78 C 12.225 km/h
1769 19-07-2015 15:00:00 24.14167 C 15.83 g/m*3 24.14 C 11.675 km/h
1770 19-07-2015 16:00:00 22.8 C 16.36 g/m*3 22.8 C 4.94167 km/h
1771 19-07-2015 17:00:00 23.575 C 14.44 g/m*3 23.58 C 17.3 km/h
1772 19-07-2015 18:00:00 23.175 C 13.74 g/m*3 23.18 C 13.96667 km/h
1773 19-07-2015 19:00:00 22.84167 C 13.6 g/m*3 22.84 C 13.15833 km/h
1774 19-07-2015 20:00:00 21.96667 C 13.56 g/m*3 21.97 C 10.21667 km/h
1775 19-07-2015 21:00:00 21.57143 C 13.8 g/m*3 21.57 C 12.44286 km/h
Sensor: Nr:Datum:Temp:Abs-Feuchte:Windchill:Wind:
Aussen-T/F 1776 20-07-2015 07:00:00 18.3 C 14.54 g/m*3 18.3 C 0.16 km/h
1777 20-07-2015 08:00:00 18.51667 C 14.94 g/m*3 18.52 C 0.26667 km/h
1778 20-07-2015 09:00:00 19.03333 C 15.46 g/m*3 19.03 C 0.71111 km/h
1779 20-07-2015 10:00:00 20.10833 C 16.19 g/m*3 20.11 C 1.2 km/h
1780 20-07-2015 11:00:00 21.35 C 16.9 g/m*3 21.35 C 2 km/h
1781 20-07-2015 12:00:00 23.075 C 17.29 g/m*3 23.08 C 5.5 km/h
1782 20-07-2015 13:00:00 24.19167 C 17.16 g/m*3 24.19 C 5.65 km/h
1783 20-07-2015 14:00:00 22.525 C 17.52 g/m*3 22.53 C 6.56667 km/h
1784 20-07-2015 15:00:00 22.4 C 18.19 g/m*3 22.4 C 2.24 km/h
1785 20-07-2015 16:00:00 24.2 C 19.09 g/m*3 24.2 C 4.83333 km/h
1786 20-07-2015 17:00:00 25.24167 C 18.71 g/m*3 25.24 C 3.74167 km/h
1787 20-07-2015 18:00:00 24.48333 C 18.04 g/m*3 24.48 C 3.20833 km/h
1788 20-07-2015 19:00:00 23.375 C 18.15 g/m*3 23.38 C 1.73333 km/h
1789 20-07-2015 20:00:00 22.35833 C 17.73 g/m*3 22.36 C 3.75 km/h
1790 20-07-2015 21:00:00 21.49167 C 17.37 g/m*3 21.49 C 0.53333 km/h
1791 20-07-2015 22:00:00 20.625 C 16.71 g/m*3 20.63 C 0.53333 km/h
1792 21-07-2015 02:00:00 18.75 C 15.33 g/m*3 18.75 C 0 km/h
1793 21-07-2015 03:00:00 19 C 15.64 g/m*3 19 C 0 km/h
1794 21-07-2015 04:00:00 18.87143 C 15.53 g/m*3 18.87 C 0.91429 km/h
1795 21-07-2015 05:00:00 18.3 C 15.01 g/m*3 18.3 C 0 km/h
1796 21-07-2015 07:00:00 18.66 C 15.43 g/m*3 18.66 C 2.88 km/h
1797 21-07-2015 08:00:00 21.46364 C 16.58 g/m*3 21.46 C 8.36364 km/h
1798 21-07-2015 09:00:00 22.64167 C 16.53 g/m*3 22.64 C 8.71667 km/h
1799 21-07-2015 10:00:00 23.85833 C 16.6 g/m*3 23.86 C 11.54167 km/h
1800 21-07-2015 11:00:00 25.13333 C 16.78 g/m*3 25.13 C 10.225 km/h
Sensor: Nr:Datum:Temp:Abs-Feuchte:Windchill:Wind:
Aussen-T/F 1801 21-07-2015 12:00:00 26.89167 C 16.63 g/m*3 26.89 C 11.56667 km/h
1802 21-07-2015 13:00:00 28.68333 C 16.59 g/m*3 28.68 C 11.43333 km/h
1803 21-07-2015 14:00:00 29.30833 C 16.45 g/m*3 29.31 C 8.73333 km/h
1804 21-07-2015 15:00:00 29.69167 C 16.7 g/m*3 29.69 C 10.075 km/h
1805 21-07-2015 16:00:00 31.34167 C 15.75 g/m*3 31.34 C 14.63333 km/h
1806 21-07-2015 17:00:00 32.31667 C 15.74 g/m*3 32.32 C 11.96667 km/h
1807 21-07-2015 18:00:00 31.29167 C 15.74 g/m*3 31.29 C 8.325 km/h
1808 21-07-2015 19:00:00 29.85 C 17.07 g/m*3 29.85 C 8.20833 km/h
1809 21-07-2015 20:00:00 28.3 C 17.51 g/m*3 28.3 C 6.43333 km/h
1810 21-07-2015 21:00:00 25.35833 C 17.62 g/m*3 25.36 C 1.06667 km/h
1811 21-07-2015 22:00:00 22.8 C 17.34 g/m*3 22.8 C 0.13333 km/h
1812 21-07-2015 23:00:00 21.875 C 17.07 g/m*3 21.88 C 0 km/h
1813 22-07-2015 00:00:00 21.31667 C 16.84 g/m*3 21.32 C 0 km/h
1814 22-07-2015 01:00:00 20.71667 C 16.55 g/m*3 20.72 C 0 km/h
1815 22-07-2015 02:00:00 20.15 C 16.2 g/m*3 20.15 C 0 km/h
1816 22-07-2015 03:00:00 19.48333 C 15.68 g/m*3 19.48 C 0 km/h
1817 22-07-2015 04:00:00 19.09167 C 15.43 g/m*3 19.09 C 0 km/h
1818 22-07-2015 05:00:00 18.7 C 15.21 g/m*3 18.7 C 0 km/h
1819 22-07-2015 06:00:00 18.80833 C 15.41 g/m*3 18.81 C 0 km/h
1820 22-07-2015 07:00:00 19.26 C 15.89 g/m*3 19.26 C 0.48 km/h
1821 22-07-2015 08:00:00 22.01667 C 17.23 g/m*3 22.02 C 3.75 km/h
1822 22-07-2015 09:00:00 22.76667 C 16.73 g/m*3 22.77 C 6.025 km/h
1823 22-07-2015 10:00:00 24.15833 C 16.9 g/m*3 24.16 C 8.05 km/h
1824 22-07-2015 11:00:00 24.80833 C 17.06 g/m*3 24.81 C 7.10833 km/h
1825 22-07-2015 12:00:00 26.20833 C 17.3 g/m*3 26.21 C 6.16667 km/h
Sensor: Nr:Datum:Temp:Abs-Feuchte:Windchill:Wind:
Aussen-T/F 1826 22-07-2015 13:00:00 27.09167 C 16.99 g/m*3 27.09 C 6.3 km/h
1827 22-07-2015 14:00:00 26.78333 C 15.94 g/m*3 26.78 C 9.00833 km/h
1828 22-07-2015 15:00:00 27.00833 C 15.92 g/m*3 27.01 C 7.79167 km/h
1829 22-07-2015 16:00:00 26.84167 C 15.92 g/m*3 26.84 C 7.39167 km/h
1830 22-07-2015 17:00:00 27.56667 C 15.6 g/m*3 27.57 C 8.58333 km/h
1831 22-07-2015 18:00:00 27.13333 C 14.3 g/m*3 27.13 C 7.925 km/h
1832 22-07-2015 19:00:00 25.71667 C 13.78 g/m*3 25.72 C 7.90833 km/h
1833 22-07-2015 20:00:00 24.625 C 13.02 g/m*3 24.63 C 9.83333 km/h
1834 22-07-2015 21:00:00 23.825 C 12.05 g/m*3 23.83 C 10.06667 km/h
1835 22-07-2015 22:00:00 22.75833 C 11.3 g/m*3 22.76 C 8.31667 km/h
1836 22-07-2015 23:00:00 21.69167 C 11.87 g/m*3 21.69 C 2.93333 km/h
1837 23-07-2015 00:00:00 20.00833 C 12.56 g/m*3 20.01 C 0 km/h
1838 23-07-2015 01:00:00 18.55833 C 12.29 g/m*3 18.56 C 0.66667 km/h
1839 23-07-2015 02:00:00 17.725 C 11.92 g/m*3 17.73 C 0.53333 km/h
1840 23-07-2015 03:00:00 16.96667 C 11.64 g/m*3 16.97 C 0.8 km/h
1841 23-07-2015 04:00:00 16.61667 C 11.68 g/m*3 16.62 C 1.46667 km/h
1842 23-07-2015 05:00:00 16.88333 C 11.89 g/m*3 16.88 C 0.13333 km/h
1843 23-07-2015 06:00:00 17.16667 C 11.67 g/m*3 17.17 C 1.2 km/h
1844 23-07-2015 07:00:00 17.80833 C 11 g/m*3 17.81 C 3.46667 km/h
1845 23-07-2015 08:00:00 18.5 C 10.92 g/m*3 18.5 C 7.65833 km/h
1846 23-07-2015 09:00:00 19.125 C 10.88 g/m*3 19.13 C 6.03333 km/h
1847 23-07-2015 10:00:00 20.55 C 10.99 g/m*3 20.55 C 8.33333 km/h
1848 23-07-2015 11:00:00 22.43333 C 11.14 g/m*3 22.43 C 8.34167 km/h
1849 23-07-2015 12:00:00 22.49167 C 11.26 g/m*3 22.49 C 5.75833 km/h
1850 23-07-2015 13:00:00 23.65 C 11.45 g/m*3 23.65 C 4.68333 km/h
Sensor: Nr:Datum:Temp:Abs-Feuchte:Windchill:Wind:
Aussen-T/F 1851 23-07-2015 14:00:00 24.55833 C 11.36 g/m*3 24.56 C 6.83333 km/h
1852 23-07-2015 15:00:00 24.86667 C 10.93 g/m*3 24.87 C 6.70833 km/h
1853 23-07-2015 16:00:00 25.16667 C 10.94 g/m*3 25.17 C 7.375 km/h
1854 23-07-2015 17:00:00 24.55 C 10.7 g/m*3 24.55 C 8.21667 km/h
1855 23-07-2015 18:00:00 25.46667 C 10.87 g/m*3 25.47 C 7.93333 km/h
1856 23-07-2015 19:00:00 25.24167 C 10.79 g/m*3 25.24 C 6.96667 km/h
1857 23-07-2015 20:00:00 22.375 C 11.4 g/m*3 22.38 C 2.13333 km/h
1858 23-07-2015 21:00:00 19.06667 C 11.67 g/m*3 19.07 C 0.13333 km/h
1859 23-07-2015 22:00:00 17.75 C 11.48 g/m*3 17.75 C 0.13333 km/h
1860 23-07-2015 23:00:00 16.95 C 11.35 g/m*3 16.95 C 0 km/h
1861 24-07-2015 00:00:00 16.3 C 11.04 g/m*3 16.3 C 0 km/h
1862 24-07-2015 01:00:00 15.33333 C 10.83 g/m*3 15.33 C 0 km/h
1863 24-07-2015 02:00:00 14.475 C 10.68 g/m*3 14.48 C 0 km/h
1864 24-07-2015 03:00:00 14.26667 C 10.71 g/m*3 14.27 C 0 km/h
1865 24-07-2015 04:00:00 13.91667 C 10.68 g/m*3 13.92 C 0 km/h
1866 24-07-2015 05:00:00 13.80833 C 10.73 g/m*3 13.81 C 0 km/h
1867 24-07-2015 06:00:00 13.73333 C 10.8 g/m*3 13.73 C 0 km/h
1868 24-07-2015 07:00:00 14.52 C 11.26 g/m*3 14.52 C 1.28 km/h
1869 24-07-2015 09:00:00 18.88 C 12.46 g/m*3 18.88 C 0.64 km/h
1870 24-07-2015 10:00:00 20.79167 C 12.85 g/m*3 20.79 C 2.4 km/h
1871 24-07-2015 11:00:00 23.71667 C 13.15 g/m*3 23.72 C 4 km/h
1872 24-07-2015 12:00:00 25.90833 C 12.9 g/m*3 25.91 C 4.55 km/h
1873 24-07-2015 13:00:00 26.60833 C 12.44 g/m*3 26.61 C 5.88333 km/h
1874 24-07-2015 14:00:00 27.1 C 12.34 g/m*3 27.1 C 6.43333 km/h
1875 24-07-2015 15:00:00 28.84167 C 12.81 g/m*3 28.84 C 8.33333 km/h
Sensor: Nr:Datum:Temp:Abs-Feuchte:Windchill:Wind:
Aussen-T/F 1876 24-07-2015 16:00:00 29.8 C 12.92 g/m*3 29.8 C 6.425 km/h
1877 24-07-2015 17:00:00 29.7 C 13.48 g/m*3 29.7 C 4.13333 km/h
1878 24-07-2015 18:00:00 26.91667 C 15.8 g/m*3 26.92 C 0.8 km/h
1879 24-07-2015 19:00:00 25.76667 C 15.56 g/m*3 25.77 C 0.13333 km/h
1880 24-07-2015 20:00:00 24.55 C 15.15 g/m*3 24.55 C 0.13333 km/h
1881 24-07-2015 21:00:00 23.03333 C 14.4 g/m*3 23.03 C 0.26667 km/h
1882 24-07-2015 22:00:00 22.875 C 14.44 g/m*3 22.88 C 5.89167 km/h
1883 24-07-2015 23:00:00 19.975 C 14.73 g/m*3 19.98 C 10.475 km/h
1884 25-07-2015 00:00:00 18.375 C 14.46 g/m*3 18.38 C 1.2 km/h
1885 25-07-2015 01:00:00 17.78333 C 14.34 g/m*3 17.78 C 0.13333 km/h
1886 25-07-2015 02:00:00 17.46667 C 14.14 g/m*3 17.47 C 0.13333 km/h
1887 25-07-2015 03:00:00 16.95833 C 13.8 g/m*3 16.96 C 0.4 km/h
1888 25-07-2015 04:00:00 16.6 C 13.56 g/m*3 16.6 C 0.26667 km/h
1889 25-07-2015 06:00:00 16.8 C 13.73 g/m*3 16.8 C 2.13333 km/h
1890 25-07-2015 07:00:00 17.33333 C 13.73 g/m*3 17.33 C 6.96667 km/h
1891 25-07-2015 08:00:00 18.89167 C 13.39 g/m*3 18.89 C 13.825 km/h
1892 25-07-2015 09:00:00 20 C 12.59 g/m*3 20 C 21.84167 km/h
1893 25-07-2015 10:00:00 19.35833 C 13.09 g/m*3 19.36 C 24.25833 km/h
1894 25-07-2015 11:00:00 18.20833 C 12.87 g/m*3 18.21 C 18.375 km/h
1895 25-07-2015 12:00:00 18.15833 C 12.73 g/m*3 18.16 C 13.825 km/h
1896 25-07-2015 13:00:00 17.69167 C 11.78 g/m*3 17.69 C 16.49167 km/h
1897 25-07-2015 14:00:00 18.83333 C 10.8 g/m*3 18.83 C 25.60833 km/h
1898 25-07-2015 15:00:00 18.79167 C 10.28 g/m*3 18.79 C 23.99167 km/h
1899 25-07-2015 16:00:00 18.175 C 10.18 g/m*3 18.18 C 24.8 km/h
1900 25-07-2015 17:00:00 17.325 C 10.12 g/m*3 17.33 C 23.59167 km/h
Sensor: Nr:Datum:Temp:Abs-Feuchte:Windchill:Wind:
Aussen-T/F 1901 25-07-2015 18:00:00 16.81667 C 9.73 g/m*3 16.82 C 23.30833 km/h
1902 25-07-2015 19:00:00 16.6 C 9.54 g/m*3 16.6 C 18.23333 km/h
1903 25-07-2015 20:00:00 16.13333 C 9.19 g/m*3 16.13 C 19.44167 km/h
1904 25-07-2015 21:00:00 15.15833 C 8.89 g/m*3 15.16 C 11.825 km/h
1905 25-07-2015 22:00:00 14.16667 C 8.89 g/m*3 14.17 C 8.86667 km/h
1906 25-07-2015 23:00:00 13.43333 C 9.03 g/m*3 13.43 C 2.66667 km/h
1907 26-07-2015 00:00:00 12.85833 C 9.09 g/m*3 12.86 C 3.6 km/h
1908 26-07-2015 01:00:00 12.325 C 9.04 g/m*3 12.33 C 3.46667 km/h
1909 26-07-2015 02:00:00 12.025 C 9.03 g/m*3 12.03 C 2.53333 km/h
1910 26-07-2015 03:00:00 11.86364 C 8.98 g/m*3 11.86 C 3.92727 km/h
1911 26-07-2015 04:00:00 10.71111 C 8.74 g/m*3 10.71 C 0.71111 km/h
1912 26-07-2015 05:00:00 10.225 C 8.67 g/m*3 10.23 C 1.73333 km/h
1913 26-07-2015 06:00:00 9.88333 C 8.57 g/m*3 9.88 C 2.8 km/h
1914 26-07-2015 07:00:00 10.15 C 8.77 g/m*3 10.15 C 2.66667 km/h
1915 26-07-2015 08:00:00 11.63333 C 9.39 g/m*3 11.63 C 2.55 km/h
1916 26-07-2015 09:00:00 14.66667 C 9.78 g/m*3 14.67 C 6.00833 km/h
1917 26-07-2015 10:00:00 16.95833 C 9.56 g/m*3 16.96 C 6.3 km/h
1918 26-07-2015 11:00:00 18.98333 C 8.9 g/m*3 18.98 C 6.575 km/h
1919 26-07-2015 12:00:00 20.85 C 8.87 g/m*3 20.85 C 7.25833 km/h
1920 26-07-2015 13:00:00 21.25833 C 8.6 g/m*3 21.26 C 7.38333 km/h
1921 26-07-2015 14:00:00 22.05833 C 8.42 g/m*3 22.06 C 8.325 km/h
1922 26-07-2015 15:00:00 23.31667 C 8.25 g/m*3 23.32 C 8.34167 km/h
1923 26-07-2015 16:00:00 23.26667 C 8.05 g/m*3 23.27 C 9.54167 km/h
1924 26-07-2015 17:00:00 21.85 C 8.64 g/m*3 21.85 C 2.66667 km/h
1925 26-07-2015 18:00:00 17.875 C 11.45 g/m*3 17.88 C 1.06667 km/h
Sensor: Nr:Datum:Temp:Abs-Feuchte:Windchill:Wind:
Aussen-T/F 1926 26-07-2015 19:00:00 15.225 C 11.53 g/m*3 15.23 C 0.53333 km/h
1927 26-07-2015 20:00:00 14.22857 C 11.32 g/m*3 14.23 C 1.82857 km/h
1928 26-07-2015 22:00:00 13.53333 C 11.13 g/m*3 13.53 C 0 km/h
1929 26-07-2015 23:00:00 13.3625 C 11.1 g/m*3 13.36 C 0 km/h
1930 27-07-2015 00:00:00 13.27273 C 11.11 g/m*3 13.27 C 0.14545 km/h
1931 27-07-2015 01:00:00 12.8 C 10.98 g/m*3 12.8 C 2.4 km/h
1932 27-07-2015 02:00:00 12.76667 C 10.73 g/m*3 12.77 C 0.8 km/h
1933 27-07-2015 03:00:00 12.7 C 10.69 g/m*3 12.7 C 3.2 km/h
1934 27-07-2015 04:00:00 13.92727 C 11.53 g/m*3 13.93 C 0.58182 km/h
1935 27-07-2015 05:00:00 14.225 C 11.74 g/m*3 14.23 C 0 km/h
1936 27-07-2015 06:00:00 14.8 C 12.21 g/m*3 14.8 C 3.34167 km/h
1937 27-07-2015 07:00:00 15.55 C 12.66 g/m*3 15.55 C 4.28333 km/h
1938 27-07-2015 08:00:00 15.925 C 12.88 g/m*3 15.93 C 4.425 km/h
1939 27-07-2015 09:00:00 16.175 C 12.84 g/m*3 16.18 C 7.90833 km/h
1940 27-07-2015 10:00:00 17.11667 C 12.69 g/m*3 17.12 C 10.48333 km/h
1941 27-07-2015 11:00:00 18.40833 C 12.55 g/m*3 18.41 C 17.43333 km/h
1942 27-07-2015 12:00:00 18.04167 C 12.43 g/m*3 18.04 C 14.1 km/h
1943 27-07-2015 13:00:00 19.15 C 12.52 g/m*3 19.15 C 19.83333 km/h
1944 27-07-2015 14:00:00 18.68333 C 12.54 g/m*3 18.68 C 17.3 km/h
1945 27-07-2015 15:00:00 20.18333 C 12.27 g/m*3 20.18 C 20.9 km/h
1946 27-07-2015 16:00:00 20.63333 C 12.42 g/m*3 20.63 C 16.63333 km/h
1947 27-07-2015 17:00:00 20.50833 C 12.51 g/m*3 20.51 C 16.1 km/h
1948 27-07-2015 18:00:00 20.75833 C 12.79 g/m*3 20.76 C 10.88333 km/h
1949 27-07-2015 19:00:00 20.9 C 11.82 g/m*3 20.9 C 15.43333 km/h
1950 27-07-2015 20:00:00 20.15 C 11.65 g/m*3 20.15 C 9.25833 km/h
Sensor: Nr:Datum:Temp:Abs-Feuchte:Windchill:Wind:
Aussen-T/F 1951 27-07-2015 21:00:00 19.7 C 11.43 g/m*3 19.7 C 8.85 km/h
1952 27-07-2015 22:00:00 18.94167 C 11.21 g/m*3 18.94 C 5.09167 km/h
1953 27-07-2015 23:00:00 18.69167 C 11.33 g/m*3 18.69 C 11.95 km/h
1954 28-07-2015 00:00:00 16.76667 C 11.38 g/m*3 16.77 C 8.45833 km/h
1955 28-07-2015 01:00:00 16.05 C 11.5 g/m*3 16.05 C 0 km/h
1956 28-07-2015 02:00:00 15.66667 C 11.49 g/m*3 15.67 C 2.15 km/h
1957 28-07-2015 03:00:00 15.61667 C 9.98 g/m*3 15.62 C 8.31667 km/h
1958 28-07-2015 04:00:00 14.41667 C 9.82 g/m*3 14.42 C 2.55 km/h
1959 28-07-2015 05:00:00 13.875 C 9.49 g/m*3 13.88 C 2.53333 km/h
1960 28-07-2015 06:00:00 13.71667 C 9.29 g/m*3 13.72 C 3.48333 km/h
1961 28-07-2015 07:00:00 14.18333 C 9.48 g/m*3 14.18 C 9.93333 km/h
1962 28-07-2015 08:00:00 15.20833 C 9.44 g/m*3 15.21 C 14.5 km/h
1963 28-07-2015 09:00:00 16.225 C 9.17 g/m*3 16.23 C 15.96667 km/h
1964 28-07-2015 10:00:00 17.5 C 9.12 g/m*3 17.5 C 19.70833 km/h
1965 28-07-2015 11:00:00 18.025 C 9.09 g/m*3 18.02 C 18.1 km/h
1966 28-07-2015 12:00:00 18.68333 C 8.81 g/m*3 18.68 C 17.83333 km/h
1967 28-07-2015 13:00:00 19.59167 C 8.48 g/m*3 19.59 C 20.25 km/h
1968 28-07-2015 14:00:00 19.75 C 8.16 g/m*3 19.75 C 15.55833 km/h
1969 28-07-2015 15:00:00 21.01667 C 8.16 g/m*3 21.02 C 19.04167 km/h
1970 28-07-2015 16:00:00 20.03333 C 8.1 g/m*3 20.03 C 14.76667 km/h
1971 28-07-2015 17:00:00 19.49167 C 8.25 g/m*3 19.49 C 11.675 km/h
1972 28-07-2015 18:00:00 19.04167 C 8.25 g/m*3 19.04 C 15.03333 km/h
1973 28-07-2015 19:00:00 18.71667 C 8.2 g/m*3 18.72 C 9.40833 km/h
1974 28-07-2015 20:00:00 18.13333 C 8.15 g/m*3 18.13 C 5.35 km/h
1975 28-07-2015 21:00:00 17.71667 C 8.41 g/m*3 17.72 C 8.06667 km/h
Sensor: Nr:Datum:Temp:Abs-Feuchte:Windchill:Wind:
Aussen-T/F 1976 28-07-2015 22:00:00 16.85833 C 8.91 g/m*3 16.86 C 6.71667 km/h
1977 28-07-2015 23:00:00 15.32 C 9.44 g/m*3 15.32 C 0.16 km/h
1978 29-07-2015 03:00:00 14.24 C 9.13 g/m*3 14.24 C 1.6 km/h
1979 29-07-2015 05:00:00 12.43333 C 9.09 g/m*3 12.43 C 1.06667 km/h
1980 29-07-2015 07:00:00 13.6 C 11.77 g/m*3 13.6 C 8.85 km/h
1981 29-07-2015 08:00:00 14.4 C 9.35 g/m*3 14.4 C 10.35 km/h
1982 29-07-2015 09:00:00 15.51667 C 9.09 g/m*3 15.52 C 15.16667 km/h
1983 29-07-2015 10:00:00 16.95 C 8.7 g/m*3 16.95 C 14.625 km/h
1984 29-07-2015 11:00:00 18.475 C 7.95 g/m*3 18.48 C 15.43333 km/h
1985 29-07-2015 12:00:00 19.675 C 7.28 g/m*3 19.68 C 14.23333 km/h
1986 29-07-2015 13:00:00 20.11667 C 7.4 g/m*3 20.12 C 16.23333 km/h
1987 29-07-2015 14:00:00 20.69167 C 7.33 g/m*3 20.69 C 17.7 km/h
1988 29-07-2015 15:00:00 21.31667 C 7.12 g/m*3 21.32 C 15.83333 km/h
1989 29-07-2015 16:00:00 21.3 C 7.15 g/m*3 21.3 C 17.96667 km/h
1990 29-07-2015 17:00:00 20.55833 C 7.65 g/m*3 20.56 C 16.76667 km/h
1991 29-07-2015 18:00:00 18.5 C 9.56 g/m*3 18.5 C 10.05833 km/h
1992 29-07-2015 19:00:00 19.075 C 8.62 g/m*3 19.08 C 10.73333 km/h
1993 29-07-2015 20:00:00 18.60833 C 8.43 g/m*3 18.61 C 8.2 km/h
1994 29-07-2015 21:00:00 16.71667 C 8.49 g/m*3 16.72 C 4.01667 km/h
1995 29-07-2015 22:00:00 15.25833 C 8.24 g/m*3 15.26 C 2.53333 km/h
1996 29-07-2015 23:00:00 13.65 C 8.37 g/m*3 13.65 C 0.53333 km/h
1997 30-07-2015 00:00:00 12.24167 C 8.27 g/m*3 12.24 C 0.13333 km/h
1998 30-07-2015 01:00:00 11.425 C 8.16 g/m*3 11.43 C 0.26667 km/h
1999 30-07-2015 02:00:00 10.975 C 8.17 g/m*3 10.98 C 2.95 km/h
2000 30-07-2015 03:00:00 10.44167 C 8.12 g/m*3 10.44 C 1.33333 km/h
Sensor: Nr:Datum:Temp:Abs-Feuchte:Windchill:Wind:
Aussen-T/F 2001 30-07-2015 04:00:00 10.2 C 8.11 g/m*3 10.2 C 3.2 km/h
2002 30-07-2015 05:00:00 10.13333 C 8.15 g/m*3 9.35 C 7.125 km/h
2003 30-07-2015 06:00:00 9.89167 C 8.1 g/m*3 9.89 C 3.2 km/h
2004 30-07-2015 07:00:00 10.775 C 8.39 g/m*3 10.49 C 5.5 km/h
2005 30-07-2015 08:00:00 12.26667 C 8.73 g/m*3 12.27 C 7.10833 km/h
2006 30-07-2015 09:00:00 13.41667 C 8.94 g/m*3 13.42 C 6.425 km/h
2007 30-07-2015 10:00:00 15.63333 C 9.28 g/m*3 15.63 C 6.69167 km/h
2008 30-07-2015 11:00:00 18.25833 C 9.23 g/m*3 18.26 C 6.96667 km/h
2009 30-07-2015 12:00:00 18.975 C 9.09 g/m*3 18.98 C 5.21667 km/h
2010 30-07-2015 13:00:00 18.94167 C 9.5 g/m*3 18.94 C 7.11667 km/h
2011 30-07-2015 14:00:00 20.34167 C 9.24 g/m*3 20.34 C 9.26667 km/h
2012 30-07-2015 15:00:00 17.9 C 9.72 g/m*3 17.9 C 8.6 km/h
2013 30-07-2015 16:00:00 16.125 C 10.16 g/m*3 16.13 C 4.95833 km/h
2014 30-07-2015 17:00:00 15.05 C 9.75 g/m*3 15.05 C 4.69167 km/h
2015 30-07-2015 18:00:00 15.56667 C 9.79 g/m*3 15.57 C 1.73333 km/h
2016 30-07-2015 19:00:00 15.85 C 9.92 g/m*3 15.85 C 2.8 km/h
2017 30-07-2015 20:00:00 15.48 C 10.59 g/m*3 15.48 C 1.92 km/h
2018 31-07-2015 00:00:00 11.15714 C 9.5 g/m*3 11.16 C 1.14286 km/h
2019 31-07-2015 01:00:00 10.74286 C 9.26 g/m*3 10.74 C 0 km/h
2020 31-07-2015 03:00:00 10.35 C 9.13 g/m*3 10.35 C 0 km/h
2021 31-07-2015 04:00:00 10.55833 C 9.25 g/m*3 10.56 C 0.13333 km/h
2022 31-07-2015 05:00:00 10.7 C 9.33 g/m*3 10.7 C 0 km/h
2023 31-07-2015 07:00:00 10.79091 C 9.38 g/m*3 10.79 C 0 km/h
2024 31-07-2015 08:00:00 11.96667 C 9.86 g/m*3 11.97 C 2 km/h
2025 31-07-2015 09:00:00 13.53333 C 9.93 g/m*3 13.53 C 5.20833 km/h
Sensor: Nr:Datum:Temp:Abs-Feuchte:Windchill:Wind:
Aussen-T/F 2026 31-07-2015 10:00:00 15.05 C 9.69 g/m*3 15.05 C 6.85833 km/h
2027 31-07-2015 11:00:00 17.075 C 9.37 g/m*3 17.08 C 7.39167 km/h
2028 31-07-2015 12:00:00 18.68333 C 9.25 g/m*3 18.68 C 7.65833 km/h
2029 31-07-2015 13:00:00 20.1 C 8.82 g/m*3 20.1 C 7.24167 km/h
2030 31-07-2015 14:00:00 21.425 C 8.32 g/m*3 21.43 C 10.49167 km/h
2031 31-07-2015 15:00:00 22.5 C 8.01 g/m*3 22.5 C 9.68333 km/h
2032 31-07-2015 16:00:00 22.525 C 7.93 g/m*3 22.53 C 9.15 km/h
2033 31-07-2015 17:00:00 23.28333 C 7.89 g/m*3 23.28 C 8.73333 km/h
2034 31-07-2015 18:00:00 23.70833 C 7.85 g/m*3 23.71 C 9.15 km/h
2035 31-07-2015 19:00:00 22.525 C 7.92 g/m*3 22.53 C 10.49167 km/h
2036 31-07-2015 20:00:00 20.63333 C 8.19 g/m*3 20.63 C 4.825 km/h
2037 31-07-2015 21:00:00 16.63333 C 8.27 g/m*3 16.63 C 0.53333 km/h
2038 31-07-2015 22:00:00 14.91667 C 8.8 g/m*3 14.92 C 0.8 km/h
2039 31-07-2015 23:00:00 13.79167 C 8.52 g/m*3 13.79 C 0 km/h
2040 01-08-2015 00:00:00 13.20833 C 8.53 g/m*3 13.21 C 0 km/h
2041 01-08-2015 01:00:00 13.1 C 8.57 g/m*3 13.1 C 0 km/h
2042 01-08-2015 02:00:00 12.85 C 8.46 g/m*3 12.85 C 0 km/h
2043 01-08-2015 03:00:00 12.75833 C 8.3 g/m*3 12.76 C 0 km/h
2044 01-08-2015 04:00:00 12.66667 C 8.37 g/m*3 12.67 C 0 km/h
2045 01-08-2015 05:00:00 12.68333 C 8.43 g/m*3 12.68 C 0 km/h
2046 01-08-2015 06:00:00 12.21667 C 8.43 g/m*3 12.22 C 0 km/h
2047 01-08-2015 07:00:00 12.79167 C 9.04 g/m*3 12.79 C 0 km/h
2048 01-08-2015 08:00:00 14.34167 C 9.25 g/m*3 14.34 C 0.13333 km/h
2049 01-08-2015 09:00:00 15.43333 C 9.28 g/m*3 15.43 C 1.46667 km/h
2050 01-08-2015 10:00:00 17.15833 C 9.4 g/m*3 17.16 C 3.6 km/h
Sensor: Nr:Datum:Temp:Abs-Feuchte:Windchill:Wind:
Aussen-T/F 2051 01-08-2015 11:00:00 20.44167 C 9.65 g/m*3 20.44 C 5.35 km/h
2052 01-08-2015 12:00:00 23.1 C 9.66 g/m*3 23.1 C 6.025 km/h
2053 01-08-2015 13:00:00 25.25833 C 9.46 g/m*3 25.26 C 8.06667 km/h
2054 01-08-2015 14:00:00 26.96667 C 9.5 g/m*3 26.97 C 8.875 km/h
2055 01-08-2015 15:00:00 28.00833 C 9.43 g/m*3 28.01 C 8.625 km/h
2056 01-08-2015 16:00:00 28.125 C 9.22 g/m*3 28.13 C 6.98333 km/h
2057 01-08-2015 17:00:00 27.60833 C 9.32 g/m*3 27.61 C 5.89167 km/h
2058 01-08-2015 18:00:00 26.31667 C 10.1 g/m*3 26.32 C 6.03333 km/h
2059 01-08-2015 19:00:00 26.99167 C 9.69 g/m*3 26.99 C 9.80833 km/h
2060 01-08-2015 20:00:00 23.00833 C 10.25 g/m*3 23.01 C 2.675 km/h
2061 01-08-2015 21:00:00 20.3 C 10.39 g/m*3 20.3 C 0.8 km/h
2062 01-08-2015 22:00:00 18.6 C 10.27 g/m*3 18.6 C 1.06667 km/h
2063 01-08-2015 23:00:00 17.85 C 10.12 g/m*3 17.85 C 1.06667 km/h
2064 02-08-2015 00:00:00 17.325 C 10.13 g/m*3 17.33 C 0.93333 km/h
2065 02-08-2015 01:00:00 16.28333 C 9.99 g/m*3 16.28 C 0.26667 km/h
2066 02-08-2015 02:00:00 15.575 C 9.89 g/m*3 15.58 C 0.8 km/h
2067 02-08-2015 03:00:00 14.49167 C 9.85 g/m*3 14.49 C 0.53333 km/h
2068 02-08-2015 04:00:00 13.5 C 9.74 g/m*3 13.5 C 0 km/h
2069 02-08-2015 05:00:00 12.525 C 9.55 g/m*3 12.53 C 0 km/h
2070 02-08-2015 06:00:00 12.025 C 9.46 g/m*3 12.03 C 0 km/h
2071 02-08-2015 07:00:00 12.33333 C 9.68 g/m*3 12.33 C 0.13333 km/h
2072 02-08-2015 08:00:00 13.51667 C 10.26 g/m*3 13.52 C 0 km/h
2073 02-08-2015 09:00:00 15.48333 C 10.85 g/m*3 15.48 C 0 km/h
2074 02-08-2015 10:00:00 17.90833 C 11.22 g/m*3 17.91 C 1.73333 km/h
2075 02-08-2015 11:00:00 22.45 C 11.49 g/m*3 22.45 C 2.66667 km/h
Sensor: Nr:Datum:Temp:Abs-Feuchte:Windchill:Wind:
Aussen-T/F 2076 02-08-2015 12:00:00 25.24167 C 11.45 g/m*3 25.24 C 5.88333 km/h
2077 02-08-2015 13:00:00 27.275 C 11.21 g/m*3 27.28 C 7.375 km/h
2078 02-08-2015 14:00:00 28.58333 C 11.02 g/m*3 28.58 C 7.11667 km/h
2079 02-08-2015 15:00:00 29.575 C 10.72 g/m*3 29.58 C 7.525 km/h
2080 02-08-2015 16:00:00 30.74167 C 10.39 g/m*3 30.74 C 10.225 km/h
2081 02-08-2015 17:00:00 30.49167 C 10.38 g/m*3 30.49 C 9.26667 km/h
2082 02-08-2015 18:00:00 29.90833 C 10.36 g/m*3 29.91 C 7.10833 km/h
2083 02-08-2015 19:00:00 28.9 C 10.71 g/m*3 28.9 C 6.725 km/h
2084 02-08-2015 20:00:00 25.39167 C 12.45 g/m*3 25.39 C 0.26667 km/h
2085 02-08-2015 21:00:00 21.51667 C 10.68 g/m*3 21.52 C 1.6 km/h
2086 02-08-2015 22:00:00 20.38333 C 10.18 g/m*3 20.38 C 0.93333 km/h
2087 02-08-2015 23:00:00 18.90833 C 10.55 g/m*3 18.91 C 0 km/h
2088 03-08-2015 00:00:00 17.80833 C 10.45 g/m*3 17.81 C 0.13333 km/h
2089 03-08-2015 01:00:00 16.69167 C 10.33 g/m*3 16.69 C 0 km/h
2090 03-08-2015 02:00:00 15.60833 C 10.27 g/m*3 15.61 C 0 km/h
2091 03-08-2015 03:00:00 14.875 C 10.13 g/m*3 14.88 C 0 km/h
2092 03-08-2015 04:00:00 14.225 C 10 g/m*3 14.23 C 0 km/h
2093 03-08-2015 05:00:00 13.70833 C 9.94 g/m*3 13.71 C 0 km/h
2094 03-08-2015 06:00:00 13.41667 C 9.91 g/m*3 13.42 C 0 km/h
2095 03-08-2015 07:00:00 13.61667 C 10.2 g/m*3 13.62 C 0 km/h
2096 03-08-2015 08:00:00 14.88333 C 10.79 g/m*3 14.88 C 0 km/h
2097 03-08-2015 09:00:00 17.125 C 11.48 g/m*3 17.13 C 0 km/h
2098 03-08-2015 10:00:00 19.575 C 12.46 g/m*3 19.58 C 0 km/h
2099 03-08-2015 11:00:00 25.125 C 12.29 g/m*3 25.13 C 2.275 km/h
2100 03-08-2015 12:00:00 30.45 C 10.64 g/m*3 30.45 C 7.8 km/h
Sensor: Nr:Datum:Temp:Abs-Feuchte:Windchill:Wind:
Aussen-T/F 2101 03-08-2015 13:00:00 31.95 C 10.66 g/m*3 31.95 C 8.31667 km/h
2102 03-08-2015 14:00:00 33.08333 C 10.13 g/m*3 33.08 C 8.98333 km/h
2103 03-08-2015 15:00:00 33.99167 C 9.97 g/m*3 33.99 C 8.86667 km/h
2104 03-08-2015 16:00:00 35.05 C 10.54 g/m*3 35.05 C 6.29167 km/h
2105 03-08-2015 17:00:00 35.63333 C 10.04 g/m*3 35.63 C 7.93333 km/h
2106 03-08-2015 18:00:00 34.86667 C 9.98 g/m*3 34.87 C 6.175 km/h
2107 03-08-2015 19:00:00 29.35833 C 12.25 g/m*3 29.36 C 0.8 km/h
2108 03-08-2015 20:00:00 25.85833 C 11.63 g/m*3 25.86 C 1.06667 km/h
2109 03-08-2015 21:00:00 23.81 C 11.49 g/m*3 23.81 C 0.16 km/h
2110 03-08-2015 22:00:00 23.28571 C 11.7 g/m*3 23.29 C 0.91429 km/h
2111 03-08-2015 23:00:00 22.75833 C 11.84 g/m*3 22.76 C 0.66667 km/h
2112 04-08-2015 00:00:00 21.81667 C 12.1 g/m*3 21.82 C 0 km/h
2113 04-08-2015 01:00:00 19.275 C 12.01 g/m*3 19.27 C 0 km/h
2114 04-08-2015 02:00:00 18.09167 C 11.66 g/m*3 18.09 C 0 km/h
2115 04-08-2015 03:00:00 17.3 C 11.44 g/m*3 17.3 C 0 km/h
2116 04-08-2015 04:00:00 16.74167 C 11.37 g/m*3 16.74 C 0 km/h
2117 04-08-2015 05:00:00 16.24167 C 11.39 g/m*3 16.24 C 0 km/h
2118 04-08-2015 06:00:00 16.075 C 11.55 g/m*3 16.08 C 0 km/h
2119 04-08-2015 07:00:00 17.00833 C 12.11 g/m*3 17.01 C 0 km/h
2120 04-08-2015 08:00:00 19.69167 C 12.76 g/m*3 19.69 C 0.8 km/h
2121 04-08-2015 09:00:00 21.90833 C 13.43 g/m*3 21.91 C 1.60833 km/h
2122 04-08-2015 10:00:00 23.99167 C 13.16 g/m*3 23.99 C 6.3 km/h
2123 04-08-2015 11:00:00 24.10833 C 13.17 g/m*3 24.11 C 11.275 km/h
2124 04-08-2015 12:00:00 21.38333 C 14.92 g/m*3 21.38 C 3.225 km/h
2125 04-08-2015 13:00:00 19.75833 C 15.59 g/m*3 19.76 C 0.53333 km/h
Sensor: Nr:Datum:Temp:Abs-Feuchte:Windchill:Wind:
Aussen-T/F 2126 04-08-2015 14:00:00 20.55 C 16.02 g/m*3 20.55 C 3.60833 km/h
2127 04-08-2015 15:00:00 21.60833 C 16.32 g/m*3 21.61 C 6.31667 km/h
2128 04-08-2015 16:00:00 21.08333 C 16.69 g/m*3 21.08 C 0.13333 km/h
2129 04-08-2015 17:00:00 18.89167 C 14.44 g/m*3 18.89 C 9.55 km/h
2130 04-08-2015 18:00:00 18.24167 C 13.95 g/m*3 18.24 C 6.16667 km/h
2131 04-08-2015 19:00:00 18.6 C 14.1 g/m*3 18.6 C 1.6 km/h
2132 04-08-2015 20:00:00 18.15833 C 14.08 g/m*3 18.16 C 0 km/h
2133 04-08-2015 21:00:00 16.35 C 12.89 g/m*3 16.35 C 0.26667 km/h
2134 04-08-2015 22:00:00 15.31667 C 12.3 g/m*3 15.32 C 0 km/h
2135 04-08-2015 23:00:00 14.6 C 11.88 g/m*3 14.6 C 0 km/h

Maximal/Minimal-Werte vom 23.02.2003 - 03.08.2020

Sensor Min Max Avg
Temp
(Aussen-T/F)
-16.4 °C
20-12-2009  01:30:01
40.4 °C
25-07-2019  16:20:00
11.23 °C

Die Daten stammen von einer Davis Vantage Pro 2 Wetter-Station und werden unter Linux mit der Software wview2wettercgi und aufbereitet. Alle Angaben erfolgen ohne Gewähr für ihre Vollständigkeit oder Richtigkeit.
Kontakt: Rainer Krienke krienke@uni-koblenz.de . Meine Webseiten an der Uni Koblenz oder privat.
Version: $Revision: 0.78 $